<?xml version="1.0" encoding="UTF-8" standalone="no" ?>
<gpx xmlns="http://www.topografix.com/GPX/1/1" xmlns:xsi="http://www.w3.org/2001/XMLSchema-instance" xsi:schemaLocation="http://www.topografix.com/GPX/1/1 http://www.topografix.com/GPX/1/1/gpx.xsd" version="1.1" creator="VisuGPX - https://www.visugpx.com">
  <metadata>
    <name>Les Plos - St Guilhem - Les Fenestrettes</name>
    <desc><![CDATA[Bon repérage... Belle journée
L\'idéal départ au bord de l\'Hérault au niveau de la Combe de Brunan, direction St Guilhem, retour par le pierrier...]]></desc>
  </metadata>
  <trk>
    <name><![CDATA[LesPlosStGuilhem]]></name>
    <trkseg>
      <trkpt lat="43.721" lon="3.53645">
        <ele>348.153</ele>
        <time>2013-03-02T09:15:45Z</time>
      </trkpt>
      <trkpt lat="43.721" lon="3.53645">
        <ele>348.238</ele>
        <time>2013-03-02T09:15:46Z</time>
      </trkpt>
      <trkpt lat="43.721" lon="3.53645">
        <ele>347.993</ele>
        <time>2013-03-02T09:15:47Z</time>
      </trkpt>
      <trkpt lat="43.721" lon="3.53645">
        <ele>348.385</ele>
        <time>2013-03-02T09:16:19Z</time>
      </trkpt>
      <trkpt lat="43.72099" lon="3.53645">
        <ele>350.266</ele>
        <time>2013-03-02T09:17:33Z</time>
      </trkpt>
      <trkpt lat="43.72099" lon="3.53648">
        <ele>350.183</ele>
        <time>2013-03-02T09:17:35Z</time>
      </trkpt>
      <trkpt lat="43.72111" lon="3.53659">
        <ele>350.335</ele>
        <time>2013-03-02T09:17:53Z</time>
      </trkpt>
      <trkpt lat="43.72116" lon="3.53661">
        <ele>349.995</ele>
        <time>2013-03-02T09:18:10Z</time>
      </trkpt>
      <trkpt lat="43.7212" lon="3.53657">
        <ele>351.017</ele>
        <time>2013-03-02T09:18:24Z</time>
      </trkpt>
      <trkpt lat="43.72129" lon="3.53652">
        <ele>350.293</ele>
        <time>2013-03-02T09:18:34Z</time>
      </trkpt>
      <trkpt lat="43.72138" lon="3.53651">
        <ele>351.032</ele>
        <time>2013-03-02T09:18:45Z</time>
      </trkpt>
      <trkpt lat="43.72147" lon="3.53646">
        <ele>349.995</ele>
        <time>2013-03-02T09:18:56Z</time>
      </trkpt>
      <trkpt lat="43.72162" lon="3.53643">
        <ele>350.142</ele>
        <time>2013-03-02T09:19:11Z</time>
      </trkpt>
      <trkpt lat="43.72164" lon="3.53645">
        <ele>349.841</ele>
        <time>2013-03-02T09:19:14Z</time>
      </trkpt>
      <trkpt lat="43.72173" lon="3.53651">
        <ele>352.275</ele>
        <time>2013-03-02T09:19:21Z</time>
      </trkpt>
      <trkpt lat="43.72177" lon="3.53654">
        <ele>351.984</ele>
        <time>2013-03-02T09:19:25Z</time>
      </trkpt>
      <trkpt lat="43.72182" lon="3.53658">
        <ele>351.619</ele>
        <time>2013-03-02T09:19:37Z</time>
      </trkpt>
      <trkpt lat="43.72187" lon="3.53665">
        <ele>351.098</ele>
        <time>2013-03-02T09:19:48Z</time>
      </trkpt>
      <trkpt lat="43.72188" lon="3.53666">
        <ele>350.401</ele>
        <time>2013-03-02T09:19:49Z</time>
      </trkpt>
      <trkpt lat="43.72192" lon="3.53673">
        <ele>349.246</ele>
        <time>2013-03-02T09:19:56Z</time>
      </trkpt>
      <trkpt lat="43.7219" lon="3.53677">
        <ele>348.701</ele>
        <time>2013-03-02T09:19:59Z</time>
      </trkpt>
      <trkpt lat="43.72189" lon="3.53683">
        <ele>348.183</ele>
        <time>2013-03-02T09:20:04Z</time>
      </trkpt>
      <trkpt lat="43.72186" lon="3.53688">
        <ele>347.774</ele>
        <time>2013-03-02T09:20:08Z</time>
      </trkpt>
      <trkpt lat="43.72185" lon="3.53695">
        <ele>347.634</ele>
        <time>2013-03-02T09:20:13Z</time>
      </trkpt>
      <trkpt lat="43.72186" lon="3.53698">
        <ele>347.336</ele>
        <time>2013-03-02T09:20:15Z</time>
      </trkpt>
      <trkpt lat="43.72184" lon="3.53702">
        <ele>347.375</ele>
        <time>2013-03-02T09:20:18Z</time>
      </trkpt>
      <trkpt lat="43.72182" lon="3.53709">
        <ele>347.131</ele>
        <time>2013-03-02T09:20:22Z</time>
      </trkpt>
      <trkpt lat="43.72179" lon="3.53712">
        <ele>346.829</ele>
        <time>2013-03-02T09:20:25Z</time>
      </trkpt>
      <trkpt lat="43.7217" lon="3.53719">
        <ele>346.25</ele>
        <time>2013-03-02T09:20:37Z</time>
      </trkpt>
      <trkpt lat="43.72165" lon="3.53723">
        <ele>345.334</ele>
        <time>2013-03-02T09:20:43Z</time>
      </trkpt>
      <trkpt lat="43.72157" lon="3.53728">
        <ele>345.274</ele>
        <time>2013-03-02T09:20:57Z</time>
      </trkpt>
      <trkpt lat="43.72151" lon="3.53729">
        <ele>348.57</ele>
        <time>2013-03-02T09:22:08Z</time>
      </trkpt>
      <trkpt lat="43.72151" lon="3.53729">
        <ele>348.57</ele>
        <time>2013-03-02T09:22:09Z</time>
      </trkpt>
      <trkpt lat="43.72151" lon="3.53735">
        <ele>348.655</ele>
        <time>2013-03-02T09:22:15Z</time>
      </trkpt>
      <trkpt lat="43.72149" lon="3.53747">
        <ele>350.61</ele>
        <time>2013-03-02T09:22:26Z</time>
      </trkpt>
      <trkpt lat="43.72149" lon="3.5376">
        <ele>352.172</ele>
        <time>2013-03-02T09:22:41Z</time>
      </trkpt>
      <trkpt lat="43.72149" lon="3.53761">
        <ele>351.639</ele>
        <time>2013-03-02T09:22:42Z</time>
      </trkpt>
      <trkpt lat="43.72145" lon="3.53765">
        <ele>353.035</ele>
        <time>2013-03-02T09:22:46Z</time>
      </trkpt>
      <trkpt lat="43.72145" lon="3.5378">
        <ele>354.849</ele>
        <time>2013-03-02T09:22:56Z</time>
      </trkpt>
      <trkpt lat="43.72144" lon="3.53796">
        <ele>357.19</ele>
        <time>2013-03-02T09:23:08Z</time>
      </trkpt>
      <trkpt lat="43.72147" lon="3.53803">
        <ele>357.504</ele>
        <time>2013-03-02T09:23:16Z</time>
      </trkpt>
      <trkpt lat="43.7216" lon="3.53807">
        <ele>356.186</ele>
        <time>2013-03-02T09:23:28Z</time>
      </trkpt>
      <trkpt lat="43.72163" lon="3.53805">
        <ele>354.822</ele>
        <time>2013-03-02T09:23:31Z</time>
      </trkpt>
      <trkpt lat="43.72169" lon="3.53807">
        <ele>354.645</ele>
        <time>2013-03-02T09:23:38Z</time>
      </trkpt>
      <trkpt lat="43.7218" lon="3.53809">
        <ele>351.438</ele>
        <time>2013-03-02T09:23:49Z</time>
      </trkpt>
      <trkpt lat="43.72183" lon="3.53806">
        <ele>350.022</ele>
        <time>2013-03-02T09:24:02Z</time>
      </trkpt>
      <trkpt lat="43.72185" lon="3.53805">
        <ele>350.506</ele>
        <time>2013-03-02T09:24:27Z</time>
      </trkpt>
      <trkpt lat="43.72185" lon="3.53804">
        <ele>349.885</ele>
        <time>2013-03-02T09:24:42Z</time>
      </trkpt>
      <trkpt lat="43.72185" lon="3.53804">
        <ele>351.249</ele>
        <time>2013-03-02T09:25:04Z</time>
      </trkpt>
      <trkpt lat="43.72185" lon="3.53803">
        <ele>350.433</ele>
        <time>2013-03-02T09:25:23Z</time>
      </trkpt>
      <trkpt lat="43.72185" lon="3.53803">
        <ele>350.629</ele>
        <time>2013-03-02T09:25:40Z</time>
      </trkpt>
      <trkpt lat="43.72184" lon="3.53803">
        <ele>351.478</ele>
        <time>2013-03-02T09:25:55Z</time>
      </trkpt>
      <trkpt lat="43.72184" lon="3.53801">
        <ele>351.645</ele>
        <time>2013-03-02T09:26:24Z</time>
      </trkpt>
      <trkpt lat="43.72183" lon="3.53803">
        <ele>352.354</ele>
        <time>2013-03-02T09:26:48Z</time>
      </trkpt>
      <trkpt lat="43.72181" lon="3.53801">
        <ele>352.954</ele>
        <time>2013-03-02T09:27:04Z</time>
      </trkpt>
      <trkpt lat="43.72179" lon="3.53805">
        <ele>354.206</ele>
        <time>2013-03-02T09:27:21Z</time>
      </trkpt>
      <trkpt lat="43.72178" lon="3.53805">
        <ele>353.618</ele>
        <time>2013-03-02T09:27:22Z</time>
      </trkpt>
      <trkpt lat="43.72176" lon="3.5381">
        <ele>354.765</ele>
        <time>2013-03-02T09:27:26Z</time>
      </trkpt>
      <trkpt lat="43.72175" lon="3.5383">
        <ele>355.557</ele>
        <time>2013-03-02T09:27:41Z</time>
      </trkpt>
      <trkpt lat="43.72175" lon="3.53834">
        <ele>357.089</ele>
        <time>2013-03-02T09:27:44Z</time>
      </trkpt>
      <trkpt lat="43.72174" lon="3.53839">
        <ele>358.042</ele>
        <time>2013-03-02T09:27:52Z</time>
      </trkpt>
      <trkpt lat="43.72172" lon="3.53844">
        <ele>358.44</ele>
        <time>2013-03-02T09:28:03Z</time>
      </trkpt>
      <trkpt lat="43.72175" lon="3.53844">
        <ele>358.202</ele>
        <time>2013-03-02T09:28:15Z</time>
      </trkpt>
      <trkpt lat="43.72174" lon="3.53844">
        <ele>358.27</ele>
        <time>2013-03-02T09:28:16Z</time>
      </trkpt>
      <trkpt lat="43.72175" lon="3.53845">
        <ele>358.203</ele>
        <time>2013-03-02T09:28:26Z</time>
      </trkpt>
      <trkpt lat="43.72171" lon="3.53846">
        <ele>358.298</ele>
        <time>2013-03-02T09:28:53Z</time>
      </trkpt>
      <trkpt lat="43.7217" lon="3.53847">
        <ele>358.277</ele>
        <time>2013-03-02T09:29:20Z</time>
      </trkpt>
      <trkpt lat="43.72168" lon="3.5385">
        <ele>358.69</ele>
        <time>2013-03-02T09:29:29Z</time>
      </trkpt>
      <trkpt lat="43.72166" lon="3.53852">
        <ele>358.462</ele>
        <time>2013-03-02T09:29:32Z</time>
      </trkpt>
      <trkpt lat="43.72158" lon="3.5385">
        <ele>358.346</ele>
        <time>2013-03-02T09:29:43Z</time>
      </trkpt>
      <trkpt lat="43.72156" lon="3.5385">
        <ele>358.639</ele>
        <time>2013-03-02T09:29:45Z</time>
      </trkpt>
      <trkpt lat="43.72155" lon="3.53857">
        <ele>358.365</ele>
        <time>2013-03-02T09:29:56Z</time>
      </trkpt>
      <trkpt lat="43.72156" lon="3.53859">
        <ele>358.248</ele>
        <time>2013-03-02T09:29:58Z</time>
      </trkpt>
      <trkpt lat="43.72161" lon="3.53878">
        <ele>357.621</ele>
        <time>2013-03-02T09:30:12Z</time>
      </trkpt>
      <trkpt lat="43.72161" lon="3.53879">
        <ele>358.089</ele>
        <time>2013-03-02T09:30:13Z</time>
      </trkpt>
      <trkpt lat="43.72163" lon="3.53888">
        <ele>357.976</ele>
        <time>2013-03-02T09:30:20Z</time>
      </trkpt>
      <trkpt lat="43.72162" lon="3.53891">
        <ele>356.707</ele>
        <time>2013-03-02T09:30:22Z</time>
      </trkpt>
      <trkpt lat="43.7216" lon="3.53906">
        <ele>356.768</ele>
        <time>2013-03-02T09:30:31Z</time>
      </trkpt>
      <trkpt lat="43.72161" lon="3.53908">
        <ele>356.598</ele>
        <time>2013-03-02T09:30:34Z</time>
      </trkpt>
      <trkpt lat="43.72162" lon="3.53914">
        <ele>356.287</ele>
        <time>2013-03-02T09:30:38Z</time>
      </trkpt>
      <trkpt lat="43.7216" lon="3.53921">
        <ele>355.793</ele>
        <time>2013-03-02T09:30:44Z</time>
      </trkpt>
      <trkpt lat="43.72151" lon="3.53942">
        <ele>355.206</ele>
        <time>2013-03-02T09:30:56Z</time>
      </trkpt>
      <trkpt lat="43.72149" lon="3.53952">
        <ele>355</ele>
        <time>2013-03-02T09:31:03Z</time>
      </trkpt>
      <trkpt lat="43.72145" lon="3.53956">
        <ele>354.864</ele>
        <time>2013-03-02T09:31:08Z</time>
      </trkpt>
      <trkpt lat="43.72148" lon="3.53961">
        <ele>354.51</ele>
        <time>2013-03-02T09:31:19Z</time>
      </trkpt>
      <trkpt lat="43.72151" lon="3.53965">
        <ele>354.319</ele>
        <time>2013-03-02T09:31:32Z</time>
      </trkpt>
      <trkpt lat="43.72149" lon="3.53962">
        <ele>354.559</ele>
        <time>2013-03-02T09:31:46Z</time>
      </trkpt>
      <trkpt lat="43.72144" lon="3.53962">
        <ele>354.45</ele>
        <time>2013-03-02T09:31:51Z</time>
      </trkpt>
      <trkpt lat="43.72136" lon="3.5397">
        <ele>354.021</ele>
        <time>2013-03-02T09:32:01Z</time>
      </trkpt>
      <trkpt lat="43.72134" lon="3.53973">
        <ele>352.887</ele>
        <time>2013-03-02T09:32:04Z</time>
      </trkpt>
      <trkpt lat="43.72122" lon="3.5398">
        <ele>352.362</ele>
        <time>2013-03-02T09:32:16Z</time>
      </trkpt>
      <trkpt lat="43.7212" lon="3.53981">
        <ele>352.427</ele>
        <time>2013-03-02T09:32:19Z</time>
      </trkpt>
      <trkpt lat="43.72113" lon="3.53985">
        <ele>352.049</ele>
        <time>2013-03-02T09:32:26Z</time>
      </trkpt>
      <trkpt lat="43.72102" lon="3.5399">
        <ele>351.483</ele>
        <time>2013-03-02T09:32:37Z</time>
      </trkpt>
      <trkpt lat="43.721" lon="3.53991">
        <ele>351.37</ele>
        <time>2013-03-02T09:32:39Z</time>
      </trkpt>
      <trkpt lat="43.72095" lon="3.53993">
        <ele>351.242</ele>
        <time>2013-03-02T09:32:43Z</time>
      </trkpt>
      <trkpt lat="43.72091" lon="3.54">
        <ele>350.867</ele>
        <time>2013-03-02T09:32:48Z</time>
      </trkpt>
      <trkpt lat="43.72082" lon="3.54004">
        <ele>350.517</ele>
        <time>2013-03-02T09:32:57Z</time>
      </trkpt>
      <trkpt lat="43.72063" lon="3.54009">
        <ele>350.249</ele>
        <time>2013-03-02T09:33:14Z</time>
      </trkpt>
      <trkpt lat="43.72061" lon="3.5401">
        <ele>349.981</ele>
        <time>2013-03-02T09:33:16Z</time>
      </trkpt>
      <trkpt lat="43.72056" lon="3.54013">
        <ele>349.558</ele>
        <time>2013-03-02T09:33:20Z</time>
      </trkpt>
      <trkpt lat="43.72052" lon="3.54019">
        <ele>349.086</ele>
        <time>2013-03-02T09:33:26Z</time>
      </trkpt>
      <trkpt lat="43.72047" lon="3.54027">
        <ele>347.92</ele>
        <time>2013-03-02T09:33:34Z</time>
      </trkpt>
      <trkpt lat="43.7204" lon="3.54029">
        <ele>347.863</ele>
        <time>2013-03-02T09:33:41Z</time>
      </trkpt>
      <trkpt lat="43.72026" lon="3.54045">
        <ele>346.118</ele>
        <time>2013-03-02T09:33:56Z</time>
      </trkpt>
      <trkpt lat="43.72017" lon="3.5405">
        <ele>345.72</ele>
        <time>2013-03-02T09:34:06Z</time>
      </trkpt>
      <trkpt lat="43.72007" lon="3.54065">
        <ele>344.566</ele>
        <time>2013-03-02T09:34:19Z</time>
      </trkpt>
      <trkpt lat="43.72006" lon="3.54067">
        <ele>344.166</ele>
        <time>2013-03-02T09:34:20Z</time>
      </trkpt>
      <trkpt lat="43.71996" lon="3.54088">
        <ele>343.92</ele>
        <time>2013-03-02T09:34:36Z</time>
      </trkpt>
      <trkpt lat="43.71993" lon="3.54093">
        <ele>343.006</ele>
        <time>2013-03-02T09:34:41Z</time>
      </trkpt>
      <trkpt lat="43.71992" lon="3.54097">
        <ele>343.878</ele>
        <time>2013-03-02T09:34:44Z</time>
      </trkpt>
      <trkpt lat="43.7199" lon="3.54109">
        <ele>341.884</ele>
        <time>2013-03-02T09:34:53Z</time>
      </trkpt>
      <trkpt lat="43.71982" lon="3.5412">
        <ele>341.542</ele>
        <time>2013-03-02T09:35:02Z</time>
      </trkpt>
      <trkpt lat="43.71981" lon="3.54125">
        <ele>341.133</ele>
        <time>2013-03-02T09:35:06Z</time>
      </trkpt>
      <trkpt lat="43.71975" lon="3.54133">
        <ele>339.766</ele>
        <time>2013-03-02T09:35:13Z</time>
      </trkpt>
      <trkpt lat="43.7197" lon="3.54142">
        <ele>338.973</ele>
        <time>2013-03-02T09:35:20Z</time>
      </trkpt>
      <trkpt lat="43.71969" lon="3.54146">
        <ele>338.721</ele>
        <time>2013-03-02T09:35:23Z</time>
      </trkpt>
      <trkpt lat="43.71966" lon="3.54152">
        <ele>337.812</ele>
        <time>2013-03-02T09:35:29Z</time>
      </trkpt>
      <trkpt lat="43.71963" lon="3.54165">
        <ele>335.459</ele>
        <time>2013-03-02T09:35:40Z</time>
      </trkpt>
      <trkpt lat="43.71962" lon="3.54172">
        <ele>334.602</ele>
        <time>2013-03-02T09:35:52Z</time>
      </trkpt>
      <trkpt lat="43.71962" lon="3.54175">
        <ele>334.673</ele>
        <time>2013-03-02T09:35:55Z</time>
      </trkpt>
      <trkpt lat="43.71967" lon="3.54195">
        <ele>334.297</ele>
        <time>2013-03-02T09:36:08Z</time>
      </trkpt>
      <trkpt lat="43.71974" lon="3.54208">
        <ele>336.718</ele>
        <time>2013-03-02T09:36:21Z</time>
      </trkpt>
      <trkpt lat="43.71975" lon="3.54208">
        <ele>336.197</ele>
        <time>2013-03-02T09:36:22Z</time>
      </trkpt>
      <trkpt lat="43.7199" lon="3.54221">
        <ele>336.978</ele>
        <time>2013-03-02T09:36:37Z</time>
      </trkpt>
      <trkpt lat="43.71992" lon="3.5423">
        <ele>338.401</ele>
        <time>2013-03-02T09:36:48Z</time>
      </trkpt>
      <trkpt lat="43.71991" lon="3.54233">
        <ele>337.828</ele>
        <time>2013-03-02T09:37:04Z</time>
      </trkpt>
      <trkpt lat="43.71989" lon="3.5423">
        <ele>337.97</ele>
        <time>2013-03-02T09:37:19Z</time>
      </trkpt>
      <trkpt lat="43.71989" lon="3.54238">
        <ele>337.226</ele>
        <time>2013-03-02T09:37:27Z</time>
      </trkpt>
      <trkpt lat="43.71989" lon="3.54235">
        <ele>337.95</ele>
        <time>2013-03-02T09:37:33Z</time>
      </trkpt>
      <trkpt lat="43.71992" lon="3.54231">
        <ele>337.536</ele>
        <time>2013-03-02T09:37:37Z</time>
      </trkpt>
      <trkpt lat="43.71984" lon="3.54237">
        <ele>337.805</ele>
        <time>2013-03-02T09:37:43Z</time>
      </trkpt>
      <trkpt lat="43.71973" lon="3.54244">
        <ele>337.317</ele>
        <time>2013-03-02T09:37:55Z</time>
      </trkpt>
      <trkpt lat="43.71986" lon="3.54236">
        <ele>337.5</ele>
        <time>2013-03-02T09:38:07Z</time>
      </trkpt>
      <trkpt lat="43.71984" lon="3.5424">
        <ele>336.992</ele>
        <time>2013-03-02T09:38:22Z</time>
      </trkpt>
      <trkpt lat="43.71986" lon="3.54226">
        <ele>336.921</ele>
        <time>2013-03-02T09:38:39Z</time>
      </trkpt>
      <trkpt lat="43.71992" lon="3.54226">
        <ele>336.601</ele>
        <time>2013-03-02T09:38:52Z</time>
      </trkpt>
      <trkpt lat="43.71998" lon="3.54224">
        <ele>336.398</ele>
        <time>2013-03-02T09:39:03Z</time>
      </trkpt>
      <trkpt lat="43.72001" lon="3.54226">
        <ele>335.767</ele>
        <time>2013-03-02T09:39:07Z</time>
      </trkpt>
      <trkpt lat="43.72003" lon="3.54229">
        <ele>335.859</ele>
        <time>2013-03-02T09:39:09Z</time>
      </trkpt>
      <trkpt lat="43.72004" lon="3.54233">
        <ele>336.218</ele>
        <time>2013-03-02T09:39:12Z</time>
      </trkpt>
      <trkpt lat="43.72011" lon="3.54244">
        <ele>336.748</ele>
        <time>2013-03-02T09:39:24Z</time>
      </trkpt>
      <trkpt lat="43.72017" lon="3.54249">
        <ele>336.348</ele>
        <time>2013-03-02T09:39:36Z</time>
      </trkpt>
      <trkpt lat="43.72024" lon="3.54265">
        <ele>335.497</ele>
        <time>2013-03-02T09:39:49Z</time>
      </trkpt>
      <trkpt lat="43.72028" lon="3.54275">
        <ele>334.745</ele>
        <time>2013-03-02T09:39:57Z</time>
      </trkpt>
      <trkpt lat="43.72032" lon="3.54283">
        <ele>334.968</ele>
        <time>2013-03-02T09:40:04Z</time>
      </trkpt>
      <trkpt lat="43.72032" lon="3.54285">
        <ele>334.261</ele>
        <time>2013-03-02T09:40:06Z</time>
      </trkpt>
      <trkpt lat="43.72038" lon="3.54301">
        <ele>332.821</ele>
        <time>2013-03-02T09:40:19Z</time>
      </trkpt>
      <trkpt lat="43.72045" lon="3.54316">
        <ele>331.626</ele>
        <time>2013-03-02T09:40:31Z</time>
      </trkpt>
      <trkpt lat="43.72047" lon="3.54324">
        <ele>331.503</ele>
        <time>2013-03-02T09:40:36Z</time>
      </trkpt>
      <trkpt lat="43.7205" lon="3.54334">
        <ele>330.45</ele>
        <time>2013-03-02T09:40:46Z</time>
      </trkpt>
      <trkpt lat="43.72054" lon="3.54344">
        <ele>330.005</ele>
        <time>2013-03-02T09:40:55Z</time>
      </trkpt>
      <trkpt lat="43.72056" lon="3.54354">
        <ele>329.592</ele>
        <time>2013-03-02T09:41:02Z</time>
      </trkpt>
      <trkpt lat="43.72057" lon="3.54358">
        <ele>329.45</ele>
        <time>2013-03-02T09:41:04Z</time>
      </trkpt>
      <trkpt lat="43.7206" lon="3.54366">
        <ele>328.83</ele>
        <time>2013-03-02T09:41:19Z</time>
      </trkpt>
      <trkpt lat="43.72061" lon="3.54369">
        <ele>328.626</ele>
        <time>2013-03-02T09:41:38Z</time>
      </trkpt>
      <trkpt lat="43.72067" lon="3.54384">
        <ele>326.695</ele>
        <time>2013-03-02T09:41:51Z</time>
      </trkpt>
      <trkpt lat="43.72068" lon="3.54385">
        <ele>326.805</ele>
        <time>2013-03-02T09:41:52Z</time>
      </trkpt>
      <trkpt lat="43.7207" lon="3.54395">
        <ele>324.955</ele>
        <time>2013-03-02T09:42:00Z</time>
      </trkpt>
      <trkpt lat="43.72076" lon="3.54409">
        <ele>323.955</ele>
        <time>2013-03-02T09:42:11Z</time>
      </trkpt>
      <trkpt lat="43.72077" lon="3.5441">
        <ele>323.818</ele>
        <time>2013-03-02T09:42:13Z</time>
      </trkpt>
      <trkpt lat="43.72077" lon="3.5442">
        <ele>323.32</ele>
        <time>2013-03-02T09:42:20Z</time>
      </trkpt>
      <trkpt lat="43.72076" lon="3.54424">
        <ele>323.271</ele>
        <time>2013-03-02T09:42:23Z</time>
      </trkpt>
      <trkpt lat="43.72078" lon="3.54434">
        <ele>322.437</ele>
        <time>2013-03-02T09:42:32Z</time>
      </trkpt>
      <trkpt lat="43.72077" lon="3.5444">
        <ele>322.441</ele>
        <time>2013-03-02T09:42:36Z</time>
      </trkpt>
      <trkpt lat="43.72078" lon="3.54449">
        <ele>321.873</ele>
        <time>2013-03-02T09:42:42Z</time>
      </trkpt>
      <trkpt lat="43.72081" lon="3.54465">
        <ele>319.576</ele>
        <time>2013-03-02T09:42:54Z</time>
      </trkpt>
      <trkpt lat="43.72082" lon="3.5447">
        <ele>319.242</ele>
        <time>2013-03-02T09:42:59Z</time>
      </trkpt>
      <trkpt lat="43.72085" lon="3.54487">
        <ele>317.86</ele>
        <time>2013-03-02T09:43:10Z</time>
      </trkpt>
      <trkpt lat="43.72092" lon="3.54505">
        <ele>317.142</ele>
        <time>2013-03-02T09:43:27Z</time>
      </trkpt>
      <trkpt lat="43.72092" lon="3.54515">
        <ele>315.716</ele>
        <time>2013-03-02T09:43:38Z</time>
      </trkpt>
      <trkpt lat="43.72096" lon="3.54527">
        <ele>315.071</ele>
        <time>2013-03-02T09:43:50Z</time>
      </trkpt>
      <trkpt lat="43.72099" lon="3.54534">
        <ele>312.503</ele>
        <time>2013-03-02T09:43:57Z</time>
      </trkpt>
      <trkpt lat="43.72103" lon="3.54541">
        <ele>312.238</ele>
        <time>2013-03-02T09:44:04Z</time>
      </trkpt>
      <trkpt lat="43.72114" lon="3.54556">
        <ele>311.99</ele>
        <time>2013-03-02T09:44:20Z</time>
      </trkpt>
      <trkpt lat="43.72115" lon="3.54558">
        <ele>312.285</ele>
        <time>2013-03-02T09:44:22Z</time>
      </trkpt>
      <trkpt lat="43.72118" lon="3.54566">
        <ele>312.879</ele>
        <time>2013-03-02T09:44:28Z</time>
      </trkpt>
      <trkpt lat="43.72122" lon="3.5457">
        <ele>312.42</ele>
        <time>2013-03-02T09:44:32Z</time>
      </trkpt>
      <trkpt lat="43.72125" lon="3.54572">
        <ele>311.18</ele>
        <time>2013-03-02T09:44:36Z</time>
      </trkpt>
      <trkpt lat="43.72126" lon="3.54573">
        <ele>311.099</ele>
        <time>2013-03-02T09:44:38Z</time>
      </trkpt>
      <trkpt lat="43.72128" lon="3.54574">
        <ele>310.156</ele>
        <time>2013-03-02T09:44:40Z</time>
      </trkpt>
      <trkpt lat="43.72136" lon="3.5458">
        <ele>307.979</ele>
        <time>2013-03-02T09:44:50Z</time>
      </trkpt>
      <trkpt lat="43.72137" lon="3.54583">
        <ele>306.762</ele>
        <time>2013-03-02T09:45:07Z</time>
      </trkpt>
      <trkpt lat="43.72138" lon="3.54584">
        <ele>306.394</ele>
        <time>2013-03-02T09:45:24Z</time>
      </trkpt>
      <trkpt lat="43.72139" lon="3.54584">
        <ele>307.12</ele>
        <time>2013-03-02T09:45:46Z</time>
      </trkpt>
      <trkpt lat="43.72139" lon="3.54585">
        <ele>306.95</ele>
        <time>2013-03-02T09:45:51Z</time>
      </trkpt>
      <trkpt lat="43.72141" lon="3.54586">
        <ele>306.39</ele>
        <time>2013-03-02T09:46:23Z</time>
      </trkpt>
      <trkpt lat="43.7214" lon="3.54585">
        <ele>307.756</ele>
        <time>2013-03-02T09:46:41Z</time>
      </trkpt>
      <trkpt lat="43.7214" lon="3.54585">
        <ele>302.467</ele>
        <time>2013-03-02T09:46:55Z</time>
      </trkpt>
      <trkpt lat="43.7214" lon="3.54585">
        <ele>309.486</ele>
        <time>2013-03-02T09:46:56Z</time>
      </trkpt>
      <trkpt lat="43.7214" lon="3.54585">
        <ele>306.256</ele>
        <time>2013-03-02T09:46:57Z</time>
      </trkpt>
      <trkpt lat="43.7214" lon="3.54585">
        <ele>308.544</ele>
        <time>2013-03-02T09:47:00Z</time>
      </trkpt>
      <trkpt lat="43.72141" lon="3.54586">
        <ele>307.847</ele>
        <time>2013-03-02T09:47:32Z</time>
      </trkpt>
      <trkpt lat="43.72137" lon="3.54582">
        <ele>308.285</ele>
        <time>2013-03-02T09:47:50Z</time>
      </trkpt>
      <trkpt lat="43.72139" lon="3.54585">
        <ele>307.318</ele>
        <time>2013-03-02T09:48:31Z</time>
      </trkpt>
      <trkpt lat="43.72142" lon="3.54587">
        <ele>307.833</ele>
        <time>2013-03-02T09:48:53Z</time>
      </trkpt>
      <trkpt lat="43.7214" lon="3.54586">
        <ele>307.933</ele>
        <time>2013-03-02T09:49:09Z</time>
      </trkpt>
      <trkpt lat="43.72139" lon="3.54584">
        <ele>306.767</ele>
        <time>2013-03-02T09:49:56Z</time>
      </trkpt>
      <trkpt lat="43.72135" lon="3.54589">
        <ele>308.005</ele>
        <time>2013-03-02T09:50:11Z</time>
      </trkpt>
      <trkpt lat="43.72135" lon="3.54598">
        <ele>306.598</ele>
        <time>2013-03-02T09:50:24Z</time>
      </trkpt>
      <trkpt lat="43.72134" lon="3.54605">
        <ele>304.326</ele>
        <time>2013-03-02T09:50:30Z</time>
      </trkpt>
      <trkpt lat="43.72134" lon="3.54606">
        <ele>304.514</ele>
        <time>2013-03-02T09:50:48Z</time>
      </trkpt>
      <trkpt lat="43.72133" lon="3.54615">
        <ele>302.452</ele>
        <time>2013-03-02T09:51:02Z</time>
      </trkpt>
      <trkpt lat="43.72137" lon="3.54627">
        <ele>301.179</ele>
        <time>2013-03-02T09:51:12Z</time>
      </trkpt>
      <trkpt lat="43.72138" lon="3.54632">
        <ele>300.247</ele>
        <time>2013-03-02T09:51:16Z</time>
      </trkpt>
      <trkpt lat="43.72139" lon="3.54647">
        <ele>297.962</ele>
        <time>2013-03-02T09:51:29Z</time>
      </trkpt>
      <trkpt lat="43.72137" lon="3.54652">
        <ele>296.673</ele>
        <time>2013-03-02T09:51:34Z</time>
      </trkpt>
      <trkpt lat="43.72136" lon="3.54655">
        <ele>296.104</ele>
        <time>2013-03-02T09:51:52Z</time>
      </trkpt>
      <trkpt lat="43.72131" lon="3.54659">
        <ele>294.808</ele>
        <time>2013-03-02T09:52:06Z</time>
      </trkpt>
      <trkpt lat="43.72124" lon="3.54662">
        <ele>293.922</ele>
        <time>2013-03-02T09:52:12Z</time>
      </trkpt>
      <trkpt lat="43.72123" lon="3.54666">
        <ele>292.66</ele>
        <time>2013-03-02T09:52:15Z</time>
      </trkpt>
      <trkpt lat="43.72118" lon="3.54669">
        <ele>292.082</ele>
        <time>2013-03-02T09:52:19Z</time>
      </trkpt>
      <trkpt lat="43.72111" lon="3.54674">
        <ele>291.465</ele>
        <time>2013-03-02T09:52:27Z</time>
      </trkpt>
      <trkpt lat="43.72103" lon="3.5468">
        <ele>289.605</ele>
        <time>2013-03-02T09:52:38Z</time>
      </trkpt>
      <trkpt lat="43.72088" lon="3.54687">
        <ele>288.627</ele>
        <time>2013-03-02T09:52:49Z</time>
      </trkpt>
      <trkpt lat="43.72079" lon="3.54691">
        <ele>287.574</ele>
        <time>2013-03-02T09:52:57Z</time>
      </trkpt>
      <trkpt lat="43.72065" lon="3.54689">
        <ele>285.712</ele>
        <time>2013-03-02T09:53:10Z</time>
      </trkpt>
      <trkpt lat="43.72049" lon="3.5469">
        <ele>285.12</ele>
        <time>2013-03-02T09:53:24Z</time>
      </trkpt>
      <trkpt lat="43.72042" lon="3.54694">
        <ele>284.349</ele>
        <time>2013-03-02T09:53:30Z</time>
      </trkpt>
      <trkpt lat="43.72037" lon="3.54694">
        <ele>283.342</ele>
        <time>2013-03-02T09:53:35Z</time>
      </trkpt>
      <trkpt lat="43.72033" lon="3.54696">
        <ele>282.062</ele>
        <time>2013-03-02T09:53:40Z</time>
      </trkpt>
      <trkpt lat="43.7203" lon="3.54699">
        <ele>280.772</ele>
        <time>2013-03-02T09:53:43Z</time>
      </trkpt>
      <trkpt lat="43.72028" lon="3.54699">
        <ele>281.093</ele>
        <time>2013-03-02T09:53:45Z</time>
      </trkpt>
      <trkpt lat="43.72022" lon="3.54698">
        <ele>279.342</ele>
        <time>2013-03-02T09:53:51Z</time>
      </trkpt>
      <trkpt lat="43.72019" lon="3.54699">
        <ele>278.654</ele>
        <time>2013-03-02T09:53:53Z</time>
      </trkpt>
      <trkpt lat="43.72018" lon="3.54706">
        <ele>277.109</ele>
        <time>2013-03-02T09:54:00Z</time>
      </trkpt>
      <trkpt lat="43.7201" lon="3.5471">
        <ele>275.391</ele>
        <time>2013-03-02T09:54:09Z</time>
      </trkpt>
      <trkpt lat="43.72008" lon="3.54711">
        <ele>274.597</ele>
        <time>2013-03-02T09:54:11Z</time>
      </trkpt>
      <trkpt lat="43.72007" lon="3.54718">
        <ele>272.999</ele>
        <time>2013-03-02T09:54:22Z</time>
      </trkpt>
      <trkpt lat="43.72008" lon="3.54719">
        <ele>272.62</ele>
        <time>2013-03-02T09:54:33Z</time>
      </trkpt>
      <trkpt lat="43.72007" lon="3.54721">
        <ele>272.579</ele>
        <time>2013-03-02T09:54:38Z</time>
      </trkpt>
      <trkpt lat="43.72007" lon="3.54722">
        <ele>272.688</ele>
        <time>2013-03-02T09:54:51Z</time>
      </trkpt>
      <trkpt lat="43.72008" lon="3.54726">
        <ele>270.606</ele>
        <time>2013-03-02T09:55:08Z</time>
      </trkpt>
      <trkpt lat="43.72008" lon="3.54727">
        <ele>270.212</ele>
        <time>2013-03-02T09:55:09Z</time>
      </trkpt>
      <trkpt lat="43.7201" lon="3.54741">
        <ele>266.753</ele>
        <time>2013-03-02T09:55:22Z</time>
      </trkpt>
      <trkpt lat="43.72005" lon="3.54744">
        <ele>264.479</ele>
        <time>2013-03-02T09:55:30Z</time>
      </trkpt>
      <trkpt lat="43.72002" lon="3.54746">
        <ele>261.903</ele>
        <time>2013-03-02T09:55:34Z</time>
      </trkpt>
      <trkpt lat="43.71995" lon="3.54746">
        <ele>258.647</ele>
        <time>2013-03-02T09:55:45Z</time>
      </trkpt>
      <trkpt lat="43.71994" lon="3.54747">
        <ele>258.211</ele>
        <time>2013-03-02T09:55:50Z</time>
      </trkpt>
      <trkpt lat="43.71988" lon="3.54757">
        <ele>256.727</ele>
        <time>2013-03-02T09:56:03Z</time>
      </trkpt>
      <trkpt lat="43.7199" lon="3.5476">
        <ele>256.472</ele>
        <time>2013-03-02T09:56:06Z</time>
      </trkpt>
      <trkpt lat="43.71998" lon="3.54771">
        <ele>255.732</ele>
        <time>2013-03-02T09:56:17Z</time>
      </trkpt>
      <trkpt lat="43.71999" lon="3.54775">
        <ele>256.64</ele>
        <time>2013-03-02T09:56:20Z</time>
      </trkpt>
      <trkpt lat="43.72006" lon="3.54787">
        <ele>255.437</ele>
        <time>2013-03-02T09:56:32Z</time>
      </trkpt>
      <trkpt lat="43.72012" lon="3.54799">
        <ele>254.348</ele>
        <time>2013-03-02T09:56:44Z</time>
      </trkpt>
      <trkpt lat="43.72016" lon="3.54808">
        <ele>253.141</ele>
        <time>2013-03-02T09:56:54Z</time>
      </trkpt>
      <trkpt lat="43.72019" lon="3.54814">
        <ele>250.345</ele>
        <time>2013-03-02T09:57:02Z</time>
      </trkpt>
      <trkpt lat="43.72021" lon="3.54818">
        <ele>247.529</ele>
        <time>2013-03-02T09:57:07Z</time>
      </trkpt>
      <trkpt lat="43.72026" lon="3.54823">
        <ele>246.769</ele>
        <time>2013-03-02T09:57:13Z</time>
      </trkpt>
      <trkpt lat="43.72027" lon="3.54823">
        <ele>247.064</ele>
        <time>2013-03-02T09:57:15Z</time>
      </trkpt>
      <trkpt lat="43.72036" lon="3.54832">
        <ele>245.537</ele>
        <time>2013-03-02T09:57:27Z</time>
      </trkpt>
      <trkpt lat="43.72038" lon="3.54838">
        <ele>246.062</ele>
        <time>2013-03-02T09:57:32Z</time>
      </trkpt>
      <trkpt lat="43.72051" lon="3.5484">
        <ele>242.626</ele>
        <time>2013-03-02T09:57:46Z</time>
      </trkpt>
      <trkpt lat="43.72051" lon="3.54841">
        <ele>242.495</ele>
        <time>2013-03-02T09:57:47Z</time>
      </trkpt>
      <trkpt lat="43.72054" lon="3.54845">
        <ele>241.08</ele>
        <time>2013-03-02T09:57:51Z</time>
      </trkpt>
      <trkpt lat="43.72063" lon="3.54852">
        <ele>238.249</ele>
        <time>2013-03-02T09:58:03Z</time>
      </trkpt>
      <trkpt lat="43.72066" lon="3.54859">
        <ele>235.118</ele>
        <time>2013-03-02T09:58:15Z</time>
      </trkpt>
      <trkpt lat="43.7207" lon="3.54866">
        <ele>233.658</ele>
        <time>2013-03-02T09:58:25Z</time>
      </trkpt>
      <trkpt lat="43.72069" lon="3.54887">
        <ele>231.578</ele>
        <time>2013-03-02T09:58:41Z</time>
      </trkpt>
      <trkpt lat="43.72069" lon="3.54888">
        <ele>231.47</ele>
        <time>2013-03-02T09:58:42Z</time>
      </trkpt>
      <trkpt lat="43.72077" lon="3.54892">
        <ele>229.284</ele>
        <time>2013-03-02T09:58:54Z</time>
      </trkpt>
      <trkpt lat="43.72081" lon="3.54882">
        <ele>227.083</ele>
        <time>2013-03-02T09:59:06Z</time>
      </trkpt>
      <trkpt lat="43.72085" lon="3.54878">
        <ele>225.367</ele>
        <time>2013-03-02T09:59:12Z</time>
      </trkpt>
      <trkpt lat="43.72092" lon="3.54868">
        <ele>222.829</ele>
        <time>2013-03-02T09:59:20Z</time>
      </trkpt>
      <trkpt lat="43.72096" lon="3.5486">
        <ele>221.49</ele>
        <time>2013-03-02T09:59:31Z</time>
      </trkpt>
      <trkpt lat="43.72103" lon="3.54852">
        <ele>217.797</ele>
        <time>2013-03-02T09:59:41Z</time>
      </trkpt>
      <trkpt lat="43.72103" lon="3.54862">
        <ele>216.348</ele>
        <time>2013-03-02T09:59:51Z</time>
      </trkpt>
      <trkpt lat="43.72111" lon="3.54855">
        <ele>214.001</ele>
        <time>2013-03-02T10:00:03Z</time>
      </trkpt>
      <trkpt lat="43.72117" lon="3.54857">
        <ele>210.919</ele>
        <time>2013-03-02T10:00:14Z</time>
      </trkpt>
      <trkpt lat="43.72127" lon="3.54856">
        <ele>207.768</ele>
        <time>2013-03-02T10:00:26Z</time>
      </trkpt>
      <trkpt lat="43.72129" lon="3.54857">
        <ele>205.763</ele>
        <time>2013-03-02T10:00:34Z</time>
      </trkpt>
      <trkpt lat="43.72123" lon="3.54868">
        <ele>204.694</ele>
        <time>2013-03-02T10:00:46Z</time>
      </trkpt>
      <trkpt lat="43.72125" lon="3.5488">
        <ele>203.088</ele>
        <time>2013-03-02T10:00:56Z</time>
      </trkpt>
      <trkpt lat="43.72125" lon="3.54883">
        <ele>201.559</ele>
        <time>2013-03-02T10:00:58Z</time>
      </trkpt>
      <trkpt lat="43.72128" lon="3.54887">
        <ele>198.718</ele>
        <time>2013-03-02T10:01:08Z</time>
      </trkpt>
      <trkpt lat="43.72135" lon="3.54887">
        <ele>196.9</ele>
        <time>2013-03-02T10:01:17Z</time>
      </trkpt>
      <trkpt lat="43.72144" lon="3.54887">
        <ele>195.571</ele>
        <time>2013-03-02T10:01:32Z</time>
      </trkpt>
      <trkpt lat="43.72146" lon="3.54887">
        <ele>195.159</ele>
        <time>2013-03-02T10:01:33Z</time>
      </trkpt>
      <trkpt lat="43.72155" lon="3.54888">
        <ele>193.549</ele>
        <time>2013-03-02T10:01:45Z</time>
      </trkpt>
      <trkpt lat="43.72149" lon="3.54891">
        <ele>191.054</ele>
        <time>2013-03-02T10:01:56Z</time>
      </trkpt>
      <trkpt lat="43.72147" lon="3.54897">
        <ele>189.051</ele>
        <time>2013-03-02T10:02:01Z</time>
      </trkpt>
      <trkpt lat="43.72147" lon="3.54904">
        <ele>188.048</ele>
        <time>2013-03-02T10:02:06Z</time>
      </trkpt>
      <trkpt lat="43.72148" lon="3.54908">
        <ele>187.132</ele>
        <time>2013-03-02T10:02:08Z</time>
      </trkpt>
      <trkpt lat="43.72148" lon="3.54914">
        <ele>185.605</ele>
        <time>2013-03-02T10:02:12Z</time>
      </trkpt>
      <trkpt lat="43.72155" lon="3.54918">
        <ele>183.271</ele>
        <time>2013-03-02T10:02:24Z</time>
      </trkpt>
      <trkpt lat="43.7216" lon="3.54915">
        <ele>181.466</ele>
        <time>2013-03-02T10:02:37Z</time>
      </trkpt>
      <trkpt lat="43.72166" lon="3.54918">
        <ele>181.026</ele>
        <time>2013-03-02T10:02:42Z</time>
      </trkpt>
      <trkpt lat="43.72166" lon="3.54928">
        <ele>177.183</ele>
        <time>2013-03-02T10:02:54Z</time>
      </trkpt>
      <trkpt lat="43.72167" lon="3.54932">
        <ele>175.235</ele>
        <time>2013-03-02T10:02:58Z</time>
      </trkpt>
      <trkpt lat="43.72168" lon="3.54934">
        <ele>174.004</ele>
        <time>2013-03-02T10:03:01Z</time>
      </trkpt>
      <trkpt lat="43.72169" lon="3.54941">
        <ele>173.142</ele>
        <time>2013-03-02T10:03:15Z</time>
      </trkpt>
      <trkpt lat="43.72171" lon="3.54942">
        <ele>170.899</ele>
        <time>2013-03-02T10:03:20Z</time>
      </trkpt>
      <trkpt lat="43.72171" lon="3.54943">
        <ele>170.319</ele>
        <time>2013-03-02T10:03:22Z</time>
      </trkpt>
      <trkpt lat="43.72175" lon="3.54945">
        <ele>168.504</ele>
        <time>2013-03-02T10:03:25Z</time>
      </trkpt>
      <trkpt lat="43.72175" lon="3.54945">
        <ele>167.793</ele>
        <time>2013-03-02T10:03:34Z</time>
      </trkpt>
      <trkpt lat="43.7218" lon="3.54948">
        <ele>165.892</ele>
        <time>2013-03-02T10:03:48Z</time>
      </trkpt>
      <trkpt lat="43.72181" lon="3.54947">
        <ele>164.466</ele>
        <time>2013-03-02T10:03:50Z</time>
      </trkpt>
      <trkpt lat="43.72184" lon="3.54952">
        <ele>161.888</ele>
        <time>2013-03-02T10:04:02Z</time>
      </trkpt>
      <trkpt lat="43.72184" lon="3.54953">
        <ele>161.26</ele>
        <time>2013-03-02T10:04:04Z</time>
      </trkpt>
      <trkpt lat="43.72187" lon="3.5496">
        <ele>158.724</ele>
        <time>2013-03-02T10:04:14Z</time>
      </trkpt>
      <trkpt lat="43.72194" lon="3.54962">
        <ele>155.891</ele>
        <time>2013-03-02T10:04:25Z</time>
      </trkpt>
      <trkpt lat="43.72203" lon="3.54961">
        <ele>153.878</ele>
        <time>2013-03-02T10:04:36Z</time>
      </trkpt>
      <trkpt lat="43.72204" lon="3.54964">
        <ele>154.125</ele>
        <time>2013-03-02T10:04:38Z</time>
      </trkpt>
      <trkpt lat="43.72209" lon="3.54967">
        <ele>152.999</ele>
        <time>2013-03-02T10:04:47Z</time>
      </trkpt>
      <trkpt lat="43.7221" lon="3.54962">
        <ele>151.596</ele>
        <time>2013-03-02T10:04:50Z</time>
      </trkpt>
      <trkpt lat="43.72217" lon="3.54956">
        <ele>149.675</ele>
        <time>2013-03-02T10:05:00Z</time>
      </trkpt>
      <trkpt lat="43.72228" lon="3.54951">
        <ele>147.282</ele>
        <time>2013-03-02T10:05:12Z</time>
      </trkpt>
      <trkpt lat="43.7223" lon="3.54954">
        <ele>144.999</ele>
        <time>2013-03-02T10:05:17Z</time>
      </trkpt>
      <trkpt lat="43.72231" lon="3.54961">
        <ele>142.356</ele>
        <time>2013-03-02T10:05:23Z</time>
      </trkpt>
      <trkpt lat="43.7223" lon="3.54963">
        <ele>141.571</ele>
        <time>2013-03-02T10:05:24Z</time>
      </trkpt>
      <trkpt lat="43.72228" lon="3.54975">
        <ele>139.498</ele>
        <time>2013-03-02T10:05:38Z</time>
      </trkpt>
      <trkpt lat="43.72236" lon="3.54973">
        <ele>138.15</ele>
        <time>2013-03-02T10:05:50Z</time>
      </trkpt>
      <trkpt lat="43.72237" lon="3.54969">
        <ele>136.929</ele>
        <time>2013-03-02T10:06:07Z</time>
      </trkpt>
      <trkpt lat="43.72238" lon="3.54968">
        <ele>137.167</ele>
        <time>2013-03-02T10:06:08Z</time>
      </trkpt>
      <trkpt lat="43.72243" lon="3.54968">
        <ele>135.676</ele>
        <time>2013-03-02T10:06:12Z</time>
      </trkpt>
      <trkpt lat="43.72248" lon="3.54963">
        <ele>132.596</ele>
        <time>2013-03-02T10:06:22Z</time>
      </trkpt>
      <trkpt lat="43.72247" lon="3.54963">
        <ele>132.599</ele>
        <time>2013-03-02T10:06:23Z</time>
      </trkpt>
      <trkpt lat="43.72247" lon="3.54978">
        <ele>130.675</ele>
        <time>2013-03-02T10:06:36Z</time>
      </trkpt>
      <trkpt lat="43.72253" lon="3.54975">
        <ele>126.886</ele>
        <time>2013-03-02T10:06:46Z</time>
      </trkpt>
      <trkpt lat="43.72265" lon="3.5497">
        <ele>126.114</ele>
        <time>2013-03-02T10:06:58Z</time>
      </trkpt>
      <trkpt lat="43.7227" lon="3.54972">
        <ele>122.21</ele>
        <time>2013-03-02T10:07:09Z</time>
      </trkpt>
      <trkpt lat="43.72271" lon="3.54972">
        <ele>122.056</ele>
        <time>2013-03-02T10:07:10Z</time>
      </trkpt>
      <trkpt lat="43.72271" lon="3.54977">
        <ele>118.725</ele>
        <time>2013-03-02T10:07:21Z</time>
      </trkpt>
      <trkpt lat="43.72277" lon="3.54986">
        <ele>115.237</ele>
        <time>2013-03-02T10:07:31Z</time>
      </trkpt>
      <trkpt lat="43.72285" lon="3.54985">
        <ele>115.13</ele>
        <time>2013-03-02T10:07:43Z</time>
      </trkpt>
      <trkpt lat="43.72285" lon="3.54984">
        <ele>114.042</ele>
        <time>2013-03-02T10:07:45Z</time>
      </trkpt>
      <trkpt lat="43.72292" lon="3.54982">
        <ele>110.453</ele>
        <time>2013-03-02T10:07:54Z</time>
      </trkpt>
      <trkpt lat="43.72292" lon="3.54983">
        <ele>110.458</ele>
        <time>2013-03-02T10:07:55Z</time>
      </trkpt>
      <trkpt lat="43.72296" lon="3.54988">
        <ele>107.377</ele>
        <time>2013-03-02T10:08:03Z</time>
      </trkpt>
      <trkpt lat="43.723" lon="3.54984">
        <ele>106.337</ele>
        <time>2013-03-02T10:08:08Z</time>
      </trkpt>
      <trkpt lat="43.72306" lon="3.54982">
        <ele>105.213</ele>
        <time>2013-03-02T10:08:15Z</time>
      </trkpt>
      <trkpt lat="43.7231" lon="3.54984">
        <ele>101.714</ele>
        <time>2013-03-02T10:08:25Z</time>
      </trkpt>
      <trkpt lat="43.72314" lon="3.54984">
        <ele>99.131</ele>
        <time>2013-03-02T10:08:31Z</time>
      </trkpt>
      <trkpt lat="43.72319" lon="3.54988">
        <ele>96.952</ele>
        <time>2013-03-02T10:08:41Z</time>
      </trkpt>
      <trkpt lat="43.72326" lon="3.54988">
        <ele>93.967</ele>
        <time>2013-03-02T10:08:53Z</time>
      </trkpt>
      <trkpt lat="43.72327" lon="3.54988">
        <ele>94.713</ele>
        <time>2013-03-02T10:08:54Z</time>
      </trkpt>
      <trkpt lat="43.72329" lon="3.54984">
        <ele>93.359</ele>
        <time>2013-03-02T10:08:57Z</time>
      </trkpt>
      <trkpt lat="43.72337" lon="3.54974">
        <ele>89.954</ele>
        <time>2013-03-02T10:09:08Z</time>
      </trkpt>
      <trkpt lat="43.72338" lon="3.54973">
        <ele>89.659</ele>
        <time>2013-03-02T10:09:09Z</time>
      </trkpt>
      <trkpt lat="43.72341" lon="3.54961">
        <ele>88.484</ele>
        <time>2013-03-02T10:09:18Z</time>
      </trkpt>
      <trkpt lat="43.72342" lon="3.54959">
        <ele>88.196</ele>
        <time>2013-03-02T10:09:19Z</time>
      </trkpt>
      <trkpt lat="43.72352" lon="3.54943">
        <ele>85.971</ele>
        <time>2013-03-02T10:09:31Z</time>
      </trkpt>
      <trkpt lat="43.72353" lon="3.54943">
        <ele>87.243</ele>
        <time>2013-03-02T10:09:32Z</time>
      </trkpt>
      <trkpt lat="43.72354" lon="3.5495">
        <ele>86.287</ele>
        <time>2013-03-02T10:09:37Z</time>
      </trkpt>
      <trkpt lat="43.72356" lon="3.54955">
        <ele>83.258</ele>
        <time>2013-03-02T10:09:41Z</time>
      </trkpt>
      <trkpt lat="43.72358" lon="3.54954">
        <ele>81.464</ele>
        <time>2013-03-02T10:09:46Z</time>
      </trkpt>
      <trkpt lat="43.72364" lon="3.5495">
        <ele>80.715</ele>
        <time>2013-03-02T10:09:54Z</time>
      </trkpt>
      <trkpt lat="43.72371" lon="3.54951">
        <ele>78.227</ele>
        <time>2013-03-02T10:10:08Z</time>
      </trkpt>
      <trkpt lat="43.72379" lon="3.54951">
        <ele>76.058</ele>
        <time>2013-03-02T10:10:17Z</time>
      </trkpt>
      <trkpt lat="43.72386" lon="3.54949">
        <ele>74.999</ele>
        <time>2013-03-02T10:10:22Z</time>
      </trkpt>
      <trkpt lat="43.72389" lon="3.54946">
        <ele>74.361</ele>
        <time>2013-03-02T10:10:25Z</time>
      </trkpt>
      <trkpt lat="43.72397" lon="3.54955">
        <ele>72.256</ele>
        <time>2013-03-02T10:10:35Z</time>
      </trkpt>
      <trkpt lat="43.72405" lon="3.54966">
        <ele>72.553</ele>
        <time>2013-03-02T10:10:46Z</time>
      </trkpt>
      <trkpt lat="43.72405" lon="3.54968">
        <ele>72.601</ele>
        <time>2013-03-02T10:10:48Z</time>
      </trkpt>
      <trkpt lat="43.72405" lon="3.54979">
        <ele>72.886</ele>
        <time>2013-03-02T10:10:55Z</time>
      </trkpt>
      <trkpt lat="43.72407" lon="3.54996">
        <ele>70.622</ele>
        <time>2013-03-02T10:11:05Z</time>
      </trkpt>
      <trkpt lat="43.72408" lon="3.55007">
        <ele>70.844</ele>
        <time>2013-03-02T10:11:11Z</time>
      </trkpt>
      <trkpt lat="43.72411" lon="3.55021">
        <ele>69.935</ele>
        <time>2013-03-02T10:11:19Z</time>
      </trkpt>
      <trkpt lat="43.72414" lon="3.55036">
        <ele>68.849</ele>
        <time>2013-03-02T10:11:30Z</time>
      </trkpt>
      <trkpt lat="43.72416" lon="3.5504">
        <ele>68.405</ele>
        <time>2013-03-02T10:11:38Z</time>
      </trkpt>
      <trkpt lat="43.72425" lon="3.55056">
        <ele>66.668</ele>
        <time>2013-03-02T10:11:50Z</time>
      </trkpt>
      <trkpt lat="43.72427" lon="3.55057">
        <ele>66.404</ele>
        <time>2013-03-02T10:11:52Z</time>
      </trkpt>
      <trkpt lat="43.72432" lon="3.55058">
        <ele>66.236</ele>
        <time>2013-03-02T10:11:56Z</time>
      </trkpt>
      <trkpt lat="43.72443" lon="3.55056">
        <ele>66.465</ele>
        <time>2013-03-02T10:12:07Z</time>
      </trkpt>
      <trkpt lat="43.72447" lon="3.55053">
        <ele>65.845</ele>
        <time>2013-03-02T10:12:11Z</time>
      </trkpt>
      <trkpt lat="43.72457" lon="3.55049">
        <ele>68.194</ele>
        <time>2013-03-02T10:12:18Z</time>
      </trkpt>
      <trkpt lat="43.72459" lon="3.55048">
        <ele>66.781</ele>
        <time>2013-03-02T10:12:45Z</time>
      </trkpt>
      <trkpt lat="43.7247" lon="3.55043">
        <ele>65.92</ele>
        <time>2013-03-02T10:13:43Z</time>
      </trkpt>
      <trkpt lat="43.72474" lon="3.55043">
        <ele>64.642</ele>
        <time>2013-03-02T10:14:25Z</time>
      </trkpt>
      <trkpt lat="43.72473" lon="3.55043">
        <ele>64.466</ele>
        <time>2013-03-02T10:14:29Z</time>
      </trkpt>
      <trkpt lat="43.72474" lon="3.55041">
        <ele>65.288</ele>
        <time>2013-03-02T10:15:02Z</time>
      </trkpt>
      <trkpt lat="43.72481" lon="3.55045">
        <ele>63.559</ele>
        <time>2013-03-02T10:15:21Z</time>
      </trkpt>
      <trkpt lat="43.72495" lon="3.5504">
        <ele>62.575</ele>
        <time>2013-03-02T10:15:33Z</time>
      </trkpt>
      <trkpt lat="43.72513" lon="3.55036">
        <ele>62.049</ele>
        <time>2013-03-02T10:15:49Z</time>
      </trkpt>
      <trkpt lat="43.72522" lon="3.55033">
        <ele>61.413</ele>
        <time>2013-03-02T10:15:56Z</time>
      </trkpt>
      <trkpt lat="43.72537" lon="3.5503">
        <ele>61.684</ele>
        <time>2013-03-02T10:16:11Z</time>
      </trkpt>
      <trkpt lat="43.72545" lon="3.55029">
        <ele>61.089</ele>
        <time>2013-03-02T10:16:24Z</time>
      </trkpt>
      <trkpt lat="43.72546" lon="3.55028">
        <ele>60.284</ele>
        <time>2013-03-02T10:16:26Z</time>
      </trkpt>
      <trkpt lat="43.72549" lon="3.55028">
        <ele>61.682</ele>
        <time>2013-03-02T10:16:32Z</time>
      </trkpt>
      <trkpt lat="43.72557" lon="3.55026">
        <ele>62.385</ele>
        <time>2013-03-02T10:16:38Z</time>
      </trkpt>
      <trkpt lat="43.72568" lon="3.55023">
        <ele>61.798</ele>
        <time>2013-03-02T10:16:47Z</time>
      </trkpt>
      <trkpt lat="43.72574" lon="3.55021">
        <ele>63.524</ele>
        <time>2013-03-02T10:16:53Z</time>
      </trkpt>
      <trkpt lat="43.72577" lon="3.55019">
        <ele>66.422</ele>
        <time>2013-03-02T10:16:56Z</time>
      </trkpt>
      <trkpt lat="43.72578" lon="3.55018">
        <ele>64.95</ele>
        <time>2013-03-02T10:16:57Z</time>
      </trkpt>
      <trkpt lat="43.72591" lon="3.55017">
        <ele>63.991</ele>
        <time>2013-03-02T10:17:11Z</time>
      </trkpt>
      <trkpt lat="43.72602" lon="3.55017">
        <ele>68.005</ele>
        <time>2013-03-02T10:17:23Z</time>
      </trkpt>
      <trkpt lat="43.72603" lon="3.55017">
        <ele>64.425</ele>
        <time>2013-03-02T10:17:24Z</time>
      </trkpt>
      <trkpt lat="43.72619" lon="3.55015">
        <ele>65.22</ele>
        <time>2013-03-02T10:17:36Z</time>
      </trkpt>
      <trkpt lat="43.72621" lon="3.55019">
        <ele>62.02</ele>
        <time>2013-03-02T10:17:42Z</time>
      </trkpt>
      <trkpt lat="43.72621" lon="3.55019">
        <ele>40.228</ele>
        <time>2013-03-02T10:17:43Z</time>
      </trkpt>
      <trkpt lat="43.72621" lon="3.55019">
        <ele>69.464</ele>
        <time>2013-03-02T10:17:44Z</time>
      </trkpt>
      <trkpt lat="43.72621" lon="3.55019">
        <ele>66.564</ele>
        <time>2013-03-02T10:17:45Z</time>
      </trkpt>
      <trkpt lat="43.72619" lon="3.55019">
        <ele>65.006</ele>
        <time>2013-03-02T10:17:47Z</time>
      </trkpt>
      <trkpt lat="43.72621" lon="3.55012">
        <ele>75.085</ele>
        <time>2013-03-02T10:17:56Z</time>
      </trkpt>
      <trkpt lat="43.72621" lon="3.55013">
        <ele>67.495</ele>
        <time>2013-03-02T10:17:57Z</time>
      </trkpt>
      <trkpt lat="43.72622" lon="3.55014">
        <ele>64.261</ele>
        <time>2013-03-02T10:17:59Z</time>
      </trkpt>
      <trkpt lat="43.72623" lon="3.55014">
        <ele>64.569</ele>
        <time>2013-03-02T10:18:00Z</time>
      </trkpt>
      <trkpt lat="43.72635" lon="3.55017">
        <ele>63.756</ele>
        <time>2013-03-02T10:18:13Z</time>
      </trkpt>
      <trkpt lat="43.72645" lon="3.55017">
        <ele>65.675</ele>
        <time>2013-03-02T10:18:23Z</time>
      </trkpt>
      <trkpt lat="43.72661" lon="3.55017">
        <ele>64.18</ele>
        <time>2013-03-02T10:18:37Z</time>
      </trkpt>
      <trkpt lat="43.72671" lon="3.55021">
        <ele>62.564</ele>
        <time>2013-03-02T10:18:46Z</time>
      </trkpt>
      <trkpt lat="43.72678" lon="3.55025">
        <ele>58.49</ele>
        <time>2013-03-02T10:18:55Z</time>
      </trkpt>
      <trkpt lat="43.72679" lon="3.55024">
        <ele>65.107</ele>
        <time>2013-03-02T10:18:56Z</time>
      </trkpt>
      <trkpt lat="43.72679" lon="3.55026">
        <ele>60.866</ele>
        <time>2013-03-02T10:18:58Z</time>
      </trkpt>
      <trkpt lat="43.72683" lon="3.55027">
        <ele>64.95</ele>
        <time>2013-03-02T10:19:02Z</time>
      </trkpt>
      <trkpt lat="43.727" lon="3.55034">
        <ele>66.025</ele>
        <time>2013-03-02T10:19:19Z</time>
      </trkpt>
      <trkpt lat="43.72701" lon="3.55034">
        <ele>65.243</ele>
        <time>2013-03-02T10:19:20Z</time>
      </trkpt>
      <trkpt lat="43.72718" lon="3.55038">
        <ele>64.77</ele>
        <time>2013-03-02T10:19:37Z</time>
      </trkpt>
      <trkpt lat="43.72732" lon="3.5504">
        <ele>66.578</ele>
        <time>2013-03-02T10:19:51Z</time>
      </trkpt>
      <trkpt lat="43.72733" lon="3.5504">
        <ele>66.713</ele>
        <time>2013-03-02T10:19:52Z</time>
      </trkpt>
      <trkpt lat="43.72747" lon="3.55051">
        <ele>67.322</ele>
        <time>2013-03-02T10:20:03Z</time>
      </trkpt>
      <trkpt lat="43.72748" lon="3.55052">
        <ele>67.286</ele>
        <time>2013-03-02T10:20:04Z</time>
      </trkpt>
      <trkpt lat="43.7276" lon="3.55066">
        <ele>68.04</ele>
        <time>2013-03-02T10:20:17Z</time>
      </trkpt>
      <trkpt lat="43.72769" lon="3.55074">
        <ele>68.129</ele>
        <time>2013-03-02T10:20:27Z</time>
      </trkpt>
      <trkpt lat="43.72784" lon="3.55085">
        <ele>67.832</ele>
        <time>2013-03-02T10:20:41Z</time>
      </trkpt>
      <trkpt lat="43.72795" lon="3.55093">
        <ele>67.788</ele>
        <time>2013-03-02T10:20:51Z</time>
      </trkpt>
      <trkpt lat="43.72813" lon="3.55101">
        <ele>67.923</ele>
        <time>2013-03-02T10:21:07Z</time>
      </trkpt>
      <trkpt lat="43.72823" lon="3.55106">
        <ele>68.189</ele>
        <time>2013-03-02T10:21:21Z</time>
      </trkpt>
      <trkpt lat="43.72835" lon="3.55118">
        <ele>70.554</ele>
        <time>2013-03-02T10:21:33Z</time>
      </trkpt>
      <trkpt lat="43.72839" lon="3.55122">
        <ele>71.293</ele>
        <time>2013-03-02T10:21:38Z</time>
      </trkpt>
      <trkpt lat="43.72844" lon="3.55136">
        <ele>69.837</ele>
        <time>2013-03-02T10:21:47Z</time>
      </trkpt>
      <trkpt lat="43.7285" lon="3.55142">
        <ele>68.179</ele>
        <time>2013-03-02T10:21:52Z</time>
      </trkpt>
      <trkpt lat="43.72852" lon="3.55144">
        <ele>69.223</ele>
        <time>2013-03-02T10:21:54Z</time>
      </trkpt>
      <trkpt lat="43.72861" lon="3.55149">
        <ele>69.526</ele>
        <time>2013-03-02T10:22:02Z</time>
      </trkpt>
      <trkpt lat="43.72866" lon="3.55155">
        <ele>69.325</ele>
        <time>2013-03-02T10:22:08Z</time>
      </trkpt>
      <trkpt lat="43.72871" lon="3.55165">
        <ele>69.268</ele>
        <time>2013-03-02T10:22:17Z</time>
      </trkpt>
      <trkpt lat="43.72889" lon="3.55179">
        <ele>68.406</ele>
        <time>2013-03-02T10:22:33Z</time>
      </trkpt>
      <trkpt lat="43.72891" lon="3.5518">
        <ele>68.33</ele>
        <time>2013-03-02T10:22:35Z</time>
      </trkpt>
      <trkpt lat="43.72892" lon="3.55185">
        <ele>67.199</ele>
        <time>2013-03-02T10:22:52Z</time>
      </trkpt>
      <trkpt lat="43.72897" lon="3.55189">
        <ele>68.48</ele>
        <time>2013-03-02T10:23:23Z</time>
      </trkpt>
      <trkpt lat="43.72897" lon="3.55187">
        <ele>68.341</ele>
        <time>2013-03-02T10:23:52Z</time>
      </trkpt>
      <trkpt lat="43.72897" lon="3.55188">
        <ele>68.728</ele>
        <time>2013-03-02T10:24:01Z</time>
      </trkpt>
      <trkpt lat="43.72903" lon="3.5519">
        <ele>68.821</ele>
        <time>2013-03-02T10:24:09Z</time>
      </trkpt>
      <trkpt lat="43.72903" lon="3.5519">
        <ele>68.79</ele>
        <time>2013-03-02T10:24:10Z</time>
      </trkpt>
      <trkpt lat="43.72915" lon="3.55197">
        <ele>69.25</ele>
        <time>2013-03-02T10:24:21Z</time>
      </trkpt>
      <trkpt lat="43.72918" lon="3.55203">
        <ele>68.794</ele>
        <time>2013-03-02T10:24:26Z</time>
      </trkpt>
      <trkpt lat="43.72919" lon="3.55206">
        <ele>69.912</ele>
        <time>2013-03-02T10:24:29Z</time>
      </trkpt>
      <trkpt lat="43.72922" lon="3.55211">
        <ele>69.094</ele>
        <time>2013-03-02T10:24:33Z</time>
      </trkpt>
      <trkpt lat="43.72932" lon="3.55221">
        <ele>68.737</ele>
        <time>2013-03-02T10:24:45Z</time>
      </trkpt>
      <trkpt lat="43.72941" lon="3.5523">
        <ele>67.633</ele>
        <time>2013-03-02T10:24:54Z</time>
      </trkpt>
      <trkpt lat="43.72948" lon="3.55236">
        <ele>67.934</ele>
        <time>2013-03-02T10:25:00Z</time>
      </trkpt>
      <trkpt lat="43.72954" lon="3.5524">
        <ele>70.368</ele>
        <time>2013-03-02T10:25:07Z</time>
      </trkpt>
      <trkpt lat="43.7297" lon="3.55248">
        <ele>70.501</ele>
        <time>2013-03-02T10:25:20Z</time>
      </trkpt>
      <trkpt lat="43.72984" lon="3.55254">
        <ele>69.531</ele>
        <time>2013-03-02T10:25:32Z</time>
      </trkpt>
      <trkpt lat="43.72984" lon="3.55256">
        <ele>69.114</ele>
        <time>2013-03-02T10:25:34Z</time>
      </trkpt>
      <trkpt lat="43.72993" lon="3.55261">
        <ele>68.44</ele>
        <time>2013-03-02T10:25:40Z</time>
      </trkpt>
      <trkpt lat="43.73008" lon="3.55274">
        <ele>68.814</ele>
        <time>2013-03-02T10:25:59Z</time>
      </trkpt>
      <trkpt lat="43.73003" lon="3.5528">
        <ele>68.284</ele>
        <time>2013-03-02T10:26:38Z</time>
      </trkpt>
      <trkpt lat="43.73002" lon="3.55276">
        <ele>68.448</ele>
        <time>2013-03-02T10:26:51Z</time>
      </trkpt>
      <trkpt lat="43.73006" lon="3.55274">
        <ele>67.966</ele>
        <time>2013-03-02T10:26:54Z</time>
      </trkpt>
      <trkpt lat="43.73016" lon="3.55273">
        <ele>70.229</ele>
        <time>2013-03-02T10:27:03Z</time>
      </trkpt>
      <trkpt lat="43.73021" lon="3.55276">
        <ele>69.99</ele>
        <time>2013-03-02T10:27:08Z</time>
      </trkpt>
      <trkpt lat="43.73028" lon="3.5528">
        <ele>69.419</ele>
        <time>2013-03-02T10:27:14Z</time>
      </trkpt>
      <trkpt lat="43.73043" lon="3.55287">
        <ele>70.242</ele>
        <time>2013-03-02T10:27:25Z</time>
      </trkpt>
      <trkpt lat="43.73046" lon="3.55288">
        <ele>70.738</ele>
        <time>2013-03-02T10:27:27Z</time>
      </trkpt>
      <trkpt lat="43.73059" lon="3.55296">
        <ele>70.844</ele>
        <time>2013-03-02T10:27:37Z</time>
      </trkpt>
      <trkpt lat="43.73071" lon="3.55303">
        <ele>71.239</ele>
        <time>2013-03-02T10:27:47Z</time>
      </trkpt>
      <trkpt lat="43.73074" lon="3.55305">
        <ele>71.825</ele>
        <time>2013-03-02T10:27:49Z</time>
      </trkpt>
      <trkpt lat="43.73078" lon="3.55306">
        <ele>71.939</ele>
        <time>2013-03-02T10:27:53Z</time>
      </trkpt>
      <trkpt lat="43.73084" lon="3.55308">
        <ele>71.633</ele>
        <time>2013-03-02T10:27:58Z</time>
      </trkpt>
      <trkpt lat="43.73095" lon="3.55309">
        <ele>72.097</ele>
        <time>2013-03-02T10:28:10Z</time>
      </trkpt>
      <trkpt lat="43.73109" lon="3.55309">
        <ele>72.169</ele>
        <time>2013-03-02T10:28:22Z</time>
      </trkpt>
      <trkpt lat="43.73131" lon="3.55314">
        <ele>72.24</ele>
        <time>2013-03-02T10:28:33Z</time>
      </trkpt>
      <trkpt lat="43.73136" lon="3.55318">
        <ele>71.744</ele>
        <time>2013-03-02T10:28:37Z</time>
      </trkpt>
      <trkpt lat="43.7314" lon="3.55317">
        <ele>71.68</ele>
        <time>2013-03-02T10:28:39Z</time>
      </trkpt>
      <trkpt lat="43.73153" lon="3.55315">
        <ele>71.618</ele>
        <time>2013-03-02T10:28:49Z</time>
      </trkpt>
      <trkpt lat="43.73153" lon="3.55315">
        <ele>71.629</ele>
        <time>2013-03-02T10:28:50Z</time>
      </trkpt>
      <trkpt lat="43.73162" lon="3.55314">
        <ele>72.88</ele>
        <time>2013-03-02T10:28:56Z</time>
      </trkpt>
      <trkpt lat="43.73173" lon="3.55317">
        <ele>72.846</ele>
        <time>2013-03-02T10:29:04Z</time>
      </trkpt>
      <trkpt lat="43.73174" lon="3.55319">
        <ele>73.746</ele>
        <time>2013-03-02T10:29:18Z</time>
      </trkpt>
      <trkpt lat="43.73173" lon="3.55325">
        <ele>72.881</ele>
        <time>2013-03-02T10:29:23Z</time>
      </trkpt>
      <trkpt lat="43.73179" lon="3.55339">
        <ele>73.95</ele>
        <time>2013-03-02T10:29:33Z</time>
      </trkpt>
      <trkpt lat="43.73188" lon="3.55352">
        <ele>74.483</ele>
        <time>2013-03-02T10:29:44Z</time>
      </trkpt>
      <trkpt lat="43.73204" lon="3.55358">
        <ele>76.108</ele>
        <time>2013-03-02T10:29:55Z</time>
      </trkpt>
      <trkpt lat="43.73214" lon="3.55362">
        <ele>76.029</ele>
        <time>2013-03-02T10:30:05Z</time>
      </trkpt>
      <trkpt lat="43.73216" lon="3.55365">
        <ele>77.611</ele>
        <time>2013-03-02T10:30:10Z</time>
      </trkpt>
      <trkpt lat="43.73234" lon="3.55379">
        <ele>76.719</ele>
        <time>2013-03-02T10:30:24Z</time>
      </trkpt>
      <trkpt lat="43.73245" lon="3.55379">
        <ele>76.923</ele>
        <time>2013-03-02T10:30:31Z</time>
      </trkpt>
      <trkpt lat="43.73264" lon="3.55381">
        <ele>77.825</ele>
        <time>2013-03-02T10:30:43Z</time>
      </trkpt>
      <trkpt lat="43.73278" lon="3.55383">
        <ele>78.837</ele>
        <time>2013-03-02T10:30:51Z</time>
      </trkpt>
      <trkpt lat="43.73293" lon="3.55386">
        <ele>79.482</ele>
        <time>2013-03-02T10:31:01Z</time>
      </trkpt>
      <trkpt lat="43.73299" lon="3.5538">
        <ele>80.196</ele>
        <time>2013-03-02T10:31:09Z</time>
      </trkpt>
      <trkpt lat="43.73297" lon="3.55379">
        <ele>80.525</ele>
        <time>2013-03-02T10:31:13Z</time>
      </trkpt>
      <trkpt lat="43.733" lon="3.55378">
        <ele>80.351</ele>
        <time>2013-03-02T10:31:20Z</time>
      </trkpt>
      <trkpt lat="43.73305" lon="3.55381">
        <ele>80.06</ele>
        <time>2013-03-02T10:31:25Z</time>
      </trkpt>
      <trkpt lat="43.73309" lon="3.55382">
        <ele>80.427</ele>
        <time>2013-03-02T10:31:28Z</time>
      </trkpt>
      <trkpt lat="43.73329" lon="3.55368">
        <ele>80.057</ele>
        <time>2013-03-02T10:31:40Z</time>
      </trkpt>
      <trkpt lat="43.7334" lon="3.55357">
        <ele>80.843</ele>
        <time>2013-03-02T10:31:49Z</time>
      </trkpt>
      <trkpt lat="43.73343" lon="3.5534">
        <ele>81.009</ele>
        <time>2013-03-02T10:31:58Z</time>
      </trkpt>
      <trkpt lat="43.73344" lon="3.55325">
        <ele>80.922</ele>
        <time>2013-03-02T10:32:06Z</time>
      </trkpt>
      <trkpt lat="43.73347" lon="3.55301">
        <ele>83.082</ele>
        <time>2013-03-02T10:32:27Z</time>
      </trkpt>
      <trkpt lat="43.7335" lon="3.55296">
        <ele>82.487</ele>
        <time>2013-03-02T10:32:30Z</time>
      </trkpt>
      <trkpt lat="43.73352" lon="3.55294">
        <ele>83.295</ele>
        <time>2013-03-02T10:32:32Z</time>
      </trkpt>
      <trkpt lat="43.7336" lon="3.5528">
        <ele>83.038</ele>
        <time>2013-03-02T10:32:42Z</time>
      </trkpt>
      <trkpt lat="43.73363" lon="3.55278">
        <ele>84.149</ele>
        <time>2013-03-02T10:32:46Z</time>
      </trkpt>
      <trkpt lat="43.73367" lon="3.55275">
        <ele>84.004</ele>
        <time>2013-03-02T10:32:49Z</time>
      </trkpt>
      <trkpt lat="43.73371" lon="3.55259">
        <ele>84.812</ele>
        <time>2013-03-02T10:32:56Z</time>
      </trkpt>
      <trkpt lat="43.7337" lon="3.55256">
        <ele>84.711</ele>
        <time>2013-03-02T10:32:58Z</time>
      </trkpt>
      <trkpt lat="43.73372" lon="3.55247">
        <ele>84.923</ele>
        <time>2013-03-02T10:33:03Z</time>
      </trkpt>
      <trkpt lat="43.73376" lon="3.55242">
        <ele>84.16</ele>
        <time>2013-03-02T10:33:07Z</time>
      </trkpt>
      <trkpt lat="43.73367" lon="3.55228">
        <ele>85.622</ele>
        <time>2013-03-02T10:33:21Z</time>
      </trkpt>
      <trkpt lat="43.73372" lon="3.5522">
        <ele>85.828</ele>
        <time>2013-03-02T10:33:26Z</time>
      </trkpt>
      <trkpt lat="43.73375" lon="3.55199">
        <ele>87.395</ele>
        <time>2013-03-02T10:33:38Z</time>
      </trkpt>
      <trkpt lat="43.7337" lon="3.55193">
        <ele>86.485</ele>
        <time>2013-03-02T10:33:45Z</time>
      </trkpt>
      <trkpt lat="43.73364" lon="3.55188">
        <ele>88.052</ele>
        <time>2013-03-02T10:33:52Z</time>
      </trkpt>
      <trkpt lat="43.73371" lon="3.55179">
        <ele>88.03</ele>
        <time>2013-03-02T10:33:56Z</time>
      </trkpt>
      <trkpt lat="43.73367" lon="3.55177">
        <ele>88.531</ele>
        <time>2013-03-02T10:34:01Z</time>
      </trkpt>
      <trkpt lat="43.73366" lon="3.55153">
        <ele>88.664</ele>
        <time>2013-03-02T10:34:15Z</time>
      </trkpt>
      <trkpt lat="43.73363" lon="3.55153">
        <ele>88.784</ele>
        <time>2013-03-02T10:34:16Z</time>
      </trkpt>
      <trkpt lat="43.7336" lon="3.55149">
        <ele>88.506</ele>
        <time>2013-03-02T10:34:19Z</time>
      </trkpt>
      <trkpt lat="43.73357" lon="3.55139">
        <ele>88.727</ele>
        <time>2013-03-02T10:34:25Z</time>
      </trkpt>
      <trkpt lat="43.73353" lon="3.55128">
        <ele>89.153</ele>
        <time>2013-03-02T10:34:31Z</time>
      </trkpt>
      <trkpt lat="43.73354" lon="3.55104">
        <ele>88.655</ele>
        <time>2013-03-02T10:34:45Z</time>
      </trkpt>
      <trkpt lat="43.73359" lon="3.55093">
        <ele>88.605</ele>
        <time>2013-03-02T10:34:51Z</time>
      </trkpt>
      <trkpt lat="43.73363" lon="3.55078">
        <ele>90.112</ele>
        <time>2013-03-02T10:35:00Z</time>
      </trkpt>
      <trkpt lat="43.73365" lon="3.55072">
        <ele>89.898</ele>
        <time>2013-03-02T10:35:05Z</time>
      </trkpt>
      <trkpt lat="43.73367" lon="3.55064">
        <ele>89.959</ele>
        <time>2013-03-02T10:35:09Z</time>
      </trkpt>
      <trkpt lat="43.73372" lon="3.55056">
        <ele>91.672</ele>
        <time>2013-03-02T10:35:16Z</time>
      </trkpt>
      <trkpt lat="43.73373" lon="3.5504">
        <ele>93.284</ele>
        <time>2013-03-02T10:35:31Z</time>
      </trkpt>
      <trkpt lat="43.73365" lon="3.55033">
        <ele>94.007</ele>
        <time>2013-03-02T10:35:41Z</time>
      </trkpt>
      <trkpt lat="43.73357" lon="3.55029">
        <ele>94.898</ele>
        <time>2013-03-02T10:35:44Z</time>
      </trkpt>
      <trkpt lat="43.73362" lon="3.55015">
        <ele>96.883</ele>
        <time>2013-03-02T10:35:51Z</time>
      </trkpt>
      <trkpt lat="43.73363" lon="3.55012">
        <ele>98.268</ele>
        <time>2013-03-02T10:35:53Z</time>
      </trkpt>
      <trkpt lat="43.73362" lon="3.5501">
        <ele>98.268</ele>
        <time>2013-03-02T10:35:54Z</time>
      </trkpt>
      <trkpt lat="43.7336" lon="3.55004">
        <ele>98.692</ele>
        <time>2013-03-02T10:35:57Z</time>
      </trkpt>
      <trkpt lat="43.73366" lon="3.54995">
        <ele>98.746</ele>
        <time>2013-03-02T10:36:07Z</time>
      </trkpt>
      <trkpt lat="43.73366" lon="3.54997">
        <ele>100.062</ele>
        <time>2013-03-02T10:36:10Z</time>
      </trkpt>
      <trkpt lat="43.73385" lon="3.54994">
        <ele>102.316</ele>
        <time>2013-03-02T10:36:34Z</time>
      </trkpt>
      <trkpt lat="43.73386" lon="3.54992">
        <ele>102.438</ele>
        <time>2013-03-02T10:36:35Z</time>
      </trkpt>
      <trkpt lat="43.73389" lon="3.54981">
        <ele>103.799</ele>
        <time>2013-03-02T10:36:43Z</time>
      </trkpt>
      <trkpt lat="43.73397" lon="3.54973">
        <ele>105.176</ele>
        <time>2013-03-02T10:36:49Z</time>
      </trkpt>
      <trkpt lat="43.73402" lon="3.5497">
        <ele>106.148</ele>
        <time>2013-03-02T10:36:55Z</time>
      </trkpt>
      <trkpt lat="43.73408" lon="3.54968">
        <ele>106.367</ele>
        <time>2013-03-02T10:36:58Z</time>
      </trkpt>
      <trkpt lat="43.73409" lon="3.54955">
        <ele>107.179</ele>
        <time>2013-03-02T10:37:07Z</time>
      </trkpt>
      <trkpt lat="43.7341" lon="3.54953">
        <ele>107.366</ele>
        <time>2013-03-02T10:37:17Z</time>
      </trkpt>
      <trkpt lat="43.73412" lon="3.54954">
        <ele>107.11</ele>
        <time>2013-03-02T10:37:19Z</time>
      </trkpt>
      <trkpt lat="43.7341" lon="3.54951">
        <ele>106.769</ele>
        <time>2013-03-02T10:37:23Z</time>
      </trkpt>
      <trkpt lat="43.73398" lon="3.54948">
        <ele>107.159</ele>
        <time>2013-03-02T10:37:27Z</time>
      </trkpt>
      <trkpt lat="43.73407" lon="3.54948">
        <ele>107.666</ele>
        <time>2013-03-02T10:37:31Z</time>
      </trkpt>
      <trkpt lat="43.73411" lon="3.54938">
        <ele>109.985</ele>
        <time>2013-03-02T10:37:45Z</time>
      </trkpt>
      <trkpt lat="43.73432" lon="3.54924">
        <ele>109.377</ele>
        <time>2013-03-02T10:37:55Z</time>
      </trkpt>
      <trkpt lat="43.73433" lon="3.54922">
        <ele>108.971</ele>
        <time>2013-03-02T10:37:58Z</time>
      </trkpt>
      <trkpt lat="43.73435" lon="3.54918">
        <ele>108.755</ele>
        <time>2013-03-02T10:38:01Z</time>
      </trkpt>
      <trkpt lat="43.73438" lon="3.54915">
        <ele>107.703</ele>
        <time>2013-03-02T10:38:06Z</time>
      </trkpt>
      <trkpt lat="43.73419" lon="3.54895">
        <ele>105.166</ele>
        <time>2013-03-02T10:38:19Z</time>
      </trkpt>
      <trkpt lat="43.73419" lon="3.54895">
        <ele>105.881</ele>
        <time>2013-03-02T10:38:27Z</time>
      </trkpt>
      <trkpt lat="43.73419" lon="3.54895">
        <ele>106.026</ele>
        <time>2013-03-02T10:38:33Z</time>
      </trkpt>
      <trkpt lat="43.73421" lon="3.54895">
        <ele>106.445</ele>
        <time>2013-03-02T10:38:40Z</time>
      </trkpt>
      <trkpt lat="43.73433" lon="3.54853">
        <ele>107.329</ele>
        <time>2013-03-02T10:38:52Z</time>
      </trkpt>
      <trkpt lat="43.73442" lon="3.54844">
        <ele>107.186</ele>
        <time>2013-03-02T10:39:03Z</time>
      </trkpt>
      <trkpt lat="43.73456" lon="3.5483">
        <ele>107.399</ele>
        <time>2013-03-02T10:39:11Z</time>
      </trkpt>
      <trkpt lat="43.73456" lon="3.5483">
        <ele>107.101</ele>
        <time>2013-03-02T10:39:18Z</time>
      </trkpt>
      <trkpt lat="43.73466" lon="3.54823">
        <ele>108.119</ele>
        <time>2013-03-02T10:39:20Z</time>
      </trkpt>
      <trkpt lat="43.73475" lon="3.54817">
        <ele>106.507</ele>
        <time>2013-03-02T10:39:32Z</time>
      </trkpt>
      <trkpt lat="43.73475" lon="3.54817">
        <ele>106.429</ele>
        <time>2013-03-02T10:39:42Z</time>
      </trkpt>
      <trkpt lat="43.73484" lon="3.5481">
        <ele>106.913</ele>
        <time>2013-03-02T10:39:55Z</time>
      </trkpt>
      <trkpt lat="43.73484" lon="3.5481">
        <ele>106.754</ele>
        <time>2013-03-02T10:39:57Z</time>
      </trkpt>
      <trkpt lat="43.73492" lon="3.54805">
        <ele>106.927</ele>
        <time>2013-03-02T10:40:07Z</time>
      </trkpt>
      <trkpt lat="43.73492" lon="3.54805">
        <ele>107.563</ele>
        <time>2013-03-02T10:40:10Z</time>
      </trkpt>
      <trkpt lat="43.73521" lon="3.54805">
        <ele>107.869</ele>
        <time>2013-03-02T10:40:22Z</time>
      </trkpt>
      <trkpt lat="43.7354" lon="3.54803">
        <ele>108.641</ele>
        <time>2013-03-02T10:40:33Z</time>
      </trkpt>
      <trkpt lat="43.7354" lon="3.54803">
        <ele>108.325</ele>
        <time>2013-03-02T10:40:48Z</time>
      </trkpt>
      <trkpt lat="43.7354" lon="3.54803">
        <ele>109.573</ele>
        <time>2013-03-02T10:41:00Z</time>
      </trkpt>
      <trkpt lat="43.7354" lon="3.54803">
        <ele>110.007</ele>
        <time>2013-03-02T10:41:12Z</time>
      </trkpt>
      <trkpt lat="43.73591" lon="3.54788">
        <ele>109.807</ele>
        <time>2013-03-02T10:41:21Z</time>
      </trkpt>
      <trkpt lat="43.73591" lon="3.54788">
        <ele>110.635</ele>
        <time>2013-03-02T10:41:25Z</time>
      </trkpt>
      <trkpt lat="43.73591" lon="3.54788">
        <ele>111.62</ele>
        <time>2013-03-02T10:41:36Z</time>
      </trkpt>
      <trkpt lat="43.73591" lon="3.54788">
        <ele>111.563</ele>
        <time>2013-03-02T10:41:45Z</time>
      </trkpt>
      <trkpt lat="43.73623" lon="3.54788">
        <ele>111.629</ele>
        <time>2013-03-02T10:41:59Z</time>
      </trkpt>
      <trkpt lat="43.73623" lon="3.54788">
        <ele>111.78</ele>
        <time>2013-03-02T10:42:02Z</time>
      </trkpt>
      <trkpt lat="43.73644" lon="3.54779">
        <ele>111.383</ele>
        <time>2013-03-02T10:42:04Z</time>
      </trkpt>
      <trkpt lat="43.73647" lon="3.54777">
        <ele>111.931</ele>
        <time>2013-03-02T10:42:13Z</time>
      </trkpt>
      <trkpt lat="43.73593" lon="3.54839">
        <ele>111.723</ele>
        <time>2013-03-02T10:42:15Z</time>
      </trkpt>
      <trkpt lat="43.73638" lon="3.54755">
        <ele>112.14</ele>
        <time>2013-03-02T10:42:25Z</time>
      </trkpt>
      <trkpt lat="43.73638" lon="3.54755">
        <ele>112.322</ele>
        <time>2013-03-02T10:42:28Z</time>
      </trkpt>
      <trkpt lat="43.73651" lon="3.54775">
        <ele>112.156</ele>
        <time>2013-03-02T10:42:31Z</time>
      </trkpt>
      <trkpt lat="43.73672" lon="3.54733">
        <ele>112.426</ele>
        <time>2013-03-02T10:42:46Z</time>
      </trkpt>
      <trkpt lat="43.73672" lon="3.54733">
        <ele>112.704</ele>
        <time>2013-03-02T10:42:49Z</time>
      </trkpt>
      <trkpt lat="43.73672" lon="3.54715">
        <ele>112.605</ele>
        <time>2013-03-02T10:42:58Z</time>
      </trkpt>
      <trkpt lat="43.73672" lon="3.547">
        <ele>112.443</ele>
        <time>2013-03-02T10:43:04Z</time>
      </trkpt>
      <trkpt lat="43.73676" lon="3.5468">
        <ele>113.378</ele>
        <time>2013-03-02T10:43:18Z</time>
      </trkpt>
      <trkpt lat="43.73677" lon="3.54677">
        <ele>113.578</ele>
        <time>2013-03-02T10:43:20Z</time>
      </trkpt>
      <trkpt lat="43.73678" lon="3.54673">
        <ele>113.295</ele>
        <time>2013-03-02T10:43:25Z</time>
      </trkpt>
      <trkpt lat="43.73681" lon="3.54657">
        <ele>113.572</ele>
        <time>2013-03-02T10:43:31Z</time>
      </trkpt>
      <trkpt lat="43.73681" lon="3.54656">
        <ele>113.117</ele>
        <time>2013-03-02T10:43:40Z</time>
      </trkpt>
      <trkpt lat="43.73681" lon="3.54659">
        <ele>113.189</ele>
        <time>2013-03-02T10:43:49Z</time>
      </trkpt>
      <trkpt lat="43.73681" lon="3.54659">
        <ele>112.999</ele>
        <time>2013-03-02T10:43:57Z</time>
      </trkpt>
      <trkpt lat="43.73681" lon="3.54659">
        <ele>113.341</ele>
        <time>2013-03-02T10:44:13Z</time>
      </trkpt>
      <trkpt lat="43.73681" lon="3.54659">
        <ele>115.116</ele>
        <time>2013-03-02T10:44:25Z</time>
      </trkpt>
      <trkpt lat="43.73647" lon="3.54643">
        <ele>114.915</ele>
        <time>2013-03-02T10:44:29Z</time>
      </trkpt>
      <trkpt lat="43.73644" lon="3.54636">
        <ele>115.666</ele>
        <time>2013-03-02T10:44:33Z</time>
      </trkpt>
      <trkpt lat="43.73643" lon="3.54629">
        <ele>116.061</ele>
        <time>2013-03-02T10:44:43Z</time>
      </trkpt>
      <trkpt lat="43.73681" lon="3.54655">
        <ele>117.077</ele>
        <time>2013-03-02T10:44:47Z</time>
      </trkpt>
      <trkpt lat="43.73681" lon="3.54655">
        <ele>119.478</ele>
        <time>2013-03-02T10:44:58Z</time>
      </trkpt>
      <trkpt lat="43.73681" lon="3.54655">
        <ele>121.597</ele>
        <time>2013-03-02T10:45:03Z</time>
      </trkpt>
      <trkpt lat="43.73681" lon="3.54655">
        <ele>122.694</ele>
        <time>2013-03-02T10:45:13Z</time>
      </trkpt>
      <trkpt lat="43.73681" lon="3.54655">
        <ele>122.555</ele>
        <time>2013-03-02T10:45:16Z</time>
      </trkpt>
      <trkpt lat="43.73645" lon="3.54569">
        <ele>124.319</ele>
        <time>2013-03-02T10:45:26Z</time>
      </trkpt>
      <trkpt lat="43.73645" lon="3.54569">
        <ele>124.959</ele>
        <time>2013-03-02T10:45:28Z</time>
      </trkpt>
      <trkpt lat="43.73645" lon="3.54569">
        <ele>127.584</ele>
        <time>2013-03-02T10:45:40Z</time>
      </trkpt>
      <trkpt lat="43.73645" lon="3.54569">
        <ele>129.611</ele>
        <time>2013-03-02T10:45:48Z</time>
      </trkpt>
      <trkpt lat="43.73639" lon="3.54542">
        <ele>130.386</ele>
        <time>2013-03-02T10:45:59Z</time>
      </trkpt>
      <trkpt lat="43.73639" lon="3.54542">
        <ele>130.726</ele>
        <time>2013-03-02T10:46:02Z</time>
      </trkpt>
      <trkpt lat="43.73642" lon="3.54524">
        <ele>132.905</ele>
        <time>2013-03-02T10:46:11Z</time>
      </trkpt>
      <trkpt lat="43.73644" lon="3.54515">
        <ele>133.667</ele>
        <time>2013-03-02T10:46:20Z</time>
      </trkpt>
      <trkpt lat="43.7364" lon="3.54501">
        <ele>135.508</ele>
        <time>2013-03-02T10:46:30Z</time>
      </trkpt>
      <trkpt lat="43.7364" lon="3.54495">
        <ele>135.752</ele>
        <time>2013-03-02T10:46:34Z</time>
      </trkpt>
      <trkpt lat="43.73645" lon="3.54486">
        <ele>136.329</ele>
        <time>2013-03-02T10:46:41Z</time>
      </trkpt>
      <trkpt lat="43.73643" lon="3.54484">
        <ele>137.128</ele>
        <time>2013-03-02T10:46:44Z</time>
      </trkpt>
      <trkpt lat="43.7365" lon="3.5447">
        <ele>138.787</ele>
        <time>2013-03-02T10:46:55Z</time>
      </trkpt>
      <trkpt lat="43.73653" lon="3.54461">
        <ele>139.313</ele>
        <time>2013-03-02T10:47:03Z</time>
      </trkpt>
      <trkpt lat="43.73652" lon="3.54451">
        <ele>140.008</ele>
        <time>2013-03-02T10:47:10Z</time>
      </trkpt>
      <trkpt lat="43.73652" lon="3.54438">
        <ele>141.709</ele>
        <time>2013-03-02T10:47:21Z</time>
      </trkpt>
      <trkpt lat="43.7365" lon="3.54422">
        <ele>142.946</ele>
        <time>2013-03-02T10:47:33Z</time>
      </trkpt>
      <trkpt lat="43.73654" lon="3.54419">
        <ele>142.863</ele>
        <time>2013-03-02T10:47:36Z</time>
      </trkpt>
      <trkpt lat="43.73655" lon="3.54406">
        <ele>145.174</ele>
        <time>2013-03-02T10:47:48Z</time>
      </trkpt>
      <trkpt lat="43.73651" lon="3.54406">
        <ele>145.476</ele>
        <time>2013-03-02T10:47:51Z</time>
      </trkpt>
      <trkpt lat="43.73645" lon="3.54419">
        <ele>147.177</ele>
        <time>2013-03-02T10:48:03Z</time>
      </trkpt>
      <trkpt lat="43.73637" lon="3.54428">
        <ele>148.09</ele>
        <time>2013-03-02T10:48:12Z</time>
      </trkpt>
      <trkpt lat="43.73631" lon="3.54436">
        <ele>148.411</ele>
        <time>2013-03-02T10:48:24Z</time>
      </trkpt>
      <trkpt lat="43.7363" lon="3.54436">
        <ele>148.595</ele>
        <time>2013-03-02T10:48:25Z</time>
      </trkpt>
      <trkpt lat="43.73626" lon="3.5444">
        <ele>149.706</ele>
        <time>2013-03-02T10:48:30Z</time>
      </trkpt>
      <trkpt lat="43.73623" lon="3.54442">
        <ele>149.788</ele>
        <time>2013-03-02T10:48:34Z</time>
      </trkpt>
      <trkpt lat="43.73625" lon="3.54454">
        <ele>151.302</ele>
        <time>2013-03-02T10:48:44Z</time>
      </trkpt>
      <trkpt lat="43.73624" lon="3.54462">
        <ele>151.912</ele>
        <time>2013-03-02T10:48:52Z</time>
      </trkpt>
      <trkpt lat="43.73615" lon="3.54477">
        <ele>153.934</ele>
        <time>2013-03-02T10:49:09Z</time>
      </trkpt>
      <trkpt lat="43.73615" lon="3.5446">
        <ele>155.551</ele>
        <time>2013-03-02T10:49:28Z</time>
      </trkpt>
      <trkpt lat="43.73619" lon="3.54451">
        <ele>157.472</ele>
        <time>2013-03-02T10:49:36Z</time>
      </trkpt>
      <trkpt lat="43.73618" lon="3.54445">
        <ele>159.244</ele>
        <time>2013-03-02T10:49:41Z</time>
      </trkpt>
      <trkpt lat="43.73618" lon="3.54437">
        <ele>160.257</ele>
        <time>2013-03-02T10:49:46Z</time>
      </trkpt>
      <trkpt lat="43.73619" lon="3.54422">
        <ele>160.965</ele>
        <time>2013-03-02T10:49:57Z</time>
      </trkpt>
      <trkpt lat="43.73621" lon="3.54418">
        <ele>162.15</ele>
        <time>2013-03-02T10:50:00Z</time>
      </trkpt>
      <trkpt lat="43.73622" lon="3.54414">
        <ele>161.579</ele>
        <time>2013-03-02T10:50:03Z</time>
      </trkpt>
      <trkpt lat="43.73621" lon="3.54401">
        <ele>162.648</ele>
        <time>2013-03-02T10:50:14Z</time>
      </trkpt>
      <trkpt lat="43.7362" lon="3.54396">
        <ele>162.669</ele>
        <time>2013-03-02T10:50:31Z</time>
      </trkpt>
      <trkpt lat="43.73615" lon="3.54389">
        <ele>164.217</ele>
        <time>2013-03-02T10:50:42Z</time>
      </trkpt>
      <trkpt lat="43.73609" lon="3.54377">
        <ele>164.782</ele>
        <time>2013-03-02T10:50:50Z</time>
      </trkpt>
      <trkpt lat="43.73617" lon="3.54368">
        <ele>165.582</ele>
        <time>2013-03-02T10:51:01Z</time>
      </trkpt>
      <trkpt lat="43.73615" lon="3.54361">
        <ele>166.045</ele>
        <time>2013-03-02T10:51:09Z</time>
      </trkpt>
      <trkpt lat="43.73617" lon="3.54355">
        <ele>166.652</ele>
        <time>2013-03-02T10:51:14Z</time>
      </trkpt>
      <trkpt lat="43.73621" lon="3.54344">
        <ele>167.719</ele>
        <time>2013-03-02T10:51:24Z</time>
      </trkpt>
      <trkpt lat="43.73621" lon="3.5433">
        <ele>168.824</ele>
        <time>2013-03-02T10:51:35Z</time>
      </trkpt>
      <trkpt lat="43.73627" lon="3.54314">
        <ele>171.668</ele>
        <time>2013-03-02T10:51:51Z</time>
      </trkpt>
      <trkpt lat="43.73627" lon="3.54312">
        <ele>171.653</ele>
        <time>2013-03-02T10:51:53Z</time>
      </trkpt>
      <trkpt lat="43.73635" lon="3.54303">
        <ele>172.279</ele>
        <time>2013-03-02T10:52:04Z</time>
      </trkpt>
      <trkpt lat="43.73639" lon="3.54294">
        <ele>173.744</ele>
        <time>2013-03-02T10:52:14Z</time>
      </trkpt>
      <trkpt lat="43.73644" lon="3.54282">
        <ele>174.291</ele>
        <time>2013-03-02T10:52:27Z</time>
      </trkpt>
      <trkpt lat="43.73644" lon="3.54265">
        <ele>176.767</ele>
        <time>2013-03-02T10:52:45Z</time>
      </trkpt>
      <trkpt lat="43.73634" lon="3.54246">
        <ele>177.727</ele>
        <time>2013-03-02T10:52:58Z</time>
      </trkpt>
      <trkpt lat="43.73636" lon="3.5423">
        <ele>178.957</ele>
        <time>2013-03-02T10:53:11Z</time>
      </trkpt>
      <trkpt lat="43.7363" lon="3.54212">
        <ele>179.745</ele>
        <time>2013-03-02T10:53:27Z</time>
      </trkpt>
      <trkpt lat="43.73628" lon="3.54206">
        <ele>180.426</ele>
        <time>2013-03-02T10:53:33Z</time>
      </trkpt>
      <trkpt lat="43.73622" lon="3.5419">
        <ele>181.58</ele>
        <time>2013-03-02T10:53:48Z</time>
      </trkpt>
      <trkpt lat="43.73628" lon="3.54179">
        <ele>183.835</ele>
        <time>2013-03-02T10:54:09Z</time>
      </trkpt>
      <trkpt lat="43.73626" lon="3.54167">
        <ele>185.278</ele>
        <time>2013-03-02T10:54:19Z</time>
      </trkpt>
      <trkpt lat="43.73623" lon="3.54156">
        <ele>187.141</ele>
        <time>2013-03-02T10:54:32Z</time>
      </trkpt>
      <trkpt lat="43.73617" lon="3.54144">
        <ele>187.389</ele>
        <time>2013-03-02T10:54:48Z</time>
      </trkpt>
      <trkpt lat="43.73614" lon="3.54154">
        <ele>188.631</ele>
        <time>2013-03-02T10:54:59Z</time>
      </trkpt>
      <trkpt lat="43.73615" lon="3.54163">
        <ele>189.733</ele>
        <time>2013-03-02T10:55:10Z</time>
      </trkpt>
      <trkpt lat="43.7361" lon="3.5417">
        <ele>191.099</ele>
        <time>2013-03-02T10:55:18Z</time>
      </trkpt>
      <trkpt lat="43.73611" lon="3.54171">
        <ele>190.8</ele>
        <time>2013-03-02T10:55:19Z</time>
      </trkpt>
      <trkpt lat="43.73607" lon="3.54172">
        <ele>190.823</ele>
        <time>2013-03-02T10:55:21Z</time>
      </trkpt>
      <trkpt lat="43.73609" lon="3.54175">
        <ele>190.83</ele>
        <time>2013-03-02T10:55:23Z</time>
      </trkpt>
      <trkpt lat="43.73604" lon="3.54186">
        <ele>191.486</ele>
        <time>2013-03-02T10:55:33Z</time>
      </trkpt>
      <trkpt lat="43.73605" lon="3.5419">
        <ele>190.923</ele>
        <time>2013-03-02T10:55:37Z</time>
      </trkpt>
      <trkpt lat="43.73606" lon="3.54203">
        <ele>191.917</ele>
        <time>2013-03-02T10:55:46Z</time>
      </trkpt>
      <trkpt lat="43.73608" lon="3.54214">
        <ele>193.933</ele>
        <time>2013-03-02T10:56:00Z</time>
      </trkpt>
      <trkpt lat="43.73615" lon="3.54229">
        <ele>194.824</ele>
        <time>2013-03-02T10:56:13Z</time>
      </trkpt>
      <trkpt lat="43.73609" lon="3.54238">
        <ele>196.074</ele>
        <time>2013-03-02T10:56:44Z</time>
      </trkpt>
      <trkpt lat="43.73608" lon="3.54241">
        <ele>196.153</ele>
        <time>2013-03-02T10:56:48Z</time>
      </trkpt>
      <trkpt lat="43.73604" lon="3.54251">
        <ele>197.243</ele>
        <time>2013-03-02T10:56:59Z</time>
      </trkpt>
      <trkpt lat="43.736" lon="3.54259">
        <ele>198.776</ele>
        <time>2013-03-02T10:57:06Z</time>
      </trkpt>
      <trkpt lat="43.73599" lon="3.54252">
        <ele>199.682</ele>
        <time>2013-03-02T10:57:19Z</time>
      </trkpt>
      <trkpt lat="43.73601" lon="3.54236">
        <ele>203.096</ele>
        <time>2013-03-02T10:57:37Z</time>
      </trkpt>
      <trkpt lat="43.73596" lon="3.54229">
        <ele>203.181</ele>
        <time>2013-03-02T10:57:47Z</time>
      </trkpt>
      <trkpt lat="43.73594" lon="3.54228">
        <ele>203.183</ele>
        <time>2013-03-02T10:57:48Z</time>
      </trkpt>
      <trkpt lat="43.73589" lon="3.54216">
        <ele>204.466</ele>
        <time>2013-03-02T10:58:02Z</time>
      </trkpt>
      <trkpt lat="43.73586" lon="3.54205">
        <ele>207.078</ele>
        <time>2013-03-02T10:58:13Z</time>
      </trkpt>
      <trkpt lat="43.73572" lon="3.5419">
        <ele>208.07</ele>
        <time>2013-03-02T10:58:32Z</time>
      </trkpt>
      <trkpt lat="43.73555" lon="3.54174">
        <ele>211.118</ele>
        <time>2013-03-02T10:58:53Z</time>
      </trkpt>
      <trkpt lat="43.73547" lon="3.54162">
        <ele>212.74</ele>
        <time>2013-03-02T10:59:04Z</time>
      </trkpt>
      <trkpt lat="43.73558" lon="3.54154">
        <ele>213.715</ele>
        <time>2013-03-02T10:59:16Z</time>
      </trkpt>
      <trkpt lat="43.73559" lon="3.54141">
        <ele>215.36</ele>
        <time>2013-03-02T10:59:34Z</time>
      </trkpt>
      <trkpt lat="43.73544" lon="3.54132">
        <ele>216.657</ele>
        <time>2013-03-02T10:59:49Z</time>
      </trkpt>
      <trkpt lat="43.73546" lon="3.54127">
        <ele>218.033</ele>
        <time>2013-03-02T10:59:57Z</time>
      </trkpt>
      <trkpt lat="43.73533" lon="3.54125">
        <ele>219.73</ele>
        <time>2013-03-02T11:00:09Z</time>
      </trkpt>
      <trkpt lat="43.73533" lon="3.54125">
        <ele>219.778</ele>
        <time>2013-03-02T11:00:10Z</time>
      </trkpt>
      <trkpt lat="43.73531" lon="3.54116">
        <ele>221.346</ele>
        <time>2013-03-02T11:00:21Z</time>
      </trkpt>
      <trkpt lat="43.73529" lon="3.54105">
        <ele>222.183</ele>
        <time>2013-03-02T11:00:34Z</time>
      </trkpt>
      <trkpt lat="43.73537" lon="3.5409">
        <ele>222.935</ele>
        <time>2013-03-02T11:01:09Z</time>
      </trkpt>
      <trkpt lat="43.73532" lon="3.54079">
        <ele>222.82</ele>
        <time>2013-03-02T11:01:18Z</time>
      </trkpt>
      <trkpt lat="43.73528" lon="3.54062">
        <ele>223.781</ele>
        <time>2013-03-02T11:01:29Z</time>
      </trkpt>
      <trkpt lat="43.73526" lon="3.54059">
        <ele>223.994</ele>
        <time>2013-03-02T11:01:32Z</time>
      </trkpt>
      <trkpt lat="43.7353" lon="3.54048">
        <ele>225.3</ele>
        <time>2013-03-02T11:01:43Z</time>
      </trkpt>
      <trkpt lat="43.73532" lon="3.54036">
        <ele>225.683</ele>
        <time>2013-03-02T11:01:52Z</time>
      </trkpt>
      <trkpt lat="43.73525" lon="3.54024">
        <ele>227.694</ele>
        <time>2013-03-02T11:02:07Z</time>
      </trkpt>
      <trkpt lat="43.73521" lon="3.54015">
        <ele>230.061</ele>
        <time>2013-03-02T11:02:17Z</time>
      </trkpt>
      <trkpt lat="43.73521" lon="3.54007">
        <ele>230.352</ele>
        <time>2013-03-02T11:02:27Z</time>
      </trkpt>
      <trkpt lat="43.73521" lon="3.54003">
        <ele>232.88</ele>
        <time>2013-03-02T11:02:32Z</time>
      </trkpt>
      <trkpt lat="43.73516" lon="3.53994">
        <ele>234.541</ele>
        <time>2013-03-02T11:02:38Z</time>
      </trkpt>
      <trkpt lat="43.7351" lon="3.53993">
        <ele>235.017</ele>
        <time>2013-03-02T11:02:43Z</time>
      </trkpt>
      <trkpt lat="43.73511" lon="3.53987">
        <ele>235.904</ele>
        <time>2013-03-02T11:02:58Z</time>
      </trkpt>
      <trkpt lat="43.73511" lon="3.53986">
        <ele>235.919</ele>
        <time>2013-03-02T11:02:59Z</time>
      </trkpt>
      <trkpt lat="43.73524" lon="3.53987">
        <ele>235.045</ele>
        <time>2013-03-02T11:03:11Z</time>
      </trkpt>
      <trkpt lat="43.73527" lon="3.53989">
        <ele>235.322</ele>
        <time>2013-03-02T11:03:15Z</time>
      </trkpt>
      <trkpt lat="43.73543" lon="3.53981">
        <ele>235.749</ele>
        <time>2013-03-02T11:03:28Z</time>
      </trkpt>
      <trkpt lat="43.73547" lon="3.53982">
        <ele>235.89</ele>
        <time>2013-03-02T11:03:34Z</time>
      </trkpt>
      <trkpt lat="43.73558" lon="3.53979">
        <ele>236.157</ele>
        <time>2013-03-02T11:03:45Z</time>
      </trkpt>
      <trkpt lat="43.73572" lon="3.53971">
        <ele>237.357</ele>
        <time>2013-03-02T11:04:00Z</time>
      </trkpt>
      <trkpt lat="43.73578" lon="3.53964">
        <ele>238.799</ele>
        <time>2013-03-02T11:04:08Z</time>
      </trkpt>
      <trkpt lat="43.73576" lon="3.53967">
        <ele>238.7</ele>
        <time>2013-03-02T11:04:31Z</time>
      </trkpt>
      <trkpt lat="43.73573" lon="3.53966">
        <ele>238.48</ele>
        <time>2013-03-02T11:04:44Z</time>
      </trkpt>
      <trkpt lat="43.73575" lon="3.53964">
        <ele>239.595</ele>
        <time>2013-03-02T11:04:51Z</time>
      </trkpt>
      <trkpt lat="43.73582" lon="3.53957">
        <ele>239.878</ele>
        <time>2013-03-02T11:05:00Z</time>
      </trkpt>
      <trkpt lat="43.73582" lon="3.53956">
        <ele>240.095</ele>
        <time>2013-03-02T11:05:01Z</time>
      </trkpt>
      <trkpt lat="43.73588" lon="3.53952">
        <ele>240.76</ele>
        <time>2013-03-02T11:05:06Z</time>
      </trkpt>
      <trkpt lat="43.73596" lon="3.5394">
        <ele>242.09</ele>
        <time>2013-03-02T11:05:17Z</time>
      </trkpt>
      <trkpt lat="43.73599" lon="3.53933">
        <ele>242.187</ele>
        <time>2013-03-02T11:05:22Z</time>
      </trkpt>
      <trkpt lat="43.73598" lon="3.53918">
        <ele>243.641</ele>
        <time>2013-03-02T11:05:32Z</time>
      </trkpt>
      <trkpt lat="43.73601" lon="3.53919">
        <ele>243.444</ele>
        <time>2013-03-02T11:05:34Z</time>
      </trkpt>
      <trkpt lat="43.73614" lon="3.53913">
        <ele>243.382</ele>
        <time>2013-03-02T11:05:48Z</time>
      </trkpt>
      <trkpt lat="43.73615" lon="3.53908">
        <ele>243.402</ele>
        <time>2013-03-02T11:05:52Z</time>
      </trkpt>
      <trkpt lat="43.73624" lon="3.53894">
        <ele>243.908</ele>
        <time>2013-03-02T11:06:05Z</time>
      </trkpt>
      <trkpt lat="43.73628" lon="3.5388">
        <ele>244.454</ele>
        <time>2013-03-02T11:06:15Z</time>
      </trkpt>
      <trkpt lat="43.73632" lon="3.53865">
        <ele>243.825</ele>
        <time>2013-03-02T11:06:25Z</time>
      </trkpt>
      <trkpt lat="43.73633" lon="3.53859">
        <ele>243.297</ele>
        <time>2013-03-02T11:06:29Z</time>
      </trkpt>
      <trkpt lat="43.73638" lon="3.53834">
        <ele>243.134</ele>
        <time>2013-03-02T11:06:44Z</time>
      </trkpt>
      <trkpt lat="43.73635" lon="3.53813">
        <ele>245.13</ele>
        <time>2013-03-02T11:06:58Z</time>
      </trkpt>
      <trkpt lat="43.73638" lon="3.53804">
        <ele>245.35</ele>
        <time>2013-03-02T11:07:08Z</time>
      </trkpt>
      <trkpt lat="43.73649" lon="3.53803">
        <ele>244.629</ele>
        <time>2013-03-02T11:07:26Z</time>
      </trkpt>
      <trkpt lat="43.73658" lon="3.53803">
        <ele>244.801</ele>
        <time>2013-03-02T11:07:41Z</time>
      </trkpt>
      <trkpt lat="43.73642" lon="3.53779">
        <ele>246.519</ele>
        <time>2013-03-02T11:08:05Z</time>
      </trkpt>
      <trkpt lat="43.73645" lon="3.53775">
        <ele>247.249</ele>
        <time>2013-03-02T11:08:13Z</time>
      </trkpt>
      <trkpt lat="43.7364" lon="3.53759">
        <ele>248.145</ele>
        <time>2013-03-02T11:08:24Z</time>
      </trkpt>
      <trkpt lat="43.73636" lon="3.53751">
        <ele>249.794</ele>
        <time>2013-03-02T11:08:30Z</time>
      </trkpt>
      <trkpt lat="43.73635" lon="3.53741">
        <ele>250.309</ele>
        <time>2013-03-02T11:08:36Z</time>
      </trkpt>
      <trkpt lat="43.73631" lon="3.53727">
        <ele>251.652</ele>
        <time>2013-03-02T11:08:47Z</time>
      </trkpt>
      <trkpt lat="43.73631" lon="3.53725">
        <ele>251.73</ele>
        <time>2013-03-02T11:08:48Z</time>
      </trkpt>
      <trkpt lat="43.73625" lon="3.53709">
        <ele>253.491</ele>
        <time>2013-03-02T11:08:58Z</time>
      </trkpt>
      <trkpt lat="43.73626" lon="3.53689">
        <ele>255.391</ele>
        <time>2013-03-02T11:09:11Z</time>
      </trkpt>
      <trkpt lat="43.73625" lon="3.53676">
        <ele>256.824</ele>
        <time>2013-03-02T11:09:21Z</time>
      </trkpt>
      <trkpt lat="43.73623" lon="3.53666">
        <ele>258.495</ele>
        <time>2013-03-02T11:09:29Z</time>
      </trkpt>
      <trkpt lat="43.73621" lon="3.53649">
        <ele>260.163</ele>
        <time>2013-03-02T11:09:41Z</time>
      </trkpt>
      <trkpt lat="43.73614" lon="3.53629">
        <ele>263.463</ele>
        <time>2013-03-02T11:09:53Z</time>
      </trkpt>
      <trkpt lat="43.73614" lon="3.53625">
        <ele>263.247</ele>
        <time>2013-03-02T11:09:56Z</time>
      </trkpt>
      <trkpt lat="43.73614" lon="3.53611">
        <ele>263.727</ele>
        <time>2013-03-02T11:10:05Z</time>
      </trkpt>
      <trkpt lat="43.7361" lon="3.536">
        <ele>264.105</ele>
        <time>2013-03-02T11:10:12Z</time>
      </trkpt>
      <trkpt lat="43.73611" lon="3.53591">
        <ele>264.848</ele>
        <time>2013-03-02T11:10:17Z</time>
      </trkpt>
      <trkpt lat="43.73609" lon="3.53585">
        <ele>264.631</ele>
        <time>2013-03-02T11:10:26Z</time>
      </trkpt>
      <trkpt lat="43.73604" lon="3.5358">
        <ele>264.779</ele>
        <time>2013-03-02T11:10:34Z</time>
      </trkpt>
      <trkpt lat="43.73597" lon="3.53574">
        <ele>265.638</ele>
        <time>2013-03-02T11:10:40Z</time>
      </trkpt>
      <trkpt lat="43.73596" lon="3.53572">
        <ele>266.148</ele>
        <time>2013-03-02T11:10:41Z</time>
      </trkpt>
      <trkpt lat="43.73597" lon="3.53565">
        <ele>265.638</ele>
        <time>2013-03-02T11:10:45Z</time>
      </trkpt>
      <trkpt lat="43.73599" lon="3.53555">
        <ele>265.064</ele>
        <time>2013-03-02T11:10:51Z</time>
      </trkpt>
      <trkpt lat="43.73597" lon="3.53544">
        <ele>266.076</ele>
        <time>2013-03-02T11:10:57Z</time>
      </trkpt>
      <trkpt lat="43.73598" lon="3.53543">
        <ele>265.791</ele>
        <time>2013-03-02T11:10:58Z</time>
      </trkpt>
      <trkpt lat="43.73599" lon="3.53531">
        <ele>267.188</ele>
        <time>2013-03-02T11:11:07Z</time>
      </trkpt>
      <trkpt lat="43.73597" lon="3.53525">
        <ele>267.583</ele>
        <time>2013-03-02T11:11:12Z</time>
      </trkpt>
      <trkpt lat="43.73596" lon="3.5352">
        <ele>269.28</ele>
        <time>2013-03-02T11:11:18Z</time>
      </trkpt>
      <trkpt lat="43.73591" lon="3.53504">
        <ele>268.744</ele>
        <time>2013-03-02T11:11:29Z</time>
      </trkpt>
      <trkpt lat="43.73589" lon="3.53495">
        <ele>269.998</ele>
        <time>2013-03-02T11:11:38Z</time>
      </trkpt>
      <trkpt lat="43.73598" lon="3.53477">
        <ele>271.272</ele>
        <time>2013-03-02T11:11:50Z</time>
      </trkpt>
      <trkpt lat="43.73598" lon="3.53467">
        <ele>270.929</ele>
        <time>2013-03-02T11:11:57Z</time>
      </trkpt>
      <trkpt lat="43.73604" lon="3.53448">
        <ele>270.771</ele>
        <time>2013-03-02T11:12:08Z</time>
      </trkpt>
      <trkpt lat="43.73603" lon="3.53441">
        <ele>270.353</ele>
        <time>2013-03-02T11:12:20Z</time>
      </trkpt>
      <trkpt lat="43.73605" lon="3.53422">
        <ele>270.388</ele>
        <time>2013-03-02T11:12:33Z</time>
      </trkpt>
      <trkpt lat="43.73605" lon="3.53421">
        <ele>270.322</ele>
        <time>2013-03-02T11:12:34Z</time>
      </trkpt>
      <trkpt lat="43.73599" lon="3.53397">
        <ele>270.268</ele>
        <time>2013-03-02T11:12:48Z</time>
      </trkpt>
      <trkpt lat="43.73601" lon="3.53385">
        <ele>270.322</ele>
        <time>2013-03-02T11:12:56Z</time>
      </trkpt>
      <trkpt lat="43.73604" lon="3.53379">
        <ele>271.42</ele>
        <time>2013-03-02T11:13:02Z</time>
      </trkpt>
      <trkpt lat="43.73614" lon="3.5336">
        <ele>272.404</ele>
        <time>2013-03-02T11:13:13Z</time>
      </trkpt>
      <trkpt lat="43.73615" lon="3.53344">
        <ele>273.572</ele>
        <time>2013-03-02T11:13:24Z</time>
      </trkpt>
      <trkpt lat="43.73618" lon="3.53333">
        <ele>274.221</ele>
        <time>2013-03-02T11:13:32Z</time>
      </trkpt>
      <trkpt lat="43.7362" lon="3.53324">
        <ele>275.504</ele>
        <time>2013-03-02T11:13:38Z</time>
      </trkpt>
      <trkpt lat="43.73627" lon="3.53314">
        <ele>276.229</ele>
        <time>2013-03-02T11:13:45Z</time>
      </trkpt>
      <trkpt lat="43.73633" lon="3.53302">
        <ele>277.36</ele>
        <time>2013-03-02T11:13:56Z</time>
      </trkpt>
      <trkpt lat="43.73635" lon="3.53294">
        <ele>279.103</ele>
        <time>2013-03-02T11:14:02Z</time>
      </trkpt>
      <trkpt lat="43.73637" lon="3.53279">
        <ele>280.868</ele>
        <time>2013-03-02T11:14:12Z</time>
      </trkpt>
      <trkpt lat="43.73642" lon="3.53261">
        <ele>283.391</ele>
        <time>2013-03-02T11:14:24Z</time>
      </trkpt>
      <trkpt lat="43.73642" lon="3.53258">
        <ele>283.694</ele>
        <time>2013-03-02T11:14:26Z</time>
      </trkpt>
      <trkpt lat="43.73641" lon="3.53245">
        <ele>284.668</ele>
        <time>2013-03-02T11:14:35Z</time>
      </trkpt>
      <trkpt lat="43.73645" lon="3.53235">
        <ele>285.104</ele>
        <time>2013-03-02T11:14:44Z</time>
      </trkpt>
      <trkpt lat="43.73643" lon="3.53223">
        <ele>287.912</ele>
        <time>2013-03-02T11:14:52Z</time>
      </trkpt>
      <trkpt lat="43.73644" lon="3.53222">
        <ele>287.544</ele>
        <time>2013-03-02T11:14:53Z</time>
      </trkpt>
      <trkpt lat="43.73644" lon="3.53214">
        <ele>288.839</ele>
        <time>2013-03-02T11:14:59Z</time>
      </trkpt>
      <trkpt lat="43.73646" lon="3.53198">
        <ele>290.277</ele>
        <time>2013-03-02T11:15:13Z</time>
      </trkpt>
      <trkpt lat="43.73647" lon="3.53195">
        <ele>289.9</ele>
        <time>2013-03-02T11:15:15Z</time>
      </trkpt>
      <trkpt lat="43.73649" lon="3.53178">
        <ele>290.856</ele>
        <time>2013-03-02T11:15:26Z</time>
      </trkpt>
      <trkpt lat="43.73649" lon="3.53162">
        <ele>291.608</ele>
        <time>2013-03-02T11:15:38Z</time>
      </trkpt>
      <trkpt lat="43.73655" lon="3.53148">
        <ele>292.343</ele>
        <time>2013-03-02T11:15:48Z</time>
      </trkpt>
      <trkpt lat="43.73659" lon="3.53132">
        <ele>292.6</ele>
        <time>2013-03-02T11:16:00Z</time>
      </trkpt>
      <trkpt lat="43.73662" lon="3.53121">
        <ele>293.031</ele>
        <time>2013-03-02T11:16:08Z</time>
      </trkpt>
      <trkpt lat="43.73666" lon="3.53117">
        <ele>293.693</ele>
        <time>2013-03-02T11:16:13Z</time>
      </trkpt>
      <trkpt lat="43.73678" lon="3.53113">
        <ele>294.477</ele>
        <time>2013-03-02T11:16:25Z</time>
      </trkpt>
      <trkpt lat="43.73681" lon="3.5311">
        <ele>294.9</ele>
        <time>2013-03-02T11:16:28Z</time>
      </trkpt>
      <trkpt lat="43.73683" lon="3.53097">
        <ele>296.677</ele>
        <time>2013-03-02T11:16:38Z</time>
      </trkpt>
      <trkpt lat="43.73684" lon="3.53088">
        <ele>297.207</ele>
        <time>2013-03-02T11:16:55Z</time>
      </trkpt>
      <trkpt lat="43.73685" lon="3.53088">
        <ele>296.932</ele>
        <time>2013-03-02T11:16:56Z</time>
      </trkpt>
      <trkpt lat="43.73693" lon="3.53085">
        <ele>298.331</ele>
        <time>2013-03-02T11:17:08Z</time>
      </trkpt>
      <trkpt lat="43.73699" lon="3.53086">
        <ele>299.959</ele>
        <time>2013-03-02T11:17:19Z</time>
      </trkpt>
      <trkpt lat="43.73706" lon="3.53078">
        <ele>299.753</ele>
        <time>2013-03-02T11:17:25Z</time>
      </trkpt>
      <trkpt lat="43.73709" lon="3.53066">
        <ele>299.626</ele>
        <time>2013-03-02T11:17:32Z</time>
      </trkpt>
      <trkpt lat="43.73719" lon="3.53071">
        <ele>299.683</ele>
        <time>2013-03-02T11:17:43Z</time>
      </trkpt>
      <trkpt lat="43.73736" lon="3.53071">
        <ele>300.514</ele>
        <time>2013-03-02T11:17:55Z</time>
      </trkpt>
      <trkpt lat="43.73748" lon="3.53076">
        <ele>301.746</ele>
        <time>2013-03-02T11:18:05Z</time>
      </trkpt>
      <trkpt lat="43.73756" lon="3.5305">
        <ele>304.046</ele>
        <time>2013-03-02T11:18:13Z</time>
      </trkpt>
      <trkpt lat="43.73763" lon="3.53033">
        <ele>307.12</ele>
        <time>2013-03-02T11:18:22Z</time>
      </trkpt>
      <trkpt lat="43.73765" lon="3.53029">
        <ele>308.599</ele>
        <time>2013-03-02T11:18:31Z</time>
      </trkpt>
      <trkpt lat="43.73764" lon="3.53022">
        <ele>309.566</ele>
        <time>2013-03-02T11:18:49Z</time>
      </trkpt>
      <trkpt lat="43.73771" lon="3.53017">
        <ele>313.124</ele>
        <time>2013-03-02T11:19:01Z</time>
      </trkpt>
      <trkpt lat="43.73773" lon="3.53012">
        <ele>313.618</ele>
        <time>2013-03-02T11:19:08Z</time>
      </trkpt>
      <trkpt lat="43.73777" lon="3.53018">
        <ele>316.585</ele>
        <time>2013-03-02T11:19:16Z</time>
      </trkpt>
      <trkpt lat="43.73793" lon="3.53008">
        <ele>317.987</ele>
        <time>2013-03-02T11:19:36Z</time>
      </trkpt>
      <trkpt lat="43.73794" lon="3.53008">
        <ele>318.226</ele>
        <time>2013-03-02T11:19:37Z</time>
      </trkpt>
      <trkpt lat="43.73795" lon="3.5301">
        <ele>318.59</ele>
        <time>2013-03-02T11:19:39Z</time>
      </trkpt>
      <trkpt lat="43.7381" lon="3.53015">
        <ele>320.326</ele>
        <time>2013-03-02T11:19:50Z</time>
      </trkpt>
      <trkpt lat="43.73818" lon="3.53018">
        <ele>322.352</ele>
        <time>2013-03-02T11:20:18Z</time>
      </trkpt>
      <trkpt lat="43.73792" lon="3.53022">
        <ele>323.172</ele>
        <time>2013-03-02T11:20:25Z</time>
      </trkpt>
      <trkpt lat="43.73785" lon="3.53019">
        <ele>324.766</ele>
        <time>2013-03-02T11:20:31Z</time>
      </trkpt>
      <trkpt lat="43.73792" lon="3.5301">
        <ele>327.891</ele>
        <time>2013-03-02T11:20:51Z</time>
      </trkpt>
      <trkpt lat="43.7379" lon="3.53012">
        <ele>331.213</ele>
        <time>2013-03-02T11:21:06Z</time>
      </trkpt>
      <trkpt lat="43.73804" lon="3.53011">
        <ele>334.442</ele>
        <time>2013-03-02T11:21:20Z</time>
      </trkpt>
      <trkpt lat="43.73813" lon="3.53003">
        <ele>337.774</ele>
        <time>2013-03-02T11:21:33Z</time>
      </trkpt>
      <trkpt lat="43.73808" lon="3.52997">
        <ele>339.33</ele>
        <time>2013-03-02T11:21:45Z</time>
      </trkpt>
      <trkpt lat="43.73809" lon="3.52997">
        <ele>339.617</ele>
        <time>2013-03-02T11:21:46Z</time>
      </trkpt>
      <trkpt lat="43.738" lon="3.53003">
        <ele>342.107</ele>
        <time>2013-03-02T11:22:18Z</time>
      </trkpt>
      <trkpt lat="43.73796" lon="3.53001">
        <ele>341.935</ele>
        <time>2013-03-02T11:22:23Z</time>
      </trkpt>
      <trkpt lat="43.73794" lon="3.53005">
        <ele>341.704</ele>
        <time>2013-03-02T11:22:27Z</time>
      </trkpt>
      <trkpt lat="43.73785" lon="3.53017">
        <ele>341.444</ele>
        <time>2013-03-02T11:22:37Z</time>
      </trkpt>
      <trkpt lat="43.73778" lon="3.53016">
        <ele>342.651</ele>
        <time>2013-03-02T11:22:47Z</time>
      </trkpt>
      <trkpt lat="43.73763" lon="3.52996">
        <ele>345.408</ele>
        <time>2013-03-02T11:22:57Z</time>
      </trkpt>
      <trkpt lat="43.73762" lon="3.52984">
        <ele>348.33</ele>
        <time>2013-03-02T11:23:07Z</time>
      </trkpt>
      <trkpt lat="43.73755" lon="3.52978">
        <ele>351.363</ele>
        <time>2013-03-02T11:23:15Z</time>
      </trkpt>
      <trkpt lat="43.73766" lon="3.52974">
        <ele>352.661</ele>
        <time>2013-03-02T11:23:31Z</time>
      </trkpt>
      <trkpt lat="43.73767" lon="3.52974">
        <ele>353.581</ele>
        <time>2013-03-02T11:23:32Z</time>
      </trkpt>
      <trkpt lat="43.73776" lon="3.52982">
        <ele>356.739</ele>
        <time>2013-03-02T11:23:43Z</time>
      </trkpt>
      <trkpt lat="43.73776" lon="3.52983">
        <ele>357.355</ele>
        <time>2013-03-02T11:23:45Z</time>
      </trkpt>
      <trkpt lat="43.73777" lon="3.52983">
        <ele>357.955</ele>
        <time>2013-03-02T11:23:47Z</time>
      </trkpt>
      <trkpt lat="43.73786" lon="3.52975">
        <ele>358.797</ele>
        <time>2013-03-02T11:23:58Z</time>
      </trkpt>
      <trkpt lat="43.73793" lon="3.5298">
        <ele>357.785</ele>
        <time>2013-03-02T11:24:04Z</time>
      </trkpt>
      <trkpt lat="43.73801" lon="3.52982">
        <ele>357.309</ele>
        <time>2013-03-02T11:24:19Z</time>
      </trkpt>
      <trkpt lat="43.73811" lon="3.53003">
        <ele>356.134</ele>
        <time>2013-03-02T11:25:08Z</time>
      </trkpt>
      <trkpt lat="43.73804" lon="3.53021">
        <ele>356.622</ele>
        <time>2013-03-02T11:25:28Z</time>
      </trkpt>
      <trkpt lat="43.73801" lon="3.53027">
        <ele>357.92</ele>
        <time>2013-03-02T11:25:31Z</time>
      </trkpt>
      <trkpt lat="43.73797" lon="3.53039">
        <ele>356.959</ele>
        <time>2013-03-02T11:25:35Z</time>
      </trkpt>
      <trkpt lat="43.73793" lon="3.53043">
        <ele>358.354</ele>
        <time>2013-03-02T11:25:38Z</time>
      </trkpt>
      <trkpt lat="43.73796" lon="3.53039">
        <ele>359.387</ele>
        <time>2013-03-02T11:25:49Z</time>
      </trkpt>
      <trkpt lat="43.73815" lon="3.52999">
        <ele>360.495</ele>
        <time>2013-03-02T11:26:00Z</time>
      </trkpt>
      <trkpt lat="43.73829" lon="3.52996">
        <ele>361.85</ele>
        <time>2013-03-02T11:26:11Z</time>
      </trkpt>
      <trkpt lat="43.73831" lon="3.53001">
        <ele>363.714</ele>
        <time>2013-03-02T11:26:18Z</time>
      </trkpt>
      <trkpt lat="43.73831" lon="3.53014">
        <ele>365.462</ele>
        <time>2013-03-02T11:26:28Z</time>
      </trkpt>
      <trkpt lat="43.73827" lon="3.53029">
        <ele>365.79</ele>
        <time>2013-03-02T11:26:37Z</time>
      </trkpt>
      <trkpt lat="43.73829" lon="3.53037">
        <ele>365.271</ele>
        <time>2013-03-02T11:26:49Z</time>
      </trkpt>
      <trkpt lat="43.73831" lon="3.53046">
        <ele>365.967</ele>
        <time>2013-03-02T11:27:01Z</time>
      </trkpt>
      <trkpt lat="43.73833" lon="3.53044">
        <ele>365.586</ele>
        <time>2013-03-02T11:27:19Z</time>
      </trkpt>
      <trkpt lat="43.73833" lon="3.53044">
        <ele>365.814</ele>
        <time>2013-03-02T11:27:20Z</time>
      </trkpt>
      <trkpt lat="43.73834" lon="3.53044">
        <ele>364.467</ele>
        <time>2013-03-02T11:27:26Z</time>
      </trkpt>
      <trkpt lat="43.73834" lon="3.53041">
        <ele>359.399</ele>
        <time>2013-03-02T12:25:31Z</time>
      </trkpt>
      <trkpt lat="43.73834" lon="3.53041">
        <ele>358.908</ele>
        <time>2013-03-02T12:25:32Z</time>
      </trkpt>
      <trkpt lat="43.73834" lon="3.53041">
        <ele>360.421</ele>
        <time>2013-03-02T12:25:37Z</time>
      </trkpt>
      <trkpt lat="43.73834" lon="3.53041">
        <ele>358.82</ele>
        <time>2013-03-02T12:25:40Z</time>
      </trkpt>
      <trkpt lat="43.73834" lon="3.53041">
        <ele>360.099</ele>
        <time>2013-03-02T12:25:42Z</time>
      </trkpt>
      <trkpt lat="43.73834" lon="3.53041">
        <ele>356.268</ele>
        <time>2013-03-02T12:25:51Z</time>
      </trkpt>
      <trkpt lat="43.73834" lon="3.53041">
        <ele>359.716</ele>
        <time>2013-03-02T12:25:52Z</time>
      </trkpt>
      <trkpt lat="43.73834" lon="3.53041">
        <ele>363.378</ele>
        <time>2013-03-02T12:25:53Z</time>
      </trkpt>
      <trkpt lat="43.73834" lon="3.53041">
        <ele>359.166</ele>
        <time>2013-03-02T12:25:54Z</time>
      </trkpt>
      <trkpt lat="43.73834" lon="3.53041">
        <ele>359.36</ele>
        <time>2013-03-02T12:26:40Z</time>
      </trkpt>
      <trkpt lat="43.73835" lon="3.53041">
        <ele>357.674</ele>
        <time>2013-03-02T12:26:44Z</time>
      </trkpt>
      <trkpt lat="43.73838" lon="3.53038">
        <ele>359.448</ele>
        <time>2013-03-02T12:26:50Z</time>
      </trkpt>
      <trkpt lat="43.73838" lon="3.53038">
        <ele>359.688</ele>
        <time>2013-03-02T12:26:51Z</time>
      </trkpt>
      <trkpt lat="43.73841" lon="3.5304">
        <ele>359.576</ele>
        <time>2013-03-02T12:26:55Z</time>
      </trkpt>
      <trkpt lat="43.73851" lon="3.53046">
        <ele>356.671</ele>
        <time>2013-03-02T12:27:10Z</time>
      </trkpt>
      <trkpt lat="43.73853" lon="3.53046">
        <ele>353.111</ele>
        <time>2013-03-02T12:27:12Z</time>
      </trkpt>
      <trkpt lat="43.73854" lon="3.53046">
        <ele>354.348</ele>
        <time>2013-03-02T12:27:13Z</time>
      </trkpt>
      <trkpt lat="43.73855" lon="3.53045">
        <ele>361.176</ele>
        <time>2013-03-02T12:27:14Z</time>
      </trkpt>
      <trkpt lat="43.73856" lon="3.53045">
        <ele>357.683</ele>
        <time>2013-03-02T12:27:15Z</time>
      </trkpt>
      <trkpt lat="43.73861" lon="3.53045">
        <ele>353.044</ele>
        <time>2013-03-02T12:27:20Z</time>
      </trkpt>
      <trkpt lat="43.73862" lon="3.53046">
        <ele>360.957</ele>
        <time>2013-03-02T12:27:21Z</time>
      </trkpt>
      <trkpt lat="43.73861" lon="3.53047">
        <ele>356.629</ele>
        <time>2013-03-02T12:27:22Z</time>
      </trkpt>
      <trkpt lat="43.73868" lon="3.53047">
        <ele>353.53</ele>
        <time>2013-03-02T12:27:30Z</time>
      </trkpt>
      <trkpt lat="43.73874" lon="3.53045">
        <ele>353.005</ele>
        <time>2013-03-02T12:27:36Z</time>
      </trkpt>
      <trkpt lat="43.73879" lon="3.53045">
        <ele>351.962</ele>
        <time>2013-03-02T12:27:42Z</time>
      </trkpt>
      <trkpt lat="43.73887" lon="3.53047">
        <ele>351.183</ele>
        <time>2013-03-02T12:27:52Z</time>
      </trkpt>
      <trkpt lat="43.73891" lon="3.53046">
        <ele>349.704</ele>
        <time>2013-03-02T12:27:57Z</time>
      </trkpt>
      <trkpt lat="43.73904" lon="3.53046">
        <ele>347.971</ele>
        <time>2013-03-02T12:28:11Z</time>
      </trkpt>
      <trkpt lat="43.73913" lon="3.53043">
        <ele>345.663</ele>
        <time>2013-03-02T12:28:20Z</time>
      </trkpt>
      <trkpt lat="43.73923" lon="3.53039">
        <ele>344.405</ele>
        <time>2013-03-02T12:28:30Z</time>
      </trkpt>
      <trkpt lat="43.73924" lon="3.53038">
        <ele>344.396</ele>
        <time>2013-03-02T12:28:31Z</time>
      </trkpt>
      <trkpt lat="43.73933" lon="3.53029">
        <ele>343.664</ele>
        <time>2013-03-02T12:28:41Z</time>
      </trkpt>
      <trkpt lat="43.73941" lon="3.53018">
        <ele>343.479</ele>
        <time>2013-03-02T12:28:48Z</time>
      </trkpt>
      <trkpt lat="43.73946" lon="3.52998">
        <ele>341.412</ele>
        <time>2013-03-02T12:29:00Z</time>
      </trkpt>
      <trkpt lat="43.73948" lon="3.52977">
        <ele>340.897</ele>
        <time>2013-03-02T12:29:13Z</time>
      </trkpt>
      <trkpt lat="43.73947" lon="3.52958">
        <ele>339.739</ele>
        <time>2013-03-02T12:29:26Z</time>
      </trkpt>
      <trkpt lat="43.73947" lon="3.52945">
        <ele>339.433</ele>
        <time>2013-03-02T12:29:35Z</time>
      </trkpt>
      <trkpt lat="43.73946" lon="3.52927">
        <ele>337.462</ele>
        <time>2013-03-02T12:29:49Z</time>
      </trkpt>
      <trkpt lat="43.73948" lon="3.52918">
        <ele>338.064</ele>
        <time>2013-03-02T12:30:00Z</time>
      </trkpt>
      <trkpt lat="43.73948" lon="3.52906">
        <ele>337.808</ele>
        <time>2013-03-02T12:30:12Z</time>
      </trkpt>
      <trkpt lat="43.73948" lon="3.52897">
        <ele>337.313</ele>
        <time>2013-03-02T12:30:23Z</time>
      </trkpt>
      <trkpt lat="43.73949" lon="3.52895">
        <ele>336.805</ele>
        <time>2013-03-02T12:30:25Z</time>
      </trkpt>
      <trkpt lat="43.7395" lon="3.52883">
        <ele>337.417</ele>
        <time>2013-03-02T12:30:33Z</time>
      </trkpt>
      <trkpt lat="43.73953" lon="3.52863">
        <ele>337.124</ele>
        <time>2013-03-02T12:30:46Z</time>
      </trkpt>
      <trkpt lat="43.73953" lon="3.52862">
        <ele>336.478</ele>
        <time>2013-03-02T12:30:48Z</time>
      </trkpt>
      <trkpt lat="43.73954" lon="3.5286">
        <ele>337.205</ele>
        <time>2013-03-02T12:30:50Z</time>
      </trkpt>
      <trkpt lat="43.73956" lon="3.52843">
        <ele>336.568</ele>
        <time>2013-03-02T12:31:01Z</time>
      </trkpt>
      <trkpt lat="43.73956" lon="3.52826">
        <ele>335.765</ele>
        <time>2013-03-02T12:31:13Z</time>
      </trkpt>
      <trkpt lat="43.73954" lon="3.52812">
        <ele>334.791</ele>
        <time>2013-03-02T12:31:23Z</time>
      </trkpt>
      <trkpt lat="43.73959" lon="3.52803">
        <ele>332.986</ele>
        <time>2013-03-02T12:31:33Z</time>
      </trkpt>
      <trkpt lat="43.73965" lon="3.52793">
        <ele>331.337</ele>
        <time>2013-03-02T12:31:42Z</time>
      </trkpt>
      <trkpt lat="43.73968" lon="3.52785">
        <ele>330.059</ele>
        <time>2013-03-02T12:31:48Z</time>
      </trkpt>
      <trkpt lat="43.73969" lon="3.52763">
        <ele>327.959</ele>
        <time>2013-03-02T12:32:03Z</time>
      </trkpt>
      <trkpt lat="43.73968" lon="3.52741">
        <ele>325.993</ele>
        <time>2013-03-02T12:32:15Z</time>
      </trkpt>
      <trkpt lat="43.73968" lon="3.52722">
        <ele>326.111</ele>
        <time>2013-03-02T12:32:29Z</time>
      </trkpt>
      <trkpt lat="43.73966" lon="3.52715">
        <ele>325.514</ele>
        <time>2013-03-02T12:32:34Z</time>
      </trkpt>
      <trkpt lat="43.73967" lon="3.52713">
        <ele>325.505</ele>
        <time>2013-03-02T12:32:36Z</time>
      </trkpt>
      <trkpt lat="43.73966" lon="3.52711">
        <ele>326.119</ele>
        <time>2013-03-02T12:32:38Z</time>
      </trkpt>
      <trkpt lat="43.73963" lon="3.5269">
        <ele>325.487</ele>
        <time>2013-03-02T12:32:53Z</time>
      </trkpt>
      <trkpt lat="43.73957" lon="3.52674">
        <ele>324.127</ele>
        <time>2013-03-02T12:33:03Z</time>
      </trkpt>
      <trkpt lat="43.73955" lon="3.52656">
        <ele>323.85</ele>
        <time>2013-03-02T12:33:14Z</time>
      </trkpt>
      <trkpt lat="43.73952" lon="3.52653">
        <ele>323.379</ele>
        <time>2013-03-02T12:33:18Z</time>
      </trkpt>
      <trkpt lat="43.73951" lon="3.5264">
        <ele>322.384</ele>
        <time>2013-03-02T12:33:26Z</time>
      </trkpt>
      <trkpt lat="43.73949" lon="3.52616">
        <ele>323.389</ele>
        <time>2013-03-02T12:33:39Z</time>
      </trkpt>
      <trkpt lat="43.73942" lon="3.52597">
        <ele>322.046</ele>
        <time>2013-03-02T12:33:50Z</time>
      </trkpt>
      <trkpt lat="43.73939" lon="3.52594">
        <ele>321.276</ele>
        <time>2013-03-02T12:33:54Z</time>
      </trkpt>
      <trkpt lat="43.73927" lon="3.52587">
        <ele>321.503</ele>
        <time>2013-03-02T12:34:05Z</time>
      </trkpt>
      <trkpt lat="43.7392" lon="3.52577">
        <ele>321.071</ele>
        <time>2013-03-02T12:34:15Z</time>
      </trkpt>
      <trkpt lat="43.73915" lon="3.5257">
        <ele>319.346</ele>
        <time>2013-03-02T12:34:21Z</time>
      </trkpt>
      <trkpt lat="43.73914" lon="3.52567">
        <ele>318.357</ele>
        <time>2013-03-02T12:34:29Z</time>
      </trkpt>
      <trkpt lat="43.73933" lon="3.5256">
        <ele>316.519</ele>
        <time>2013-03-02T12:34:42Z</time>
      </trkpt>
      <trkpt lat="43.73934" lon="3.52559">
        <ele>316.514</ele>
        <time>2013-03-02T12:34:43Z</time>
      </trkpt>
      <trkpt lat="43.73937" lon="3.52556">
        <ele>315.858</ele>
        <time>2013-03-02T12:34:47Z</time>
      </trkpt>
      <trkpt lat="43.73943" lon="3.52542">
        <ele>315.658</ele>
        <time>2013-03-02T12:34:55Z</time>
      </trkpt>
      <trkpt lat="43.73942" lon="3.52519">
        <ele>314.818</ele>
        <time>2013-03-02T12:35:08Z</time>
      </trkpt>
      <trkpt lat="43.73938" lon="3.52513">
        <ele>314.831</ele>
        <time>2013-03-02T12:35:19Z</time>
      </trkpt>
      <trkpt lat="43.73931" lon="3.52497">
        <ele>315.431</ele>
        <time>2013-03-02T12:35:31Z</time>
      </trkpt>
      <trkpt lat="43.73934" lon="3.52489">
        <ele>314.596</ele>
        <time>2013-03-02T12:35:36Z</time>
      </trkpt>
      <trkpt lat="43.73939" lon="3.52462">
        <ele>314.218</ele>
        <time>2013-03-02T12:35:52Z</time>
      </trkpt>
      <trkpt lat="43.73938" lon="3.52457">
        <ele>313.848</ele>
        <time>2013-03-02T12:35:55Z</time>
      </trkpt>
      <trkpt lat="43.73932" lon="3.52447">
        <ele>312.899</ele>
        <time>2013-03-02T12:36:03Z</time>
      </trkpt>
      <trkpt lat="43.73933" lon="3.52425">
        <ele>312.622</ele>
        <time>2013-03-02T12:36:17Z</time>
      </trkpt>
      <trkpt lat="43.73928" lon="3.52413">
        <ele>312.781</ele>
        <time>2013-03-02T12:36:26Z</time>
      </trkpt>
      <trkpt lat="43.73924" lon="3.5239">
        <ele>311.968</ele>
        <time>2013-03-02T12:36:40Z</time>
      </trkpt>
      <trkpt lat="43.73925" lon="3.52375">
        <ele>311.327</ele>
        <time>2013-03-02T12:36:52Z</time>
      </trkpt>
      <trkpt lat="43.73924" lon="3.5237">
        <ele>310.218</ele>
        <time>2013-03-02T12:36:55Z</time>
      </trkpt>
      <trkpt lat="43.73922" lon="3.52351">
        <ele>311.036</ele>
        <time>2013-03-02T12:37:08Z</time>
      </trkpt>
      <trkpt lat="43.7392" lon="3.52337">
        <ele>311.473</ele>
        <time>2013-03-02T12:37:19Z</time>
      </trkpt>
      <trkpt lat="43.73921" lon="3.5233">
        <ele>311.4</ele>
        <time>2013-03-02T12:37:24Z</time>
      </trkpt>
      <trkpt lat="43.73921" lon="3.52315">
        <ele>312.269</ele>
        <time>2013-03-02T12:37:36Z</time>
      </trkpt>
      <trkpt lat="43.73921" lon="3.52313">
        <ele>312.425</ele>
        <time>2013-03-02T12:37:37Z</time>
      </trkpt>
      <trkpt lat="43.73923" lon="3.52311">
        <ele>313.03</ele>
        <time>2013-03-02T12:37:52Z</time>
      </trkpt>
      <trkpt lat="43.73924" lon="3.52302">
        <ele>314.516</ele>
        <time>2013-03-02T12:38:03Z</time>
      </trkpt>
      <trkpt lat="43.73924" lon="3.52301">
        <ele>313.503</ele>
        <time>2013-03-02T12:38:27Z</time>
      </trkpt>
      <trkpt lat="43.73925" lon="3.52292">
        <ele>315.039</ele>
        <time>2013-03-02T12:38:37Z</time>
      </trkpt>
      <trkpt lat="43.73925" lon="3.52286">
        <ele>316.027</ele>
        <time>2013-03-02T12:38:44Z</time>
      </trkpt>
      <trkpt lat="43.7393" lon="3.52272">
        <ele>317.868</ele>
        <time>2013-03-02T12:38:57Z</time>
      </trkpt>
      <trkpt lat="43.73932" lon="3.52269">
        <ele>317.92</ele>
        <time>2013-03-02T12:38:59Z</time>
      </trkpt>
      <trkpt lat="43.73934" lon="3.52258">
        <ele>319.576</ele>
        <time>2013-03-02T12:39:09Z</time>
      </trkpt>
      <trkpt lat="43.73933" lon="3.52248">
        <ele>320.585</ele>
        <time>2013-03-02T12:39:17Z</time>
      </trkpt>
      <trkpt lat="43.73935" lon="3.52235">
        <ele>321.887</ele>
        <time>2013-03-02T12:39:30Z</time>
      </trkpt>
      <trkpt lat="43.7394" lon="3.52225">
        <ele>323.434</ele>
        <time>2013-03-02T12:39:52Z</time>
      </trkpt>
      <trkpt lat="43.73942" lon="3.52223">
        <ele>324.197</ele>
        <time>2013-03-02T12:39:55Z</time>
      </trkpt>
      <trkpt lat="43.73945" lon="3.52216">
        <ele>323.925</ele>
        <time>2013-03-02T12:39:59Z</time>
      </trkpt>
      <trkpt lat="43.73949" lon="3.52202">
        <ele>325.336</ele>
        <time>2013-03-02T12:40:11Z</time>
      </trkpt>
      <trkpt lat="43.73951" lon="3.52197">
        <ele>325.471</ele>
        <time>2013-03-02T12:40:15Z</time>
      </trkpt>
      <trkpt lat="43.73953" lon="3.52191">
        <ele>326.511</ele>
        <time>2013-03-02T12:40:19Z</time>
      </trkpt>
      <trkpt lat="43.73954" lon="3.52191">
        <ele>326.502</ele>
        <time>2013-03-02T12:40:20Z</time>
      </trkpt>
      <trkpt lat="43.73955" lon="3.52181">
        <ele>329.666</ele>
        <time>2013-03-02T12:40:28Z</time>
      </trkpt>
      <trkpt lat="43.73953" lon="3.52176">
        <ele>330.838</ele>
        <time>2013-03-02T12:40:32Z</time>
      </trkpt>
      <trkpt lat="43.73953" lon="3.52175">
        <ele>330.56</ele>
        <time>2013-03-02T12:40:33Z</time>
      </trkpt>
      <trkpt lat="43.7395" lon="3.52164">
        <ele>333.069</ele>
        <time>2013-03-02T12:40:45Z</time>
      </trkpt>
      <trkpt lat="43.73948" lon="3.52158">
        <ele>333.504</ele>
        <time>2013-03-02T12:40:57Z</time>
      </trkpt>
      <trkpt lat="43.73945" lon="3.52149">
        <ele>334.956</ele>
        <time>2013-03-02T12:41:06Z</time>
      </trkpt>
      <trkpt lat="43.73941" lon="3.52132">
        <ele>335.918</ele>
        <time>2013-03-02T12:41:18Z</time>
      </trkpt>
      <trkpt lat="43.73939" lon="3.5212">
        <ele>337.589</ele>
        <time>2013-03-02T12:41:26Z</time>
      </trkpt>
      <trkpt lat="43.73936" lon="3.52102">
        <ele>338.789</ele>
        <time>2013-03-02T12:41:37Z</time>
      </trkpt>
      <trkpt lat="43.73936" lon="3.52099">
        <ele>338.66</ele>
        <time>2013-03-02T12:41:39Z</time>
      </trkpt>
      <trkpt lat="43.73937" lon="3.52088">
        <ele>340.286</ele>
        <time>2013-03-02T12:41:47Z</time>
      </trkpt>
      <trkpt lat="43.73938" lon="3.52082">
        <ele>340.834</ele>
        <time>2013-03-02T12:41:52Z</time>
      </trkpt>
      <trkpt lat="43.73943" lon="3.52074">
        <ele>342.103</ele>
        <time>2013-03-02T12:41:58Z</time>
      </trkpt>
      <trkpt lat="43.73943" lon="3.52072">
        <ele>342.355</ele>
        <time>2013-03-02T12:42:00Z</time>
      </trkpt>
      <trkpt lat="43.73939" lon="3.52054">
        <ele>344.277</ele>
        <time>2013-03-02T12:42:11Z</time>
      </trkpt>
      <trkpt lat="43.73944" lon="3.52043">
        <ele>345.411</ele>
        <time>2013-03-02T12:42:18Z</time>
      </trkpt>
      <trkpt lat="43.73948" lon="3.52027">
        <ele>346.8</ele>
        <time>2013-03-02T12:42:27Z</time>
      </trkpt>
      <trkpt lat="43.7395" lon="3.52011">
        <ele>347.316</ele>
        <time>2013-03-02T12:42:40Z</time>
      </trkpt>
      <trkpt lat="43.73955" lon="3.51996">
        <ele>348.579</ele>
        <time>2013-03-02T12:42:51Z</time>
      </trkpt>
      <trkpt lat="43.7396" lon="3.51982">
        <ele>349.388</ele>
        <time>2013-03-02T12:43:04Z</time>
      </trkpt>
      <trkpt lat="43.73961" lon="3.51971">
        <ele>350.459</ele>
        <time>2013-03-02T12:43:15Z</time>
      </trkpt>
      <trkpt lat="43.73956" lon="3.51956">
        <ele>352.54</ele>
        <time>2013-03-02T12:43:30Z</time>
      </trkpt>
      <trkpt lat="43.73955" lon="3.51954">
        <ele>353.543</ele>
        <time>2013-03-02T12:43:32Z</time>
      </trkpt>
      <trkpt lat="43.73949" lon="3.51948">
        <ele>355.198</ele>
        <time>2013-03-02T12:43:40Z</time>
      </trkpt>
      <trkpt lat="43.73941" lon="3.51942">
        <ele>359.031</ele>
        <time>2013-03-02T12:43:52Z</time>
      </trkpt>
      <trkpt lat="43.73934" lon="3.51936">
        <ele>360.256</ele>
        <time>2013-03-02T12:44:01Z</time>
      </trkpt>
      <trkpt lat="43.73926" lon="3.51929">
        <ele>363.236</ele>
        <time>2013-03-02T12:44:12Z</time>
      </trkpt>
      <trkpt lat="43.73922" lon="3.51929">
        <ele>363.246</ele>
        <time>2013-03-02T12:44:24Z</time>
      </trkpt>
      <trkpt lat="43.73915" lon="3.51921">
        <ele>364.294</ele>
        <time>2013-03-02T12:44:36Z</time>
      </trkpt>
      <trkpt lat="43.73903" lon="3.51915">
        <ele>366.157</ele>
        <time>2013-03-02T12:44:50Z</time>
      </trkpt>
      <trkpt lat="43.73896" lon="3.51911">
        <ele>368.134</ele>
        <time>2013-03-02T12:45:02Z</time>
      </trkpt>
      <trkpt lat="43.73889" lon="3.5191">
        <ele>371.261</ele>
        <time>2013-03-02T12:45:12Z</time>
      </trkpt>
      <trkpt lat="43.73878" lon="3.51908">
        <ele>371.097</ele>
        <time>2013-03-02T12:45:24Z</time>
      </trkpt>
      <trkpt lat="43.73868" lon="3.51904">
        <ele>372.617</ele>
        <time>2013-03-02T12:45:35Z</time>
      </trkpt>
      <trkpt lat="43.73859" lon="3.51905">
        <ele>375.222</ele>
        <time>2013-03-02T12:45:47Z</time>
      </trkpt>
      <trkpt lat="43.73849" lon="3.51907">
        <ele>376.672</ele>
        <time>2013-03-02T12:46:01Z</time>
      </trkpt>
      <trkpt lat="43.73841" lon="3.519">
        <ele>379.556</ele>
        <time>2013-03-02T12:46:13Z</time>
      </trkpt>
      <trkpt lat="43.73838" lon="3.51896">
        <ele>380.095</ele>
        <time>2013-03-02T12:46:17Z</time>
      </trkpt>
      <trkpt lat="43.7383" lon="3.51891">
        <ele>380.999</ele>
        <time>2013-03-02T12:46:26Z</time>
      </trkpt>
      <trkpt lat="43.73825" lon="3.51892">
        <ele>381.033</ele>
        <time>2013-03-02T12:46:32Z</time>
      </trkpt>
      <trkpt lat="43.73811" lon="3.51895">
        <ele>383.544</ele>
        <time>2013-03-02T12:46:45Z</time>
      </trkpt>
      <trkpt lat="43.73802" lon="3.51893">
        <ele>384.772</ele>
        <time>2013-03-02T12:46:53Z</time>
      </trkpt>
      <trkpt lat="43.73801" lon="3.51893">
        <ele>385.066</ele>
        <time>2013-03-02T12:46:54Z</time>
      </trkpt>
      <trkpt lat="43.73796" lon="3.51898">
        <ele>387.099</ele>
        <time>2013-03-02T12:47:04Z</time>
      </trkpt>
      <trkpt lat="43.73791" lon="3.51899">
        <ele>388.464</ele>
        <time>2013-03-02T12:47:12Z</time>
      </trkpt>
      <trkpt lat="43.7379" lon="3.51901">
        <ele>388.681</ele>
        <time>2013-03-02T12:47:14Z</time>
      </trkpt>
      <trkpt lat="43.73784" lon="3.51907">
        <ele>389.989</ele>
        <time>2013-03-02T12:47:23Z</time>
      </trkpt>
      <trkpt lat="43.7378" lon="3.5191">
        <ele>389.335</ele>
        <time>2013-03-02T12:47:34Z</time>
      </trkpt>
      <trkpt lat="43.73777" lon="3.51915">
        <ele>389.182</ele>
        <time>2013-03-02T12:47:49Z</time>
      </trkpt>
      <trkpt lat="43.73775" lon="3.51921">
        <ele>390.357</ele>
        <time>2013-03-02T12:48:00Z</time>
      </trkpt>
      <trkpt lat="43.73772" lon="3.51927">
        <ele>391.584</ele>
        <time>2013-03-02T12:48:11Z</time>
      </trkpt>
      <trkpt lat="43.73765" lon="3.51935">
        <ele>394.088</ele>
        <time>2013-03-02T12:48:21Z</time>
      </trkpt>
      <trkpt lat="43.73763" lon="3.51938">
        <ele>395.697</ele>
        <time>2013-03-02T12:48:25Z</time>
      </trkpt>
      <trkpt lat="43.73759" lon="3.5194">
        <ele>395.869</ele>
        <time>2013-03-02T12:48:29Z</time>
      </trkpt>
      <trkpt lat="43.73752" lon="3.51946">
        <ele>397.752</ele>
        <time>2013-03-02T12:48:39Z</time>
      </trkpt>
      <trkpt lat="43.73747" lon="3.51945">
        <ele>399.905</ele>
        <time>2013-03-02T12:48:48Z</time>
      </trkpt>
      <trkpt lat="43.73742" lon="3.51943">
        <ele>399.778</ele>
        <time>2013-03-02T12:48:53Z</time>
      </trkpt>
      <trkpt lat="43.73744" lon="3.51924">
        <ele>402.143</ele>
        <time>2013-03-02T12:49:05Z</time>
      </trkpt>
      <trkpt lat="43.73748" lon="3.51909">
        <ele>402.868</ele>
        <time>2013-03-02T12:49:19Z</time>
      </trkpt>
      <trkpt lat="43.73745" lon="3.51899">
        <ele>405.11</ele>
        <time>2013-03-02T12:49:30Z</time>
      </trkpt>
      <trkpt lat="43.73738" lon="3.51881">
        <ele>406.027</ele>
        <time>2013-03-02T12:49:45Z</time>
      </trkpt>
      <trkpt lat="43.7374" lon="3.51863">
        <ele>407.835</ele>
        <time>2013-03-02T12:49:58Z</time>
      </trkpt>
      <trkpt lat="43.73741" lon="3.51862">
        <ele>407.218</ele>
        <time>2013-03-02T12:49:59Z</time>
      </trkpt>
      <trkpt lat="43.73744" lon="3.51849">
        <ele>410.456</ele>
        <time>2013-03-02T12:50:11Z</time>
      </trkpt>
      <trkpt lat="43.73745" lon="3.51848">
        <ele>410.451</ele>
        <time>2013-03-02T12:50:12Z</time>
      </trkpt>
      <trkpt lat="43.73744" lon="3.5184">
        <ele>410.911</ele>
        <time>2013-03-02T12:50:20Z</time>
      </trkpt>
      <trkpt lat="43.73744" lon="3.51836">
        <ele>412.441</ele>
        <time>2013-03-02T12:50:23Z</time>
      </trkpt>
      <trkpt lat="43.73746" lon="3.51834">
        <ele>412.31</ele>
        <time>2013-03-02T12:50:25Z</time>
      </trkpt>
      <trkpt lat="43.73751" lon="3.5182">
        <ele>412.712</ele>
        <time>2013-03-02T12:50:38Z</time>
      </trkpt>
      <trkpt lat="43.73755" lon="3.51812">
        <ele>413.562</ele>
        <time>2013-03-02T12:50:48Z</time>
      </trkpt>
      <trkpt lat="43.73761" lon="3.51802">
        <ele>415.16</ele>
        <time>2013-03-02T12:51:00Z</time>
      </trkpt>
      <trkpt lat="43.73766" lon="3.51796">
        <ele>417.3</ele>
        <time>2013-03-02T12:51:12Z</time>
      </trkpt>
      <trkpt lat="43.73771" lon="3.51788">
        <ele>419.119</ele>
        <time>2013-03-02T12:51:23Z</time>
      </trkpt>
      <trkpt lat="43.73776" lon="3.51776">
        <ele>421.374</ele>
        <time>2013-03-02T12:51:35Z</time>
      </trkpt>
      <trkpt lat="43.73779" lon="3.5176">
        <ele>423.51</ele>
        <time>2013-03-02T12:51:48Z</time>
      </trkpt>
      <trkpt lat="43.73784" lon="3.51743">
        <ele>425.509</ele>
        <time>2013-03-02T12:52:02Z</time>
      </trkpt>
      <trkpt lat="43.73787" lon="3.51726">
        <ele>427.445</ele>
        <time>2013-03-02T12:52:14Z</time>
      </trkpt>
      <trkpt lat="43.73785" lon="3.51727">
        <ele>428.282</ele>
        <time>2013-03-02T12:52:18Z</time>
      </trkpt>
      <trkpt lat="43.73777" lon="3.51743">
        <ele>429.33</ele>
        <time>2013-03-02T12:52:31Z</time>
      </trkpt>
      <trkpt lat="43.73775" lon="3.51747">
        <ele>429.954</ele>
        <time>2013-03-02T12:52:33Z</time>
      </trkpt>
      <trkpt lat="43.7377" lon="3.51756">
        <ele>430.907</ele>
        <time>2013-03-02T12:52:41Z</time>
      </trkpt>
      <trkpt lat="43.73765" lon="3.51762">
        <ele>431.437</ele>
        <time>2013-03-02T12:52:47Z</time>
      </trkpt>
      <trkpt lat="43.73756" lon="3.51763">
        <ele>432.521</ele>
        <time>2013-03-02T12:52:54Z</time>
      </trkpt>
      <trkpt lat="43.73753" lon="3.51761">
        <ele>436.051</ele>
        <time>2013-03-02T12:53:04Z</time>
      </trkpt>
      <trkpt lat="43.73756" lon="3.51757">
        <ele>435.598</ele>
        <time>2013-03-02T12:53:08Z</time>
      </trkpt>
      <trkpt lat="43.73759" lon="3.51755">
        <ele>436.467</ele>
        <time>2013-03-02T12:53:11Z</time>
      </trkpt>
      <trkpt lat="43.73765" lon="3.51741">
        <ele>436.476</ele>
        <time>2013-03-02T12:53:21Z</time>
      </trkpt>
      <trkpt lat="43.73765" lon="3.51723">
        <ele>437.635</ele>
        <time>2013-03-02T12:53:34Z</time>
      </trkpt>
      <trkpt lat="43.73766" lon="3.51714">
        <ele>439.071</ele>
        <time>2013-03-02T12:53:42Z</time>
      </trkpt>
      <trkpt lat="43.73772" lon="3.51697">
        <ele>439.856</ele>
        <time>2013-03-02T12:53:55Z</time>
      </trkpt>
      <trkpt lat="43.73775" lon="3.51689">
        <ele>441.182</ele>
        <time>2013-03-02T12:54:05Z</time>
      </trkpt>
      <trkpt lat="43.73788" lon="3.51678">
        <ele>442.474</ele>
        <time>2013-03-02T12:54:20Z</time>
      </trkpt>
      <trkpt lat="43.73793" lon="3.51669">
        <ele>445.547</ele>
        <time>2013-03-02T12:54:28Z</time>
      </trkpt>
      <trkpt lat="43.73795" lon="3.51641">
        <ele>448.589</ele>
        <time>2013-03-02T12:54:46Z</time>
      </trkpt>
      <trkpt lat="43.73781" lon="3.5163">
        <ele>450.967</ele>
        <time>2013-03-02T12:54:58Z</time>
      </trkpt>
      <trkpt lat="43.73781" lon="3.5163">
        <ele>451.263</ele>
        <time>2013-03-02T12:54:59Z</time>
      </trkpt>
      <trkpt lat="43.73777" lon="3.51627">
        <ele>452.243</ele>
        <time>2013-03-02T12:55:03Z</time>
      </trkpt>
      <trkpt lat="43.73774" lon="3.51625">
        <ele>452.904</ele>
        <time>2013-03-02T12:55:07Z</time>
      </trkpt>
      <trkpt lat="43.7377" lon="3.51613">
        <ele>455.263</ele>
        <time>2013-03-02T12:55:18Z</time>
      </trkpt>
      <trkpt lat="43.73768" lon="3.5161">
        <ele>455.346</ele>
        <time>2013-03-02T12:55:39Z</time>
      </trkpt>
      <trkpt lat="43.73765" lon="3.51616">
        <ele>456.221</ele>
        <time>2013-03-02T12:56:02Z</time>
      </trkpt>
      <trkpt lat="43.73761" lon="3.51611">
        <ele>456.395</ele>
        <time>2013-03-02T12:56:45Z</time>
      </trkpt>
      <trkpt lat="43.73762" lon="3.51613">
        <ele>455.284</ele>
        <time>2013-03-02T12:57:53Z</time>
      </trkpt>
      <trkpt lat="43.73767" lon="3.51614">
        <ele>454.524</ele>
        <time>2013-03-02T12:58:09Z</time>
      </trkpt>
      <trkpt lat="43.73769" lon="3.51614">
        <ele>455.158</ele>
        <time>2013-03-02T12:58:34Z</time>
      </trkpt>
      <trkpt lat="43.73762" lon="3.51615">
        <ele>456.752</ele>
        <time>2013-03-02T12:58:47Z</time>
      </trkpt>
      <trkpt lat="43.73759" lon="3.51614">
        <ele>458.653</ele>
        <time>2013-03-02T12:59:01Z</time>
      </trkpt>
      <trkpt lat="43.73758" lon="3.51615">
        <ele>458.85</ele>
        <time>2013-03-02T12:59:10Z</time>
      </trkpt>
      <trkpt lat="43.73757" lon="3.5162">
        <ele>458.689</ele>
        <time>2013-03-02T12:59:30Z</time>
      </trkpt>
      <trkpt lat="43.73758" lon="3.51625">
        <ele>459.758</ele>
        <time>2013-03-02T12:59:39Z</time>
      </trkpt>
      <trkpt lat="43.73758" lon="3.51629">
        <ele>460.282</ele>
        <time>2013-03-02T12:59:50Z</time>
      </trkpt>
      <trkpt lat="43.73754" lon="3.51621">
        <ele>460.942</ele>
        <time>2013-03-02T13:00:04Z</time>
      </trkpt>
      <trkpt lat="43.73751" lon="3.51631">
        <ele>463.577</ele>
        <time>2013-03-02T13:00:17Z</time>
      </trkpt>
      <trkpt lat="43.73749" lon="3.51633">
        <ele>463.865</ele>
        <time>2013-03-02T13:00:20Z</time>
      </trkpt>
      <trkpt lat="43.73748" lon="3.51644">
        <ele>465.52</ele>
        <time>2013-03-02T13:00:30Z</time>
      </trkpt>
      <trkpt lat="43.73748" lon="3.51647">
        <ele>466.017</ele>
        <time>2013-03-02T13:00:36Z</time>
      </trkpt>
      <trkpt lat="43.73747" lon="3.51654">
        <ele>466.008</ele>
        <time>2013-03-02T13:00:42Z</time>
      </trkpt>
      <trkpt lat="43.73745" lon="3.5166">
        <ele>467.634</ele>
        <time>2013-03-02T13:00:54Z</time>
      </trkpt>
      <trkpt lat="43.73744" lon="3.51662">
        <ele>467.097</ele>
        <time>2013-03-02T13:00:59Z</time>
      </trkpt>
      <trkpt lat="43.73743" lon="3.51667">
        <ele>468.001</ele>
        <time>2013-03-02T13:01:12Z</time>
      </trkpt>
      <trkpt lat="43.73739" lon="3.5167">
        <ele>468.615</ele>
        <time>2013-03-02T13:01:21Z</time>
      </trkpt>
      <trkpt lat="43.73732" lon="3.51677">
        <ele>469.089</ele>
        <time>2013-03-02T13:01:34Z</time>
      </trkpt>
      <trkpt lat="43.73722" lon="3.51683">
        <ele>468.689</ele>
        <time>2013-03-02T13:01:47Z</time>
      </trkpt>
      <trkpt lat="43.73721" lon="3.51684">
        <ele>469.093</ele>
        <time>2013-03-02T13:01:48Z</time>
      </trkpt>
      <trkpt lat="43.73718" lon="3.51697">
        <ele>470.375</ele>
        <time>2013-03-02T13:02:01Z</time>
      </trkpt>
      <trkpt lat="43.7372" lon="3.517">
        <ele>470.998</ele>
        <time>2013-03-02T13:02:03Z</time>
      </trkpt>
      <trkpt lat="43.7372" lon="3.51703">
        <ele>470.477</ele>
        <time>2013-03-02T13:02:05Z</time>
      </trkpt>
      <trkpt lat="43.73716" lon="3.51715">
        <ele>471.805</ele>
        <time>2013-03-02T13:02:16Z</time>
      </trkpt>
      <trkpt lat="43.73711" lon="3.5172">
        <ele>474.045</ele>
        <time>2013-03-02T13:02:26Z</time>
      </trkpt>
      <trkpt lat="43.73708" lon="3.51723">
        <ele>473.909</ele>
        <time>2013-03-02T13:02:37Z</time>
      </trkpt>
      <trkpt lat="43.73706" lon="3.51724">
        <ele>473.557</ele>
        <time>2013-03-02T13:02:51Z</time>
      </trkpt>
      <trkpt lat="43.73701" lon="3.51727">
        <ele>474.398</ele>
        <time>2013-03-02T13:03:00Z</time>
      </trkpt>
      <trkpt lat="43.73699" lon="3.51727">
        <ele>475.663</ele>
        <time>2013-03-02T13:03:15Z</time>
      </trkpt>
      <trkpt lat="43.73697" lon="3.51731">
        <ele>476.614</ele>
        <time>2013-03-02T13:03:25Z</time>
      </trkpt>
      <trkpt lat="43.73693" lon="3.51737">
        <ele>478.246</ele>
        <time>2013-03-02T13:03:39Z</time>
      </trkpt>
      <trkpt lat="43.7369" lon="3.51733">
        <ele>480.517</ele>
        <time>2013-03-02T13:03:54Z</time>
      </trkpt>
      <trkpt lat="43.73685" lon="3.5174">
        <ele>481.655</ele>
        <time>2013-03-02T13:04:12Z</time>
      </trkpt>
      <trkpt lat="43.73677" lon="3.5174">
        <ele>482.951</ele>
        <time>2013-03-02T13:04:22Z</time>
      </trkpt>
      <trkpt lat="43.73672" lon="3.51743">
        <ele>483.206</ele>
        <time>2013-03-02T13:04:26Z</time>
      </trkpt>
      <trkpt lat="43.73668" lon="3.51747">
        <ele>484.147</ele>
        <time>2013-03-02T13:04:38Z</time>
      </trkpt>
      <trkpt lat="43.73667" lon="3.5175">
        <ele>484.957</ele>
        <time>2013-03-02T13:04:42Z</time>
      </trkpt>
      <trkpt lat="43.73661" lon="3.51752">
        <ele>485.348</ele>
        <time>2013-03-02T13:04:51Z</time>
      </trkpt>
      <trkpt lat="43.73656" lon="3.51752">
        <ele>487.05</ele>
        <time>2013-03-02T13:05:09Z</time>
      </trkpt>
      <trkpt lat="43.7365" lon="3.51754">
        <ele>489.075</ele>
        <time>2013-03-02T13:05:21Z</time>
      </trkpt>
      <trkpt lat="43.73641" lon="3.51756">
        <ele>492.093</ele>
        <time>2013-03-02T13:05:31Z</time>
      </trkpt>
      <trkpt lat="43.73633" lon="3.51759">
        <ele>494.167</ele>
        <time>2013-03-02T13:05:41Z</time>
      </trkpt>
      <trkpt lat="43.73626" lon="3.51761">
        <ele>495.896</ele>
        <time>2013-03-02T13:05:51Z</time>
      </trkpt>
      <trkpt lat="43.73625" lon="3.51763">
        <ele>495.886</ele>
        <time>2013-03-02T13:05:53Z</time>
      </trkpt>
      <trkpt lat="43.73614" lon="3.51773">
        <ele>497.714</ele>
        <time>2013-03-02T13:06:06Z</time>
      </trkpt>
      <trkpt lat="43.73603" lon="3.51782">
        <ele>497.92</ele>
        <time>2013-03-02T13:06:18Z</time>
      </trkpt>
      <trkpt lat="43.73601" lon="3.51784">
        <ele>498.215</ele>
        <time>2013-03-02T13:06:21Z</time>
      </trkpt>
      <trkpt lat="43.73596" lon="3.51795">
        <ele>499.032</ele>
        <time>2013-03-02T13:06:36Z</time>
      </trkpt>
      <trkpt lat="43.73596" lon="3.51796">
        <ele>499.221</ele>
        <time>2013-03-02T13:06:37Z</time>
      </trkpt>
      <trkpt lat="43.73594" lon="3.51797">
        <ele>498.703</ele>
        <time>2013-03-02T13:06:39Z</time>
      </trkpt>
      <trkpt lat="43.73592" lon="3.51802">
        <ele>499.808</ele>
        <time>2013-03-02T13:06:43Z</time>
      </trkpt>
      <trkpt lat="43.73588" lon="3.51811">
        <ele>501.285</ele>
        <time>2013-03-02T13:06:52Z</time>
      </trkpt>
      <trkpt lat="43.73584" lon="3.51823">
        <ele>502.545</ele>
        <time>2013-03-02T13:07:03Z</time>
      </trkpt>
      <trkpt lat="43.73583" lon="3.51825">
        <ele>503.19</ele>
        <time>2013-03-02T13:07:06Z</time>
      </trkpt>
      <trkpt lat="43.7358" lon="3.51836">
        <ele>504.489</ele>
        <time>2013-03-02T13:07:15Z</time>
      </trkpt>
      <trkpt lat="43.73579" lon="3.51837">
        <ele>505.055</ele>
        <time>2013-03-02T13:07:17Z</time>
      </trkpt>
      <trkpt lat="43.73579" lon="3.51846">
        <ele>506.108</ele>
        <time>2013-03-02T13:07:30Z</time>
      </trkpt>
      <trkpt lat="43.73577" lon="3.51854">
        <ele>508.849</ele>
        <time>2013-03-02T13:07:43Z</time>
      </trkpt>
      <trkpt lat="43.73577" lon="3.51866">
        <ele>509.889</ele>
        <time>2013-03-02T13:07:54Z</time>
      </trkpt>
      <trkpt lat="43.73576" lon="3.51871">
        <ele>510.328</ele>
        <time>2013-03-02T13:08:06Z</time>
      </trkpt>
      <trkpt lat="43.73576" lon="3.51871">
        <ele>511.029</ele>
        <time>2013-03-02T13:08:20Z</time>
      </trkpt>
      <trkpt lat="43.73574" lon="3.5188">
        <ele>511.076</ele>
        <time>2013-03-02T13:08:34Z</time>
      </trkpt>
      <trkpt lat="43.73571" lon="3.51887">
        <ele>513.128</ele>
        <time>2013-03-02T13:08:45Z</time>
      </trkpt>
      <trkpt lat="43.73568" lon="3.5189">
        <ele>512.768</ele>
        <time>2013-03-02T13:09:00Z</time>
      </trkpt>
      <trkpt lat="43.73569" lon="3.51895">
        <ele>513.941</ele>
        <time>2013-03-02T13:09:10Z</time>
      </trkpt>
      <trkpt lat="43.73562" lon="3.51899">
        <ele>513.749</ele>
        <time>2013-03-02T13:09:25Z</time>
      </trkpt>
      <trkpt lat="43.73557" lon="3.51904">
        <ele>515.354</ele>
        <time>2013-03-02T13:09:35Z</time>
      </trkpt>
      <trkpt lat="43.73559" lon="3.51908">
        <ele>515.38</ele>
        <time>2013-03-02T13:09:50Z</time>
      </trkpt>
      <trkpt lat="43.73556" lon="3.51918">
        <ele>516.484</ele>
        <time>2013-03-02T13:10:03Z</time>
      </trkpt>
      <trkpt lat="43.73555" lon="3.51922">
        <ele>517.032</ele>
        <time>2013-03-02T13:10:14Z</time>
      </trkpt>
      <trkpt lat="43.7355" lon="3.51933">
        <ele>518.175</ele>
        <time>2013-03-02T13:10:26Z</time>
      </trkpt>
      <trkpt lat="43.73548" lon="3.51951">
        <ele>519.911</ele>
        <time>2013-03-02T13:10:40Z</time>
      </trkpt>
      <trkpt lat="43.73546" lon="3.51961">
        <ele>519.569</ele>
        <time>2013-03-02T13:10:49Z</time>
      </trkpt>
      <trkpt lat="43.73547" lon="3.51965">
        <ele>519.293</ele>
        <time>2013-03-02T13:10:51Z</time>
      </trkpt>
      <trkpt lat="43.73543" lon="3.5198">
        <ele>522.018</ele>
        <time>2013-03-02T13:11:05Z</time>
      </trkpt>
      <trkpt lat="43.7354" lon="3.51992">
        <ele>523.418</ele>
        <time>2013-03-02T13:11:17Z</time>
      </trkpt>
      <trkpt lat="43.73538" lon="3.51996">
        <ele>523.419</ele>
        <time>2013-03-02T13:11:22Z</time>
      </trkpt>
      <trkpt lat="43.73536" lon="3.52">
        <ele>524.188</ele>
        <time>2013-03-02T13:11:25Z</time>
      </trkpt>
      <trkpt lat="43.73536" lon="3.52008">
        <ele>525.016</ele>
        <time>2013-03-02T13:11:30Z</time>
      </trkpt>
      <trkpt lat="43.73538" lon="3.5202">
        <ele>525.482</ele>
        <time>2013-03-02T13:11:42Z</time>
      </trkpt>
      <trkpt lat="43.73538" lon="3.52029">
        <ele>526.07</ele>
        <time>2013-03-02T13:11:57Z</time>
      </trkpt>
      <trkpt lat="43.73535" lon="3.52031">
        <ele>527.452</ele>
        <time>2013-03-02T13:12:11Z</time>
      </trkpt>
      <trkpt lat="43.7353" lon="3.52041">
        <ele>528.443</ele>
        <time>2013-03-02T13:12:25Z</time>
      </trkpt>
      <trkpt lat="43.73524" lon="3.52044">
        <ele>530.802</ele>
        <time>2013-03-02T13:12:36Z</time>
      </trkpt>
      <trkpt lat="43.73525" lon="3.52043">
        <ele>531.881</ele>
        <time>2013-03-02T13:12:39Z</time>
      </trkpt>
      <trkpt lat="43.73523" lon="3.52038">
        <ele>533.374</ele>
        <time>2013-03-02T13:12:51Z</time>
      </trkpt>
      <trkpt lat="43.73519" lon="3.52044">
        <ele>533.224</ele>
        <time>2013-03-02T13:13:01Z</time>
      </trkpt>
      <trkpt lat="43.73509" lon="3.5206">
        <ele>534.095</ele>
        <time>2013-03-02T13:13:17Z</time>
      </trkpt>
      <trkpt lat="43.73509" lon="3.52067">
        <ele>535.13</ele>
        <time>2013-03-02T13:13:21Z</time>
      </trkpt>
      <trkpt lat="43.73509" lon="3.52074">
        <ele>535.832</ele>
        <time>2013-03-02T13:13:27Z</time>
      </trkpt>
      <trkpt lat="43.73512" lon="3.52077">
        <ele>535.669</ele>
        <time>2013-03-02T13:13:30Z</time>
      </trkpt>
      <trkpt lat="43.73515" lon="3.52094">
        <ele>536.338</ele>
        <time>2013-03-02T13:13:41Z</time>
      </trkpt>
      <trkpt lat="43.73516" lon="3.52108">
        <ele>538.046</ele>
        <time>2013-03-02T13:13:51Z</time>
      </trkpt>
      <trkpt lat="43.73518" lon="3.5211">
        <ele>538.087</ele>
        <time>2013-03-02T13:13:53Z</time>
      </trkpt>
      <trkpt lat="43.73519" lon="3.52123">
        <ele>538.734</ele>
        <time>2013-03-02T13:14:00Z</time>
      </trkpt>
      <trkpt lat="43.73521" lon="3.52128">
        <ele>538.504</ele>
        <time>2013-03-02T13:14:04Z</time>
      </trkpt>
      <trkpt lat="43.73522" lon="3.52132">
        <ele>539.38</ele>
        <time>2013-03-02T13:14:07Z</time>
      </trkpt>
      <trkpt lat="43.73522" lon="3.52134">
        <ele>539.162</ele>
        <time>2013-03-02T13:14:09Z</time>
      </trkpt>
      <trkpt lat="43.73528" lon="3.52146">
        <ele>540.666</ele>
        <time>2013-03-02T13:14:19Z</time>
      </trkpt>
      <trkpt lat="43.73532" lon="3.52149">
        <ele>541.033</ele>
        <time>2013-03-02T13:14:23Z</time>
      </trkpt>
      <trkpt lat="43.73539" lon="3.5216">
        <ele>541.406</ele>
        <time>2013-03-02T13:14:35Z</time>
      </trkpt>
      <trkpt lat="43.73543" lon="3.52174">
        <ele>543.487</ele>
        <time>2013-03-02T13:14:48Z</time>
      </trkpt>
      <trkpt lat="43.73542" lon="3.52178">
        <ele>544.989</ele>
        <time>2013-03-02T13:15:00Z</time>
      </trkpt>
      <trkpt lat="43.73541" lon="3.52179">
        <ele>544.98</ele>
        <time>2013-03-02T13:15:07Z</time>
      </trkpt>
      <trkpt lat="43.73535" lon="3.52185">
        <ele>545.03</ele>
        <time>2013-03-02T13:15:18Z</time>
      </trkpt>
      <trkpt lat="43.73529" lon="3.52188">
        <ele>545.854</ele>
        <time>2013-03-02T13:15:32Z</time>
      </trkpt>
      <trkpt lat="43.73516" lon="3.52198">
        <ele>547.3</ele>
        <time>2013-03-02T13:15:47Z</time>
      </trkpt>
      <trkpt lat="43.73511" lon="3.52203">
        <ele>547.945</ele>
        <time>2013-03-02T13:15:59Z</time>
      </trkpt>
      <trkpt lat="43.73509" lon="3.52209">
        <ele>548.132</ele>
        <time>2013-03-02T13:16:10Z</time>
      </trkpt>
      <trkpt lat="43.73506" lon="3.5221">
        <ele>548.112</ele>
        <time>2013-03-02T13:16:23Z</time>
      </trkpt>
      <trkpt lat="43.73502" lon="3.52216">
        <ele>548.581</ele>
        <time>2013-03-02T13:16:35Z</time>
      </trkpt>
      <trkpt lat="43.73498" lon="3.52228">
        <ele>548.856</ele>
        <time>2013-03-02T13:16:45Z</time>
      </trkpt>
      <trkpt lat="43.73494" lon="3.52243">
        <ele>550.625</ele>
        <time>2013-03-02T13:16:57Z</time>
      </trkpt>
      <trkpt lat="43.73493" lon="3.52252">
        <ele>551.376</ele>
        <time>2013-03-02T13:17:04Z</time>
      </trkpt>
      <trkpt lat="43.7349" lon="3.52256">
        <ele>551.373</ele>
        <time>2013-03-02T13:17:08Z</time>
      </trkpt>
      <trkpt lat="43.73485" lon="3.52272">
        <ele>553.518</ele>
        <time>2013-03-02T13:17:22Z</time>
      </trkpt>
      <trkpt lat="43.73485" lon="3.52275">
        <ele>553.656</ele>
        <time>2013-03-02T13:17:35Z</time>
      </trkpt>
      <trkpt lat="43.73483" lon="3.52279">
        <ele>554.254</ele>
        <time>2013-03-02T13:17:38Z</time>
      </trkpt>
      <trkpt lat="43.73475" lon="3.5229">
        <ele>555.348</ele>
        <time>2013-03-02T13:17:52Z</time>
      </trkpt>
      <trkpt lat="43.73465" lon="3.52303">
        <ele>556.66</ele>
        <time>2013-03-02T13:18:05Z</time>
      </trkpt>
      <trkpt lat="43.73458" lon="3.52319">
        <ele>558.31</ele>
        <time>2013-03-02T13:18:18Z</time>
      </trkpt>
      <trkpt lat="43.73451" lon="3.52331">
        <ele>558.057</ele>
        <time>2013-03-02T13:18:31Z</time>
      </trkpt>
      <trkpt lat="43.73444" lon="3.52347">
        <ele>559.711</ele>
        <time>2013-03-02T13:18:45Z</time>
      </trkpt>
      <trkpt lat="43.73435" lon="3.52357">
        <ele>562.874</ele>
        <time>2013-03-02T13:18:58Z</time>
      </trkpt>
      <trkpt lat="43.73434" lon="3.52358">
        <ele>562.129</ele>
        <time>2013-03-02T13:18:59Z</time>
      </trkpt>
      <trkpt lat="43.73426" lon="3.52371">
        <ele>562.631</ele>
        <time>2013-03-02T13:19:11Z</time>
      </trkpt>
      <trkpt lat="43.73415" lon="3.52386">
        <ele>563.214</ele>
        <time>2013-03-02T13:19:26Z</time>
      </trkpt>
      <trkpt lat="43.73402" lon="3.52399">
        <ele>563.519</ele>
        <time>2013-03-02T13:19:42Z</time>
      </trkpt>
      <trkpt lat="43.7339" lon="3.52412">
        <ele>563.566</ele>
        <time>2013-03-02T13:19:56Z</time>
      </trkpt>
      <trkpt lat="43.73385" lon="3.52421">
        <ele>563.438</ele>
        <time>2013-03-02T13:20:04Z</time>
      </trkpt>
      <trkpt lat="43.73379" lon="3.52427">
        <ele>563.105</ele>
        <time>2013-03-02T13:20:11Z</time>
      </trkpt>
      <trkpt lat="43.73374" lon="3.52434">
        <ele>562.647</ele>
        <time>2013-03-02T13:20:16Z</time>
      </trkpt>
      <trkpt lat="43.73363" lon="3.5245">
        <ele>561.305</ele>
        <time>2013-03-02T13:20:31Z</time>
      </trkpt>
      <trkpt lat="43.73354" lon="3.52462">
        <ele>561.107</ele>
        <time>2013-03-02T13:20:44Z</time>
      </trkpt>
      <trkpt lat="43.73345" lon="3.52476">
        <ele>560.851</ele>
        <time>2013-03-02T13:20:57Z</time>
      </trkpt>
      <trkpt lat="43.73342" lon="3.52485">
        <ele>559.764</ele>
        <time>2013-03-02T13:21:05Z</time>
      </trkpt>
      <trkpt lat="43.73332" lon="3.52497">
        <ele>559.134</ele>
        <time>2013-03-02T13:21:19Z</time>
      </trkpt>
      <trkpt lat="43.73325" lon="3.52506">
        <ele>559.047</ele>
        <time>2013-03-02T13:21:26Z</time>
      </trkpt>
      <trkpt lat="43.73317" lon="3.52518">
        <ele>558.688</ele>
        <time>2013-03-02T13:21:38Z</time>
      </trkpt>
      <trkpt lat="43.7331" lon="3.52529">
        <ele>557.72</ele>
        <time>2013-03-02T13:21:49Z</time>
      </trkpt>
      <trkpt lat="43.73305" lon="3.52536">
        <ele>556.749</ele>
        <time>2013-03-02T13:21:55Z</time>
      </trkpt>
      <trkpt lat="43.73301" lon="3.52547">
        <ele>556.313</ele>
        <time>2013-03-02T13:22:03Z</time>
      </trkpt>
      <trkpt lat="43.73298" lon="3.52566">
        <ele>554.845</ele>
        <time>2013-03-02T13:22:16Z</time>
      </trkpt>
      <trkpt lat="43.73294" lon="3.52581">
        <ele>554.66</ele>
        <time>2013-03-02T13:22:28Z</time>
      </trkpt>
      <trkpt lat="43.7329" lon="3.52599">
        <ele>554.317</ele>
        <time>2013-03-02T13:22:41Z</time>
      </trkpt>
      <trkpt lat="43.73288" lon="3.52602">
        <ele>553.527</ele>
        <time>2013-03-02T13:22:44Z</time>
      </trkpt>
      <trkpt lat="43.73288" lon="3.52606">
        <ele>553.381</ele>
        <time>2013-03-02T13:22:46Z</time>
      </trkpt>
      <trkpt lat="43.73285" lon="3.52614">
        <ele>552.325</ele>
        <time>2013-03-02T13:22:55Z</time>
      </trkpt>
      <trkpt lat="43.73285" lon="3.52616">
        <ele>556.219</ele>
        <time>2013-03-02T13:22:57Z</time>
      </trkpt>
      <trkpt lat="43.73284" lon="3.52618">
        <ele>551.574</ele>
        <time>2013-03-02T13:22:58Z</time>
      </trkpt>
      <trkpt lat="43.73283" lon="3.52624">
        <ele>552.095</ele>
        <time>2013-03-02T13:23:03Z</time>
      </trkpt>
      <trkpt lat="43.73277" lon="3.52643">
        <ele>551.834</ele>
        <time>2013-03-02T13:23:18Z</time>
      </trkpt>
      <trkpt lat="43.73276" lon="3.52648">
        <ele>550.904</ele>
        <time>2013-03-02T13:23:23Z</time>
      </trkpt>
      <trkpt lat="43.73275" lon="3.52651">
        <ele>550.93</ele>
        <time>2013-03-02T13:23:25Z</time>
      </trkpt>
      <trkpt lat="43.7327" lon="3.52667">
        <ele>550.378</ele>
        <time>2013-03-02T13:23:38Z</time>
      </trkpt>
      <trkpt lat="43.73261" lon="3.52686">
        <ele>549.302</ele>
        <time>2013-03-02T13:23:51Z</time>
      </trkpt>
      <trkpt lat="43.73254" lon="3.52703">
        <ele>548.393</ele>
        <time>2013-03-02T13:24:03Z</time>
      </trkpt>
      <trkpt lat="43.73253" lon="3.52717">
        <ele>547.688</ele>
        <time>2013-03-02T13:24:17Z</time>
      </trkpt>
      <trkpt lat="43.73254" lon="3.52719">
        <ele>547.771</ele>
        <time>2013-03-02T13:24:34Z</time>
      </trkpt>
      <trkpt lat="43.73251" lon="3.52721">
        <ele>547.236</ele>
        <time>2013-03-02T13:24:54Z</time>
      </trkpt>
      <trkpt lat="43.73239" lon="3.52721">
        <ele>546.773</ele>
        <time>2013-03-02T13:25:07Z</time>
      </trkpt>
      <trkpt lat="43.73236" lon="3.5272">
        <ele>546.535</ele>
        <time>2013-03-02T13:25:10Z</time>
      </trkpt>
      <trkpt lat="43.73227" lon="3.52716">
        <ele>545.546</ele>
        <time>2013-03-02T13:25:27Z</time>
      </trkpt>
      <trkpt lat="43.7321" lon="3.52703">
        <ele>544.04</ele>
        <time>2013-03-02T13:25:45Z</time>
      </trkpt>
      <trkpt lat="43.73198" lon="3.52688">
        <ele>542.161</ele>
        <time>2013-03-02T13:25:55Z</time>
      </trkpt>
      <trkpt lat="43.73189" lon="3.52676">
        <ele>540.956</ele>
        <time>2013-03-02T13:26:05Z</time>
      </trkpt>
      <trkpt lat="43.73181" lon="3.5267">
        <ele>540.639</ele>
        <time>2013-03-02T13:26:13Z</time>
      </trkpt>
      <trkpt lat="43.73176" lon="3.5267">
        <ele>540.322</ele>
        <time>2013-03-02T13:26:17Z</time>
      </trkpt>
      <trkpt lat="43.73173" lon="3.52667">
        <ele>538.98</ele>
        <time>2013-03-02T13:26:20Z</time>
      </trkpt>
      <trkpt lat="43.73171" lon="3.52664">
        <ele>538.901</ele>
        <time>2013-03-02T13:26:24Z</time>
      </trkpt>
      <trkpt lat="43.73166" lon="3.52662">
        <ele>538.757</ele>
        <time>2013-03-02T13:26:31Z</time>
      </trkpt>
      <trkpt lat="43.73156" lon="3.52659">
        <ele>537.346</ele>
        <time>2013-03-02T13:26:45Z</time>
      </trkpt>
      <trkpt lat="43.73152" lon="3.52659">
        <ele>536.877</ele>
        <time>2013-03-02T13:26:49Z</time>
      </trkpt>
      <trkpt lat="43.73142" lon="3.52656">
        <ele>536.037</ele>
        <time>2013-03-02T13:27:00Z</time>
      </trkpt>
      <trkpt lat="43.7314" lon="3.52655">
        <ele>535.277</ele>
        <time>2013-03-02T13:27:02Z</time>
      </trkpt>
      <trkpt lat="43.73134" lon="3.52653">
        <ele>534.437</ele>
        <time>2013-03-02T13:27:06Z</time>
      </trkpt>
      <trkpt lat="43.73121" lon="3.52643">
        <ele>532.325</ele>
        <time>2013-03-02T13:27:18Z</time>
      </trkpt>
      <trkpt lat="43.73119" lon="3.52641">
        <ele>531.999</ele>
        <time>2013-03-02T13:27:20Z</time>
      </trkpt>
      <trkpt lat="43.73117" lon="3.52639">
        <ele>532.102</ele>
        <time>2013-03-02T13:27:22Z</time>
      </trkpt>
      <trkpt lat="43.73111" lon="3.52634">
        <ele>531.611</ele>
        <time>2013-03-02T13:27:28Z</time>
      </trkpt>
      <trkpt lat="43.73102" lon="3.5262">
        <ele>529.525</ele>
        <time>2013-03-02T13:27:39Z</time>
      </trkpt>
      <trkpt lat="43.73094" lon="3.52606">
        <ele>528.407</ele>
        <time>2013-03-02T13:27:49Z</time>
      </trkpt>
      <trkpt lat="43.73086" lon="3.52594">
        <ele>527.362</ele>
        <time>2013-03-02T13:28:00Z</time>
      </trkpt>
      <trkpt lat="43.7308" lon="3.52584">
        <ele>526.601</ele>
        <time>2013-03-02T13:28:10Z</time>
      </trkpt>
      <trkpt lat="43.73077" lon="3.52581">
        <ele>525.891</ele>
        <time>2013-03-02T13:28:14Z</time>
      </trkpt>
      <trkpt lat="43.73061" lon="3.52578">
        <ele>524.071</ele>
        <time>2013-03-02T13:28:27Z</time>
      </trkpt>
      <trkpt lat="43.73055" lon="3.52578">
        <ele>523.644</ele>
        <time>2013-03-02T13:28:32Z</time>
      </trkpt>
      <trkpt lat="43.73043" lon="3.52577">
        <ele>522.427</ele>
        <time>2013-03-02T13:28:44Z</time>
      </trkpt>
      <trkpt lat="43.73038" lon="3.52576">
        <ele>522.865</ele>
        <time>2013-03-02T13:28:52Z</time>
      </trkpt>
      <trkpt lat="43.73028" lon="3.52575">
        <ele>520.335</ele>
        <time>2013-03-02T13:29:03Z</time>
      </trkpt>
      <trkpt lat="43.73021" lon="3.52575">
        <ele>519.64</ele>
        <time>2013-03-02T13:29:10Z</time>
      </trkpt>
      <trkpt lat="43.73018" lon="3.52576">
        <ele>518.988</ele>
        <time>2013-03-02T13:29:12Z</time>
      </trkpt>
      <trkpt lat="43.73013" lon="3.52577">
        <ele>519.052</ele>
        <time>2013-03-02T13:29:17Z</time>
      </trkpt>
      <trkpt lat="43.72998" lon="3.52579">
        <ele>517.732</ele>
        <time>2013-03-02T13:29:33Z</time>
      </trkpt>
      <trkpt lat="43.72997" lon="3.52579">
        <ele>516.751</ele>
        <time>2013-03-02T13:29:35Z</time>
      </trkpt>
      <trkpt lat="43.72982" lon="3.52583">
        <ele>515.738</ele>
        <time>2013-03-02T13:29:49Z</time>
      </trkpt>
      <trkpt lat="43.72981" lon="3.52583">
        <ele>515.712</ele>
        <time>2013-03-02T13:29:50Z</time>
      </trkpt>
      <trkpt lat="43.72966" lon="3.52588">
        <ele>514.543</ele>
        <time>2013-03-02T13:30:04Z</time>
      </trkpt>
      <trkpt lat="43.72956" lon="3.52585">
        <ele>513.377</ele>
        <time>2013-03-02T13:30:14Z</time>
      </trkpt>
      <trkpt lat="43.72943" lon="3.52579">
        <ele>512.295</ele>
        <time>2013-03-02T13:30:26Z</time>
      </trkpt>
      <trkpt lat="43.72941" lon="3.52574">
        <ele>511.715</ele>
        <time>2013-03-02T13:30:29Z</time>
      </trkpt>
      <trkpt lat="43.72937" lon="3.52569">
        <ele>511.892</ele>
        <time>2013-03-02T13:30:34Z</time>
      </trkpt>
      <trkpt lat="43.72932" lon="3.52553">
        <ele>509.903</ele>
        <time>2013-03-02T13:30:45Z</time>
      </trkpt>
      <trkpt lat="43.72934" lon="3.5254">
        <ele>508.518</ele>
        <time>2013-03-02T13:30:56Z</time>
      </trkpt>
      <trkpt lat="43.72935" lon="3.52524">
        <ele>506.796</ele>
        <time>2013-03-02T13:31:07Z</time>
      </trkpt>
      <trkpt lat="43.72938" lon="3.52505">
        <ele>507.364</ele>
        <time>2013-03-02T13:31:19Z</time>
      </trkpt>
      <trkpt lat="43.72941" lon="3.52483">
        <ele>505.235</ele>
        <time>2013-03-02T13:31:32Z</time>
      </trkpt>
      <trkpt lat="43.7294" lon="3.52469">
        <ele>504.52</ele>
        <time>2013-03-02T13:31:40Z</time>
      </trkpt>
      <trkpt lat="43.7294" lon="3.5246">
        <ele>504.387</ele>
        <time>2013-03-02T13:31:53Z</time>
      </trkpt>
      <trkpt lat="43.72941" lon="3.52462">
        <ele>503.622</ele>
        <time>2013-03-02T13:32:17Z</time>
      </trkpt>
      <trkpt lat="43.72937" lon="3.52472">
        <ele>503.748</ele>
        <time>2013-03-02T13:32:29Z</time>
      </trkpt>
      <trkpt lat="43.72937" lon="3.5247">
        <ele>504.352</ele>
        <time>2013-03-02T13:32:45Z</time>
      </trkpt>
      <trkpt lat="43.72942" lon="3.52461">
        <ele>503.83</ele>
        <time>2013-03-02T13:32:57Z</time>
      </trkpt>
      <trkpt lat="43.7294" lon="3.52456">
        <ele>503.924</ele>
        <time>2013-03-02T13:33:09Z</time>
      </trkpt>
      <trkpt lat="43.72941" lon="3.52449">
        <ele>502.983</ele>
        <time>2013-03-02T13:33:17Z</time>
      </trkpt>
      <trkpt lat="43.72949" lon="3.52438">
        <ele>502.247</ele>
        <time>2013-03-02T13:33:26Z</time>
      </trkpt>
      <trkpt lat="43.7295" lon="3.52435">
        <ele>501.023</ele>
        <time>2013-03-02T13:33:28Z</time>
      </trkpt>
      <trkpt lat="43.72954" lon="3.5243">
        <ele>500.954</ele>
        <time>2013-03-02T13:33:33Z</time>
      </trkpt>
      <trkpt lat="43.72962" lon="3.52418">
        <ele>499.411</ele>
        <time>2013-03-02T13:33:47Z</time>
      </trkpt>
      <trkpt lat="43.72961" lon="3.52416">
        <ele>500.459</ele>
        <time>2013-03-02T13:33:56Z</time>
      </trkpt>
      <trkpt lat="43.72967" lon="3.52416">
        <ele>499.771</ele>
        <time>2013-03-02T13:34:16Z</time>
      </trkpt>
      <trkpt lat="43.72969" lon="3.52415">
        <ele>500.058</ele>
        <time>2013-03-02T13:34:19Z</time>
      </trkpt>
      <trkpt lat="43.72981" lon="3.52399">
        <ele>499.635</ele>
        <time>2013-03-02T13:34:34Z</time>
      </trkpt>
      <trkpt lat="43.72984" lon="3.52396">
        <ele>498.627</ele>
        <time>2013-03-02T13:34:45Z</time>
      </trkpt>
      <trkpt lat="43.72981" lon="3.52397">
        <ele>498.788</ele>
        <time>2013-03-02T13:35:01Z</time>
      </trkpt>
      <trkpt lat="43.72981" lon="3.52394">
        <ele>498.993</ele>
        <time>2013-03-02T13:35:05Z</time>
      </trkpt>
      <trkpt lat="43.72968" lon="3.52384">
        <ele>498.221</ele>
        <time>2013-03-02T13:35:17Z</time>
      </trkpt>
      <trkpt lat="43.72952" lon="3.52382">
        <ele>498.248</ele>
        <time>2013-03-02T13:35:31Z</time>
      </trkpt>
      <trkpt lat="43.72949" lon="3.52381">
        <ele>497.944</ele>
        <time>2013-03-02T13:35:34Z</time>
      </trkpt>
      <trkpt lat="43.72936" lon="3.52372">
        <ele>497.185</ele>
        <time>2013-03-02T13:35:46Z</time>
      </trkpt>
      <trkpt lat="43.72922" lon="3.52367">
        <ele>496.702</ele>
        <time>2013-03-02T13:35:59Z</time>
      </trkpt>
      <trkpt lat="43.72906" lon="3.52371">
        <ele>495.718</ele>
        <time>2013-03-02T13:36:13Z</time>
      </trkpt>
      <trkpt lat="43.72903" lon="3.52371">
        <ele>494.822</ele>
        <time>2013-03-02T13:36:15Z</time>
      </trkpt>
      <trkpt lat="43.72899" lon="3.52374">
        <ele>494.532</ele>
        <time>2013-03-02T13:36:19Z</time>
      </trkpt>
      <trkpt lat="43.72885" lon="3.52375">
        <ele>494.041</ele>
        <time>2013-03-02T13:36:28Z</time>
      </trkpt>
      <trkpt lat="43.72884" lon="3.52349">
        <ele>494.255</ele>
        <time>2013-03-02T13:36:41Z</time>
      </trkpt>
      <trkpt lat="43.7288" lon="3.52343">
        <ele>494.38</ele>
        <time>2013-03-02T13:36:45Z</time>
      </trkpt>
      <trkpt lat="43.72881" lon="3.52336">
        <ele>492.565</ele>
        <time>2013-03-02T13:36:50Z</time>
      </trkpt>
      <trkpt lat="43.72882" lon="3.5232">
        <ele>493.317</ele>
        <time>2013-03-02T13:37:04Z</time>
      </trkpt>
      <trkpt lat="43.7289" lon="3.52308">
        <ele>492.295</ele>
        <time>2013-03-02T13:37:16Z</time>
      </trkpt>
      <trkpt lat="43.72894" lon="3.52297">
        <ele>491.585</ele>
        <time>2013-03-02T13:37:23Z</time>
      </trkpt>
      <trkpt lat="43.72901" lon="3.52287">
        <ele>491.212</ele>
        <time>2013-03-02T13:37:32Z</time>
      </trkpt>
      <trkpt lat="43.72901" lon="3.5227">
        <ele>489.654</ele>
        <time>2013-03-02T13:37:38Z</time>
      </trkpt>
      <trkpt lat="43.72902" lon="3.52263">
        <ele>489.756</ele>
        <time>2013-03-02T13:37:45Z</time>
      </trkpt>
      <trkpt lat="43.72904" lon="3.52256">
        <ele>489.521</ele>
        <time>2013-03-02T13:37:50Z</time>
      </trkpt>
      <trkpt lat="43.72906" lon="3.52253">
        <ele>491.814</ele>
        <time>2013-03-02T13:37:52Z</time>
      </trkpt>
      <trkpt lat="43.72906" lon="3.52251">
        <ele>488.298</ele>
        <time>2013-03-02T13:37:53Z</time>
      </trkpt>
      <trkpt lat="43.7291" lon="3.5225">
        <ele>488.971</ele>
        <time>2013-03-02T13:37:55Z</time>
      </trkpt>
      <trkpt lat="43.72916" lon="3.52237">
        <ele>487.831</ele>
        <time>2013-03-02T13:38:04Z</time>
      </trkpt>
      <trkpt lat="43.72908" lon="3.52226">
        <ele>488.306</ele>
        <time>2013-03-02T13:38:13Z</time>
      </trkpt>
      <trkpt lat="43.72904" lon="3.52227">
        <ele>488.874</ele>
        <time>2013-03-02T13:38:16Z</time>
      </trkpt>
      <trkpt lat="43.72896" lon="3.52224">
        <ele>489.781</ele>
        <time>2013-03-02T13:38:22Z</time>
      </trkpt>
      <trkpt lat="43.72894" lon="3.52227">
        <ele>489.565</ele>
        <time>2013-03-02T13:38:24Z</time>
      </trkpt>
      <trkpt lat="43.72881" lon="3.52234">
        <ele>490.886</ele>
        <time>2013-03-02T13:38:35Z</time>
      </trkpt>
      <trkpt lat="43.72876" lon="3.52237">
        <ele>491.098</ele>
        <time>2013-03-02T13:38:39Z</time>
      </trkpt>
      <trkpt lat="43.72858" lon="3.5225">
        <ele>492.018</ele>
        <time>2013-03-02T13:38:55Z</time>
      </trkpt>
      <trkpt lat="43.72846" lon="3.5226">
        <ele>491.719</ele>
        <time>2013-03-02T13:39:10Z</time>
      </trkpt>
      <trkpt lat="43.72839" lon="3.52267">
        <ele>493.243</ele>
        <time>2013-03-02T13:39:20Z</time>
      </trkpt>
      <trkpt lat="43.72833" lon="3.52273">
        <ele>491.073</ele>
        <time>2013-03-02T13:39:29Z</time>
      </trkpt>
      <trkpt lat="43.72825" lon="3.5228">
        <ele>492.409</ele>
        <time>2013-03-02T13:39:41Z</time>
      </trkpt>
      <trkpt lat="43.72826" lon="3.5228">
        <ele>492.107</ele>
        <time>2013-03-02T13:39:45Z</time>
      </trkpt>
      <trkpt lat="43.72826" lon="3.5228">
        <ele>492.504</ele>
        <time>2013-03-02T13:39:49Z</time>
      </trkpt>
      <trkpt lat="43.72818" lon="3.52288">
        <ele>492.201</ele>
        <time>2013-03-02T13:39:59Z</time>
      </trkpt>
      <trkpt lat="43.72813" lon="3.52294">
        <ele>492.193</ele>
        <time>2013-03-02T13:40:04Z</time>
      </trkpt>
      <trkpt lat="43.72799" lon="3.52319">
        <ele>490.979</ele>
        <time>2013-03-02T13:40:24Z</time>
      </trkpt>
      <trkpt lat="43.72789" lon="3.52325">
        <ele>489.535</ele>
        <time>2013-03-02T13:40:36Z</time>
      </trkpt>
      <trkpt lat="43.7279" lon="3.52325">
        <ele>489.441</ele>
        <time>2013-03-02T13:40:48Z</time>
      </trkpt>
      <trkpt lat="43.72794" lon="3.52321">
        <ele>490.263</ele>
        <time>2013-03-02T13:40:52Z</time>
      </trkpt>
      <trkpt lat="43.72796" lon="3.52319">
        <ele>490.089</ele>
        <time>2013-03-02T13:41:03Z</time>
      </trkpt>
      <trkpt lat="43.72796" lon="3.52321">
        <ele>491.328</ele>
        <time>2013-03-02T13:41:15Z</time>
      </trkpt>
      <trkpt lat="43.72793" lon="3.52326">
        <ele>491.283</ele>
        <time>2013-03-02T13:41:19Z</time>
      </trkpt>
      <trkpt lat="43.72791" lon="3.52328">
        <ele>489.883</ele>
        <time>2013-03-02T13:41:21Z</time>
      </trkpt>
      <trkpt lat="43.72789" lon="3.5233">
        <ele>489.418</ele>
        <time>2013-03-02T13:41:23Z</time>
      </trkpt>
      <trkpt lat="43.72786" lon="3.52336">
        <ele>489.263</ele>
        <time>2013-03-02T13:41:28Z</time>
      </trkpt>
      <trkpt lat="43.72779" lon="3.52355">
        <ele>488.862</ele>
        <time>2013-03-02T13:41:42Z</time>
      </trkpt>
      <trkpt lat="43.72776" lon="3.5236">
        <ele>488.813</ele>
        <time>2013-03-02T13:41:47Z</time>
      </trkpt>
      <trkpt lat="43.72772" lon="3.52365">
        <ele>488.813</ele>
        <time>2013-03-02T13:41:51Z</time>
      </trkpt>
      <trkpt lat="43.72768" lon="3.5237">
        <ele>488.273</ele>
        <time>2013-03-02T13:41:55Z</time>
      </trkpt>
      <trkpt lat="43.72767" lon="3.52378">
        <ele>488.156</ele>
        <time>2013-03-02T13:42:19Z</time>
      </trkpt>
      <trkpt lat="43.72756" lon="3.52391">
        <ele>487.064</ele>
        <time>2013-03-02T13:43:14Z</time>
      </trkpt>
      <trkpt lat="43.72754" lon="3.52393">
        <ele>486.055</ele>
        <time>2013-03-02T13:43:17Z</time>
      </trkpt>
      <trkpt lat="43.7275" lon="3.52397">
        <ele>486.559</ele>
        <time>2013-03-02T13:43:28Z</time>
      </trkpt>
      <trkpt lat="43.72749" lon="3.52397">
        <ele>486.407</ele>
        <time>2013-03-02T13:43:29Z</time>
      </trkpt>
      <trkpt lat="43.72733" lon="3.52409">
        <ele>485.311</ele>
        <time>2013-03-02T13:43:45Z</time>
      </trkpt>
      <trkpt lat="43.72731" lon="3.52412">
        <ele>484.852</ele>
        <time>2013-03-02T13:43:47Z</time>
      </trkpt>
      <trkpt lat="43.72725" lon="3.52413">
        <ele>484.609</ele>
        <time>2013-03-02T13:43:53Z</time>
      </trkpt>
      <trkpt lat="43.72717" lon="3.52418">
        <ele>483.939</ele>
        <time>2013-03-02T13:44:01Z</time>
      </trkpt>
      <trkpt lat="43.72703" lon="3.52426">
        <ele>482.956</ele>
        <time>2013-03-02T13:44:13Z</time>
      </trkpt>
      <trkpt lat="43.72688" lon="3.52437">
        <ele>482.452</ele>
        <time>2013-03-02T13:44:27Z</time>
      </trkpt>
      <trkpt lat="43.72678" lon="3.52451">
        <ele>481.121</ele>
        <time>2013-03-02T13:44:38Z</time>
      </trkpt>
      <trkpt lat="43.72667" lon="3.52467">
        <ele>479.036</ele>
        <time>2013-03-02T13:44:51Z</time>
      </trkpt>
      <trkpt lat="43.72665" lon="3.52469">
        <ele>478.875</ele>
        <time>2013-03-02T13:44:53Z</time>
      </trkpt>
      <trkpt lat="43.72664" lon="3.52475">
        <ele>478.044</ele>
        <time>2013-03-02T13:45:06Z</time>
      </trkpt>
      <trkpt lat="43.72659" lon="3.52488">
        <ele>476.038</ele>
        <time>2013-03-02T13:45:20Z</time>
      </trkpt>
      <trkpt lat="43.72651" lon="3.52503">
        <ele>473.828</ele>
        <time>2013-03-02T13:45:32Z</time>
      </trkpt>
      <trkpt lat="43.72648" lon="3.52506">
        <ele>473.595</ele>
        <time>2013-03-02T13:45:34Z</time>
      </trkpt>
      <trkpt lat="43.72645" lon="3.52512">
        <ele>473.384</ele>
        <time>2013-03-02T13:45:38Z</time>
      </trkpt>
      <trkpt lat="43.7264" lon="3.52526">
        <ele>472.51</ele>
        <time>2013-03-02T13:45:47Z</time>
      </trkpt>
      <trkpt lat="43.72629" lon="3.52542">
        <ele>471.665</ele>
        <time>2013-03-02T13:46:00Z</time>
      </trkpt>
      <trkpt lat="43.72618" lon="3.52555">
        <ele>470.291</ele>
        <time>2013-03-02T13:46:11Z</time>
      </trkpt>
      <trkpt lat="43.72603" lon="3.52572">
        <ele>468.399</ele>
        <time>2013-03-02T13:46:27Z</time>
      </trkpt>
      <trkpt lat="43.72599" lon="3.52578">
        <ele>468.083</ele>
        <time>2013-03-02T13:46:32Z</time>
      </trkpt>
      <trkpt lat="43.72587" lon="3.52596">
        <ele>467.093</ele>
        <time>2013-03-02T13:46:46Z</time>
      </trkpt>
      <trkpt lat="43.72582" lon="3.52601">
        <ele>465.428</ele>
        <time>2013-03-02T13:46:51Z</time>
      </trkpt>
      <trkpt lat="43.72565" lon="3.52617">
        <ele>463.245</ele>
        <time>2013-03-02T13:47:06Z</time>
      </trkpt>
      <trkpt lat="43.72556" lon="3.52628">
        <ele>461.15</ele>
        <time>2013-03-02T13:47:18Z</time>
      </trkpt>
      <trkpt lat="43.72546" lon="3.52644">
        <ele>460.19</ele>
        <time>2013-03-02T13:47:31Z</time>
      </trkpt>
      <trkpt lat="43.7254" lon="3.52652">
        <ele>457.924</ele>
        <time>2013-03-02T13:47:39Z</time>
      </trkpt>
      <trkpt lat="43.72533" lon="3.52669">
        <ele>456.053</ele>
        <time>2013-03-02T13:47:52Z</time>
      </trkpt>
      <trkpt lat="43.72533" lon="3.52673">
        <ele>456.144</ele>
        <time>2013-03-02T13:48:06Z</time>
      </trkpt>
      <trkpt lat="43.72533" lon="3.52675">
        <ele>455.407</ele>
        <time>2013-03-02T13:48:08Z</time>
      </trkpt>
      <trkpt lat="43.72533" lon="3.52677">
        <ele>455.847</ele>
        <time>2013-03-02T13:48:10Z</time>
      </trkpt>
      <trkpt lat="43.72531" lon="3.52684">
        <ele>455.115</ele>
        <time>2013-03-02T13:48:15Z</time>
      </trkpt>
      <trkpt lat="43.72529" lon="3.52693">
        <ele>454.768</ele>
        <time>2013-03-02T13:48:20Z</time>
      </trkpt>
      <trkpt lat="43.72527" lon="3.52696">
        <ele>454.495</ele>
        <time>2013-03-02T13:48:24Z</time>
      </trkpt>
      <trkpt lat="43.72524" lon="3.52708">
        <ele>453.829</ele>
        <time>2013-03-02T13:48:32Z</time>
      </trkpt>
      <trkpt lat="43.7252" lon="3.52718">
        <ele>452.953</ele>
        <time>2013-03-02T13:48:39Z</time>
      </trkpt>
      <trkpt lat="43.72522" lon="3.52728">
        <ele>452.707</ele>
        <time>2013-03-02T13:48:45Z</time>
      </trkpt>
      <trkpt lat="43.72526" lon="3.52747">
        <ele>452.631</ele>
        <time>2013-03-02T13:48:56Z</time>
      </trkpt>
      <trkpt lat="43.72528" lon="3.5275">
        <ele>452.177</ele>
        <time>2013-03-02T13:48:58Z</time>
      </trkpt>
      <trkpt lat="43.7253" lon="3.52752">
        <ele>451.555</ele>
        <time>2013-03-02T13:49:00Z</time>
      </trkpt>
      <trkpt lat="43.72533" lon="3.52762">
        <ele>451.02</ele>
        <time>2013-03-02T13:49:06Z</time>
      </trkpt>
      <trkpt lat="43.72534" lon="3.52773">
        <ele>450.246</ele>
        <time>2013-03-02T13:49:20Z</time>
      </trkpt>
      <trkpt lat="43.72534" lon="3.52776">
        <ele>450.531</ele>
        <time>2013-03-02T13:49:32Z</time>
      </trkpt>
      <trkpt lat="43.72532" lon="3.52778">
        <ele>451.108</ele>
        <time>2013-03-02T13:49:34Z</time>
      </trkpt>
      <trkpt lat="43.72525" lon="3.52792">
        <ele>449.737</ele>
        <time>2013-03-02T13:49:45Z</time>
      </trkpt>
      <trkpt lat="43.72519" lon="3.52802">
        <ele>447.713</ele>
        <time>2013-03-02T13:49:53Z</time>
      </trkpt>
      <trkpt lat="43.72516" lon="3.52808">
        <ele>447.713</ele>
        <time>2013-03-02T13:49:57Z</time>
      </trkpt>
      <trkpt lat="43.72515" lon="3.52814">
        <ele>446.988</ele>
        <time>2013-03-02T13:50:00Z</time>
      </trkpt>
      <trkpt lat="43.72512" lon="3.52823">
        <ele>446.856</ele>
        <time>2013-03-02T13:50:06Z</time>
      </trkpt>
      <trkpt lat="43.72509" lon="3.5283">
        <ele>446.761</ele>
        <time>2013-03-02T13:50:12Z</time>
      </trkpt>
      <trkpt lat="43.72507" lon="3.52845">
        <ele>445.41</ele>
        <time>2013-03-02T13:50:20Z</time>
      </trkpt>
      <trkpt lat="43.72507" lon="3.5286">
        <ele>444.977</ele>
        <time>2013-03-02T13:50:30Z</time>
      </trkpt>
      <trkpt lat="43.72507" lon="3.52861">
        <ele>445.116</ele>
        <time>2013-03-02T13:50:31Z</time>
      </trkpt>
      <trkpt lat="43.72509" lon="3.52869">
        <ele>444.866</ele>
        <time>2013-03-02T13:50:44Z</time>
      </trkpt>
      <trkpt lat="43.72509" lon="3.5288">
        <ele>443.736</ele>
        <time>2013-03-02T13:50:55Z</time>
      </trkpt>
      <trkpt lat="43.72508" lon="3.52882">
        <ele>444.104</ele>
        <time>2013-03-02T13:50:56Z</time>
      </trkpt>
      <trkpt lat="43.72508" lon="3.52886">
        <ele>443.515</ele>
        <time>2013-03-02T13:51:00Z</time>
      </trkpt>
      <trkpt lat="43.72508" lon="3.52894">
        <ele>442.983</ele>
        <time>2013-03-02T13:51:05Z</time>
      </trkpt>
      <trkpt lat="43.72506" lon="3.52902">
        <ele>442.596</ele>
        <time>2013-03-02T13:51:15Z</time>
      </trkpt>
      <trkpt lat="43.72506" lon="3.52909">
        <ele>442.425</ele>
        <time>2013-03-02T13:51:26Z</time>
      </trkpt>
      <trkpt lat="43.72506" lon="3.52912">
        <ele>442.051</ele>
        <time>2013-03-02T13:51:29Z</time>
      </trkpt>
      <trkpt lat="43.72505" lon="3.52916">
        <ele>442.227</ele>
        <time>2013-03-02T13:51:32Z</time>
      </trkpt>
      <trkpt lat="43.72504" lon="3.52922">
        <ele>441.961</ele>
        <time>2013-03-02T13:51:36Z</time>
      </trkpt>
      <trkpt lat="43.72499" lon="3.52942">
        <ele>440.618</ele>
        <time>2013-03-02T13:51:50Z</time>
      </trkpt>
      <trkpt lat="43.72496" lon="3.52968">
        <ele>440.054</ele>
        <time>2013-03-02T13:52:05Z</time>
      </trkpt>
      <trkpt lat="43.72495" lon="3.52979">
        <ele>438.475</ele>
        <time>2013-03-02T13:52:12Z</time>
      </trkpt>
      <trkpt lat="43.72495" lon="3.52988">
        <ele>437.869</ele>
        <time>2013-03-02T13:52:18Z</time>
      </trkpt>
      <trkpt lat="43.72488" lon="3.52995">
        <ele>436.895</ele>
        <time>2013-03-02T13:52:25Z</time>
      </trkpt>
      <trkpt lat="43.72483" lon="3.52981">
        <ele>436.216</ele>
        <time>2013-03-02T13:52:37Z</time>
      </trkpt>
      <trkpt lat="43.72481" lon="3.52984">
        <ele>436.043</ele>
        <time>2013-03-02T13:52:42Z</time>
      </trkpt>
      <trkpt lat="43.72475" lon="3.52991">
        <ele>433.541</ele>
        <time>2013-03-02T13:52:49Z</time>
      </trkpt>
      <trkpt lat="43.72464" lon="3.52997">
        <ele>430.042</ele>
        <time>2013-03-02T13:53:01Z</time>
      </trkpt>
      <trkpt lat="43.72456" lon="3.52998">
        <ele>428.62</ele>
        <time>2013-03-02T13:53:11Z</time>
      </trkpt>
      <trkpt lat="43.72456" lon="3.52998">
        <ele>428.105</ele>
        <time>2013-03-02T13:53:12Z</time>
      </trkpt>
      <trkpt lat="43.72452" lon="3.52997">
        <ele>427.584</ele>
        <time>2013-03-02T13:53:16Z</time>
      </trkpt>
      <trkpt lat="43.72446" lon="3.53004">
        <ele>427.203</ele>
        <time>2013-03-02T13:53:22Z</time>
      </trkpt>
      <trkpt lat="43.72437" lon="3.53024">
        <ele>425.549</ele>
        <time>2013-03-02T13:53:36Z</time>
      </trkpt>
      <trkpt lat="43.72434" lon="3.53042">
        <ele>423.801</ele>
        <time>2013-03-02T13:53:48Z</time>
      </trkpt>
      <trkpt lat="43.72434" lon="3.53043">
        <ele>423.711</ele>
        <time>2013-03-02T13:53:49Z</time>
      </trkpt>
      <trkpt lat="43.72435" lon="3.53058">
        <ele>423.253</ele>
        <time>2013-03-02T13:53:58Z</time>
      </trkpt>
      <trkpt lat="43.72432" lon="3.53064">
        <ele>422.757</ele>
        <time>2013-03-02T13:54:03Z</time>
      </trkpt>
      <trkpt lat="43.72427" lon="3.53066">
        <ele>422.316</ele>
        <time>2013-03-02T13:54:08Z</time>
      </trkpt>
      <trkpt lat="43.72425" lon="3.53066">
        <ele>422.249</ele>
        <time>2013-03-02T13:54:10Z</time>
      </trkpt>
      <trkpt lat="43.72421" lon="3.53071">
        <ele>419.9</ele>
        <time>2013-03-02T13:54:17Z</time>
      </trkpt>
      <trkpt lat="43.72419" lon="3.53072">
        <ele>419.491</ele>
        <time>2013-03-02T13:54:20Z</time>
      </trkpt>
      <trkpt lat="43.72417" lon="3.53076">
        <ele>419.635</ele>
        <time>2013-03-02T13:54:23Z</time>
      </trkpt>
      <trkpt lat="43.72411" lon="3.53076">
        <ele>418.566</ele>
        <time>2013-03-02T13:54:29Z</time>
      </trkpt>
      <trkpt lat="43.7241" lon="3.53077">
        <ele>417.287</ele>
        <time>2013-03-02T13:54:31Z</time>
      </trkpt>
      <trkpt lat="43.72408" lon="3.53081">
        <ele>416.555</ele>
        <time>2013-03-02T13:54:34Z</time>
      </trkpt>
      <trkpt lat="43.72404" lon="3.53093">
        <ele>414.229</ele>
        <time>2013-03-02T13:54:44Z</time>
      </trkpt>
      <trkpt lat="43.72395" lon="3.53101">
        <ele>411.986</ele>
        <time>2013-03-02T13:54:57Z</time>
      </trkpt>
      <trkpt lat="43.72394" lon="3.53103">
        <ele>412.276</ele>
        <time>2013-03-02T13:54:59Z</time>
      </trkpt>
      <trkpt lat="43.72392" lon="3.53105">
        <ele>411.279</ele>
        <time>2013-03-02T13:55:01Z</time>
      </trkpt>
      <trkpt lat="43.72389" lon="3.53108">
        <ele>411.301</ele>
        <time>2013-03-02T13:55:04Z</time>
      </trkpt>
      <trkpt lat="43.72387" lon="3.53112">
        <ele>409.791</ele>
        <time>2013-03-02T13:55:07Z</time>
      </trkpt>
      <trkpt lat="43.72386" lon="3.53119">
        <ele>408.138</ele>
        <time>2013-03-02T13:55:13Z</time>
      </trkpt>
      <trkpt lat="43.72386" lon="3.53121">
        <ele>407.049</ele>
        <time>2013-03-02T13:55:15Z</time>
      </trkpt>
      <trkpt lat="43.72382" lon="3.53133">
        <ele>404.811</ele>
        <time>2013-03-02T13:55:26Z</time>
      </trkpt>
      <trkpt lat="43.72381" lon="3.53137">
        <ele>404.579</ele>
        <time>2013-03-02T13:55:28Z</time>
      </trkpt>
      <trkpt lat="43.72379" lon="3.53148">
        <ele>404.252</ele>
        <time>2013-03-02T13:55:36Z</time>
      </trkpt>
      <trkpt lat="43.72369" lon="3.53161">
        <ele>401.903</ele>
        <time>2013-03-02T13:55:47Z</time>
      </trkpt>
      <trkpt lat="43.72368" lon="3.53164">
        <ele>402.22</ele>
        <time>2013-03-02T13:55:49Z</time>
      </trkpt>
      <trkpt lat="43.72363" lon="3.53169">
        <ele>400.788</ele>
        <time>2013-03-02T13:55:55Z</time>
      </trkpt>
      <trkpt lat="43.72363" lon="3.53169">
        <ele>400.641</ele>
        <time>2013-03-02T13:55:56Z</time>
      </trkpt>
      <trkpt lat="43.72358" lon="3.53175">
        <ele>398.952</ele>
        <time>2013-03-02T13:56:03Z</time>
      </trkpt>
      <trkpt lat="43.72347" lon="3.53176">
        <ele>398.796</ele>
        <time>2013-03-02T13:56:12Z</time>
      </trkpt>
      <trkpt lat="43.72346" lon="3.53176">
        <ele>397.895</ele>
        <time>2013-03-02T13:56:14Z</time>
      </trkpt>
      <trkpt lat="43.72342" lon="3.53179">
        <ele>396.391</ele>
        <time>2013-03-02T13:56:18Z</time>
      </trkpt>
      <trkpt lat="43.72336" lon="3.5319">
        <ele>394.708</ele>
        <time>2013-03-02T13:56:28Z</time>
      </trkpt>
      <trkpt lat="43.72332" lon="3.53207">
        <ele>392.877</ele>
        <time>2013-03-02T13:56:38Z</time>
      </trkpt>
      <trkpt lat="43.72333" lon="3.53222">
        <ele>391.798</ele>
        <time>2013-03-02T13:56:47Z</time>
      </trkpt>
      <trkpt lat="43.72335" lon="3.53225">
        <ele>391.722</ele>
        <time>2013-03-02T13:56:49Z</time>
      </trkpt>
      <trkpt lat="43.72341" lon="3.53248">
        <ele>391.182</ele>
        <time>2013-03-02T13:57:03Z</time>
      </trkpt>
      <trkpt lat="43.72344" lon="3.53256">
        <ele>389.941</ele>
        <time>2013-03-02T13:57:09Z</time>
      </trkpt>
      <trkpt lat="43.7235" lon="3.53272">
        <ele>388.48</ele>
        <time>2013-03-02T13:57:20Z</time>
      </trkpt>
      <trkpt lat="43.7236" lon="3.53288">
        <ele>387.479</ele>
        <time>2013-03-02T13:57:31Z</time>
      </trkpt>
      <trkpt lat="43.72363" lon="3.53293">
        <ele>387.907</ele>
        <time>2013-03-02T13:57:35Z</time>
      </trkpt>
      <trkpt lat="43.72364" lon="3.53295">
        <ele>386.821</ele>
        <time>2013-03-02T13:57:37Z</time>
      </trkpt>
      <trkpt lat="43.72361" lon="3.53302">
        <ele>384.638</ele>
        <time>2013-03-02T13:57:43Z</time>
      </trkpt>
      <trkpt lat="43.72355" lon="3.53311">
        <ele>381.58</ele>
        <time>2013-03-02T13:57:52Z</time>
      </trkpt>
      <trkpt lat="43.72352" lon="3.53317">
        <ele>380.84</ele>
        <time>2013-03-02T13:57:58Z</time>
      </trkpt>
      <trkpt lat="43.72347" lon="3.53318">
        <ele>380.344</ele>
        <time>2013-03-02T13:58:03Z</time>
      </trkpt>
      <trkpt lat="43.72343" lon="3.53323">
        <ele>379.305</ele>
        <time>2013-03-02T13:58:09Z</time>
      </trkpt>
      <trkpt lat="43.72338" lon="3.53329">
        <ele>378.246</ele>
        <time>2013-03-02T13:58:14Z</time>
      </trkpt>
      <trkpt lat="43.72334" lon="3.53332">
        <ele>377.487</ele>
        <time>2013-03-02T13:58:18Z</time>
      </trkpt>
      <trkpt lat="43.72323" lon="3.53342">
        <ele>375.545</ele>
        <time>2013-03-02T13:58:29Z</time>
      </trkpt>
      <trkpt lat="43.72316" lon="3.53347">
        <ele>374.427</ele>
        <time>2013-03-02T13:58:36Z</time>
      </trkpt>
      <trkpt lat="43.72304" lon="3.53349">
        <ele>371.881</ele>
        <time>2013-03-02T13:58:49Z</time>
      </trkpt>
      <trkpt lat="43.72303" lon="3.53348">
        <ele>371.218</ele>
        <time>2013-03-02T13:58:51Z</time>
      </trkpt>
      <trkpt lat="43.72293" lon="3.53361">
        <ele>370.172</ele>
        <time>2013-03-02T13:59:04Z</time>
      </trkpt>
      <trkpt lat="43.72295" lon="3.53378">
        <ele>367.403</ele>
        <time>2013-03-02T13:59:14Z</time>
      </trkpt>
      <trkpt lat="43.72301" lon="3.53388">
        <ele>366.519</ele>
        <time>2013-03-02T13:59:22Z</time>
      </trkpt>
      <trkpt lat="43.723" lon="3.53395">
        <ele>365.156</ele>
        <time>2013-03-02T13:59:27Z</time>
      </trkpt>
      <trkpt lat="43.7231" lon="3.53408">
        <ele>362.409</ele>
        <time>2013-03-02T13:59:40Z</time>
      </trkpt>
      <trkpt lat="43.72314" lon="3.53416">
        <ele>359.207</ele>
        <time>2013-03-02T13:59:49Z</time>
      </trkpt>
      <trkpt lat="43.7231" lon="3.53428">
        <ele>357.161</ele>
        <time>2013-03-02T14:00:00Z</time>
      </trkpt>
      <trkpt lat="43.72303" lon="3.53436">
        <ele>355.387</ele>
        <time>2013-03-02T14:00:10Z</time>
      </trkpt>
      <trkpt lat="43.72292" lon="3.5345">
        <ele>354.521</ele>
        <time>2013-03-02T14:00:26Z</time>
      </trkpt>
      <trkpt lat="43.7229" lon="3.53452">
        <ele>354.938</ele>
        <time>2013-03-02T14:00:29Z</time>
      </trkpt>
      <trkpt lat="43.72286" lon="3.53453">
        <ele>356.165</ele>
        <time>2013-03-02T14:00:32Z</time>
      </trkpt>
      <trkpt lat="43.72274" lon="3.53453">
        <ele>356.881</ele>
        <time>2013-03-02T14:00:43Z</time>
      </trkpt>
      <trkpt lat="43.72265" lon="3.53454">
        <ele>355.298</ele>
        <time>2013-03-02T14:00:49Z</time>
      </trkpt>
      <trkpt lat="43.72262" lon="3.53455">
        <ele>355.736</ele>
        <time>2013-03-02T14:00:52Z</time>
      </trkpt>
      <trkpt lat="43.72246" lon="3.53447">
        <ele>354.868</ele>
        <time>2013-03-02T14:01:05Z</time>
      </trkpt>
      <trkpt lat="43.72244" lon="3.53446">
        <ele>355.232</ele>
        <time>2013-03-02T14:01:07Z</time>
      </trkpt>
      <trkpt lat="43.72241" lon="3.53449">
        <ele>354.656</ele>
        <time>2013-03-02T14:01:10Z</time>
      </trkpt>
      <trkpt lat="43.7223" lon="3.53463">
        <ele>354.652</ele>
        <time>2013-03-02T14:01:21Z</time>
      </trkpt>
      <trkpt lat="43.72227" lon="3.53466">
        <ele>354.511</ele>
        <time>2013-03-02T14:01:24Z</time>
      </trkpt>
      <trkpt lat="43.72224" lon="3.53469">
        <ele>354.338</ele>
        <time>2013-03-02T14:01:27Z</time>
      </trkpt>
      <trkpt lat="43.72218" lon="3.53477">
        <ele>354.317</ele>
        <time>2013-03-02T14:01:33Z</time>
      </trkpt>
      <trkpt lat="43.72212" lon="3.53483">
        <ele>354.116</ele>
        <time>2013-03-02T14:01:38Z</time>
      </trkpt>
      <trkpt lat="43.7221" lon="3.53489">
        <ele>352.261</ele>
        <time>2013-03-02T14:01:49Z</time>
      </trkpt>
      <trkpt lat="43.72204" lon="3.53498">
        <ele>351.876</ele>
        <time>2013-03-02T14:01:58Z</time>
      </trkpt>
      <trkpt lat="43.72197" lon="3.53501">
        <ele>350.534</ele>
        <time>2013-03-02T14:02:03Z</time>
      </trkpt>
      <trkpt lat="43.72188" lon="3.53509">
        <ele>349.51</ele>
        <time>2013-03-02T14:02:12Z</time>
      </trkpt>
      <trkpt lat="43.72179" lon="3.5352">
        <ele>348.184</ele>
        <time>2013-03-02T14:02:23Z</time>
      </trkpt>
      <trkpt lat="43.72167" lon="3.53529">
        <ele>347.753</ele>
        <time>2013-03-02T14:02:35Z</time>
      </trkpt>
      <trkpt lat="43.72155" lon="3.53539">
        <ele>346.107</ele>
        <time>2013-03-02T14:02:45Z</time>
      </trkpt>
      <trkpt lat="43.72148" lon="3.53543">
        <ele>345.989</ele>
        <time>2013-03-02T14:02:51Z</time>
      </trkpt>
      <trkpt lat="43.72142" lon="3.53547">
        <ele>345.601</ele>
        <time>2013-03-02T14:02:55Z</time>
      </trkpt>
      <trkpt lat="43.72128" lon="3.53559">
        <ele>343.801</ele>
        <time>2013-03-02T14:03:07Z</time>
      </trkpt>
      <trkpt lat="43.72118" lon="3.53575">
        <ele>343.201</ele>
        <time>2013-03-02T14:03:21Z</time>
      </trkpt>
      <trkpt lat="43.7211" lon="3.53586">
        <ele>344.027</ele>
        <time>2013-03-02T14:03:30Z</time>
      </trkpt>
      <trkpt lat="43.72106" lon="3.53587">
        <ele>343.471</ele>
        <time>2013-03-02T14:03:33Z</time>
      </trkpt>
      <trkpt lat="43.72099" lon="3.53596">
        <ele>342.976</ele>
        <time>2013-03-02T14:03:40Z</time>
      </trkpt>
      <trkpt lat="43.72097" lon="3.53599">
        <ele>342.539</ele>
        <time>2013-03-02T14:03:43Z</time>
      </trkpt>
      <trkpt lat="43.72092" lon="3.53605">
        <ele>341.929</ele>
        <time>2013-03-02T14:03:48Z</time>
      </trkpt>
      <trkpt lat="43.72091" lon="3.53611">
        <ele>342.365</ele>
        <time>2013-03-02T14:03:51Z</time>
      </trkpt>
      <trkpt lat="43.72081" lon="3.53619">
        <ele>342.337</ele>
        <time>2013-03-02T14:04:03Z</time>
      </trkpt>
      <trkpt lat="43.72082" lon="3.53624">
        <ele>342.794</ele>
        <time>2013-03-02T14:04:22Z</time>
      </trkpt>
      <trkpt lat="43.72082" lon="3.53626">
        <ele>342.404</ele>
        <time>2013-03-02T14:05:13Z</time>
      </trkpt>
    </trkseg>
  </trk>
</gpx>